Darstellungsparameter: Aktuell verwendete Einstellungen:
Skalierung der Graphiken ... ?
xyx+y,   Skalierungsfaktor:      Skalierung: Modus: x, Faktor: 1
Darstellungszeitraum ... ?
Vom - - bis: - -   Zeitraum: 12.12.2009 - 11.06.2010
Min/Max/Avg-Anzeige ... ?
Zeige MMA aktuell
Zeige MMA Monat
Zeige MMA alles
Zeige --A aktuell
Zeige --A Monat
Zeige --A alles
Keine MMA-Anzeige
MMA:
Keine MMA-Graphiken
MMA-Basis: 12.12.2009 - 11.06.2010
Quicknavigation für Darstellung... ?
Tage:      1T, 2T, 3T, 5T -1T -2T -3T -5T +1T +2T +3T +5T
Wochen: 1W, 2W, 3W -1W -2W -3W +1W +2W +3W
Monate: 1M, 3M, 6M -1M -3M -6M +1M +3M +6M
Jahre:    1J, 3J, 5J, 10J -1J -3J -5J -10J +1J +3J +5J +10J
Nutze für die Darstellung ... ?
Originaldaten oder Mittelwerte auf ...
Stundenbasis Tagesbasis Wochenbasis
Monatsbasis Jahresbasis      Datenbasis: Original-Daten
Darstellen als:
Statistik (Auto) Statistik J:M      Darstellung:
Zur Graphik,    zurück zur Übersicht aller Sensoren.
 
Tabellarische Datenbersicht: ?
 
Sensor: Nr:Datum:Temp:Abs-Feuchte:Windchill:Wind:
Aussen-T/F 1 12-12-2009 00:09:03 3.4 C 5.68 g/m*3 3.4 C 0 km/h
2 12-12-2009 00:21:02 3.4 C 5.68 g/m*3 3.4 C 0 km/h
3 12-12-2009 00:33:02 3.1 C 5.57 g/m*3 3.1 C 0 km/h
4 12-12-2009 00:45:01 3.1 C 5.63 g/m*3 3.1 C 0 km/h
5 12-12-2009 00:57:01 3.3 C 5.7 g/m*3 3.3 C 0 km/h
6 12-12-2009 01:09:02 3.4 C 5.74 g/m*3 3.4 C 0 km/h
7 12-12-2009 01:21:01 3.2 C 5.66 g/m*3 3.2 C 0 km/h
8 12-12-2009 01:33:01 3.2 C 5.66 g/m*3 3.2 C 0 km/h
9 12-12-2009 01:45:01 3.1 C 5.63 g/m*3 3.1 C 0 km/h
10 12-12-2009 01:57:01 3.3 C 5.7 g/m*3 3.3 C 0 km/h
11 12-12-2009 02:09:02 3.3 C 5.7 g/m*3 3.3 C 0 km/h
12 12-12-2009 02:21:02 3.2 C 5.66 g/m*3 3.2 C 0 km/h
13 12-12-2009 02:33:01 3.1 C 5.63 g/m*3 3.1 C 0 km/h
14 12-12-2009 02:46:03 3.2 C 5.72 g/m*3 3.2 C 0 km/h
15 12-12-2009 02:58:03 3.4 C 5.8 g/m*3 3.4 C 0 km/h
16 12-12-2009 03:10:03 3.4 C 5.8 g/m*3 3.4 C 0 km/h
17 12-12-2009 03:22:03 3.3 C 5.7 g/m*3 3.3 C 0 km/h
18 12-12-2009 03:34:02 3.4 C 5.74 g/m*3 3.4 C 0 km/h
19 12-12-2009 03:46:02 3.2 C 5.6 g/m*3 3.2 C 0 km/h
20 12-12-2009 03:58:02 3.1 C 5.57 g/m*3 3.1 C 0 km/h
21 12-12-2009 04:10:02 3.1 C 5.51 g/m*3 3.1 C 0 km/h
22 12-12-2009 04:22:02 3.1 C 5.51 g/m*3 3.1 C 0 km/h
23 12-12-2009 04:34:02 2.9 C 5.49 g/m*3 2.9 C 0 km/h
24 12-12-2009 04:46:02 2.9 C 5.49 g/m*3 2.9 C 0 km/h
25 12-12-2009 04:58:02 2.9 C 5.49 g/m*3 2.9 C 0 km/h
Sensor: Nr:Datum:Temp:Abs-Feuchte:Windchill:Wind:
Aussen-T/F 26 12-12-2009 05:10:02 3 C 5.47 g/m*3 3 C 0 km/h
27 12-12-2009 05:22:02 2.9 C 5.49 g/m*3 2.9 C 0 km/h
28 12-12-2009 05:34:02 2.9 C 5.49 g/m*3 2.9 C 0 km/h
29 12-12-2009 05:46:02 3 C 5.47 g/m*3 3 C 0 km/h
30 12-12-2009 05:58:02 2.9 C 5.49 g/m*3 2.9 C 0 km/h
31 12-12-2009 06:10:02 2.9 C 5.49 g/m*3 2.9 C 0 km/h
32 12-12-2009 06:22:02 3 C 5.47 g/m*3 3 C 0 km/h
33 12-12-2009 06:34:02 3 C 5.47 g/m*3 3 C 0 km/h
34 12-12-2009 06:46:02 3.1 C 5.51 g/m*3 3.1 C 0 km/h
35 12-12-2009 06:58:02 3.1 C 5.51 g/m*3 3.1 C 0 km/h
36 12-12-2009 07:10:01 3.1 C 5.51 g/m*3 3.1 C 0 km/h
37 12-12-2009 07:22:02 3.1 C 5.51 g/m*3 3.1 C 0 km/h
38 12-12-2009 07:34:01 3.1 C 5.51 g/m*3 3.1 C 0 km/h
39 12-12-2009 07:46:02 3.1 C 5.51 g/m*3 3.1 C 0 km/h
40 12-12-2009 07:58:02 3.1 C 5.51 g/m*3 3.1 C 0 km/h
41 12-12-2009 08:10:02 3.1 C 5.51 g/m*3 3.1 C 0 km/h
42 12-12-2009 08:22:02 3.1 C 5.51 g/m*3 3.1 C 0 km/h
43 12-12-2009 08:34:02 3.4 C 5.62 g/m*3 3.4 C 0 km/h
44 12-12-2009 08:46:02 3.1 C 5.51 g/m*3 3.1 C 0 km/h
45 12-12-2009 08:58:02 3.1 C 5.51 g/m*3 3.1 C 0 km/h
46 12-12-2009 09:10:02 3.2 C 5.54 g/m*3 3.2 C 0 km/h
47 12-12-2009 09:22:01 3.2 C 5.54 g/m*3 3.2 C 0 km/h
48 12-12-2009 09:34:02 3.3 C 5.58 g/m*3 3.3 C 0 km/h
49 12-12-2009 09:46:02 3.4 C 5.62 g/m*3 3.4 C 0 km/h
50 12-12-2009 09:58:02 3.4 C 5.62 g/m*3 3.4 C 0 km/h
Sensor: Nr:Datum:Temp:Abs-Feuchte:Windchill:Wind:
Aussen-T/F 51 12-12-2009 10:10:02 3.4 C 5.56 g/m*3 3.4 C 0 km/h
52 12-12-2009 10:22:01 3.5 C 5.6 g/m*3 3.5 C 0 km/h
53 12-12-2009 10:34:02 3.4 C 5.56 g/m*3 3.4 C 0 km/h
54 12-12-2009 10:46:02 3.3 C 5.52 g/m*3 3.3 C 0 km/h
55 12-12-2009 10:58:02 3.4 C 5.56 g/m*3 3.4 C 0 km/h
56 12-12-2009 11:10:02 3.6 C 5.63 g/m*3 3.6 C 0 km/h
57 12-12-2009 11:22:02 3.6 C 5.63 g/m*3 3.6 C 0 km/h
58 12-12-2009 11:34:02 3.6 C 5.63 g/m*3 3.6 C 0 km/h
59 12-12-2009 11:46:02 3.7 C 5.61 g/m*3 3.7 C 0 km/h
60 12-12-2009 11:58:02 3.8 C 5.65 g/m*3 3.8 C 0 km/h
61 12-12-2009 12:10:02 3.8 C 5.58 g/m*3 3.8 C 0 km/h
62 12-12-2009 12:22:01 3.8 C 5.58 g/m*3 3.8 C 0 km/h
63 12-12-2009 12:34:02 3.8 C 5.58 g/m*3 3.8 C 0 km/h
64 12-12-2009 12:46:01 3.8 C 5.52 g/m*3 3.8 C 0 km/h
65 12-12-2009 12:58:01 4 C 5.53 g/m*3 4 C 0 km/h
66 12-12-2009 13:10:02 4.2 C 5.54 g/m*3 4.2 C 0 km/h
67 12-12-2009 13:22:02 4.2 C 5.54 g/m*3 4.2 C 0 km/h
68 12-12-2009 13:34:01 4.4 C 5.55 g/m*3 4.4 C 0 km/h
69 12-12-2009 13:46:02 4.5 C 5.52 g/m*3 4.5 C 0 km/h
70 12-12-2009 13:58:02 4.5 C 5.46 g/m*3 4.5 C 0 km/h
71 12-12-2009 14:10:01 4.5 C 5.39 g/m*3 4.5 C 0 km/h
72 12-12-2009 14:22:02 4.6 C 5.43 g/m*3 4.6 C 0 km/h
73 12-12-2009 14:34:01 4.7 C 5.46 g/m*3 4.7 C 0 km/h
74 12-12-2009 14:46:03 4.6 C 5.43 g/m*3 4.6 C 0 km/h
75 12-12-2009 14:58:03 4.5 C 5.39 g/m*3 4.5 C 0 km/h
Sensor: Nr:Datum:Temp:Abs-Feuchte:Windchill:Wind:
Aussen-T/F 76 12-12-2009 15:10:02 4.4 C 5.29 g/m*3 4.4 C 0 km/h
77 12-12-2009 15:22:02 4.4 C 5.22 g/m*3 4.4 C 0 km/h
78 12-12-2009 15:34:02 4.4 C 5.22 g/m*3 4.4 C 0 km/h
79 12-12-2009 15:46:02 4.4 C 5.03 g/m*3 4.4 C 0 km/h
80 12-12-2009 15:58:02 4.4 C 4.9 g/m*3 4.4 C 0 km/h
81 12-12-2009 16:10:01 4.4 C 4.83 g/m*3 4.4 C 0 km/h
82 12-12-2009 16:22:02 4.3 C 4.74 g/m*3 4.3 C 0 km/h
83 12-12-2009 16:34:02 4.2 C 4.77 g/m*3 4.2 C 0 km/h
84 12-12-2009 16:46:02 4.2 C 4.9 g/m*3 4.2 C 0 km/h
85 12-12-2009 16:58:03 4.1 C 4.86 g/m*3 4.1 C 0 km/h
86 12-12-2009 17:10:01 4.1 C 4.8 g/m*3 4.1 C 0 km/h
87 12-12-2009 17:22:01 4.1 C 4.74 g/m*3 4.1 C 0 km/h
88 12-12-2009 17:34:02 4 C 4.77 g/m*3 4 C 0 km/h
89 12-12-2009 17:46:02 4 C 4.77 g/m*3 4 C 0 km/h
90 12-12-2009 17:58:02 4 C 4.77 g/m*3 4 C 0 km/h
91 12-12-2009 18:10:01 3.9 C 4.86 g/m*3 3.9 C 0 km/h
92 12-12-2009 18:22:02 3.9 C 4.86 g/m*3 3.9 C 0 km/h
93 12-12-2009 18:34:02 3.8 C 4.83 g/m*3 3.8 C 0 km/h
94 12-12-2009 18:46:01 3.9 C 4.8 g/m*3 3.9 C 0 km/h
95 12-12-2009 18:58:01 3.9 C 4.86 g/m*3 3.9 C 0 km/h
96 12-12-2009 19:10:02 3.8 C 4.83 g/m*3 3.8 C 0 km/h
97 12-12-2009 19:22:01 3.8 C 4.77 g/m*3 3.8 C 0 km/h
98 12-12-2009 19:34:02 3.5 C 4.67 g/m*3 3.5 C 0 km/h
99 12-12-2009 19:46:02 3.1 C 4.61 g/m*3 3.1 C 0 km/h
100 12-12-2009 19:58:02 2.8 C 4.69 g/m*3 2.8 C 0 km/h
Sensor: Nr:Datum:Temp:Abs-Feuchte:Windchill:Wind:
Aussen-T/F 101 12-12-2009 20:10:02 2.7 C 4.72 g/m*3 2.7 C 0 km/h
102 12-12-2009 20:22:01 2.8 C 4.81 g/m*3 2.8 C 0 km/h
103 12-12-2009 20:34:02 3 C 4.82 g/m*3 3 C 0 km/h
104 12-12-2009 20:46:02 3 C 4.82 g/m*3 3 C 0 km/h
105 12-12-2009 20:58:02 3.2 C 4.76 g/m*3 3.2 C 0 km/h
106 12-12-2009 21:10:02 3.1 C 4.73 g/m*3 3.1 C 0 km/h
107 12-12-2009 21:22:02 3.2 C 4.82 g/m*3 3.2 C 0 km/h
108 12-12-2009 21:34:01 3.1 C 4.79 g/m*3 3.1 C 0 km/h
109 12-12-2009 21:46:02 3 C 4.76 g/m*3 3 C 0 km/h
110 12-12-2009 21:58:02 3.1 C 4.85 g/m*3 3.1 C 0 km/h
111 12-12-2009 22:10:01 3.1 C 4.85 g/m*3 3.1 C 0 km/h
112 12-12-2009 22:22:02 3 C 4.82 g/m*3 3 C 0 km/h
113 12-12-2009 22:34:01 3 C 4.82 g/m*3 3 C 0 km/h
114 12-12-2009 22:46:02 3 C 4.82 g/m*3 3 C 0 km/h
115 12-12-2009 22:58:02 3 C 4.82 g/m*3 3 C 0 km/h
116 12-12-2009 23:10:02 3 C 4.76 g/m*3 3 C 0 km/h
117 12-12-2009 23:22:02 3.1 C 4.73 g/m*3 3.1 C 0 km/h
118 12-12-2009 23:34:03 3.1 C 4.67 g/m*3 3.1 C 0 km/h
119 12-12-2009 23:46:02 3.2 C 4.7 g/m*3 3.2 C 0 km/h
120 12-12-2009 23:58:02 3.1 C 4.67 g/m*3 3.1 C 0 km/h
121 13-12-2009 00:10:01 3.1 C 4.61 g/m*3 3.1 C 0 km/h
122 13-12-2009 00:22:01 3.1 C 4.61 g/m*3 3.1 C 0 km/h
123 13-12-2009 00:34:02 3.1 C 4.61 g/m*3 3.1 C 0 km/h
124 13-12-2009 00:46:01 3.1 C 4.67 g/m*3 3.1 C 0 km/h
125 13-12-2009 00:58:01 3.1 C 4.67 g/m*3 3.1 C 0 km/h
Sensor: Nr:Datum:Temp:Abs-Feuchte:Windchill:Wind:
Aussen-T/F 126 13-12-2009 01:10:02 3.1 C 4.67 g/m*3 3.1 C 0 km/h
127 13-12-2009 01:22:02 3 C 4.58 g/m*3 3 C 0 km/h
128 13-12-2009 01:34:02 2.9 C 4.61 g/m*3 2.9 C 0 km/h
129 13-12-2009 01:46:02 2.8 C 4.63 g/m*3 2.8 C 0 km/h
130 13-12-2009 01:58:02 2.6 C 4.63 g/m*3 2.6 C 0 km/h
131 13-12-2009 02:10:02 2.6 C 4.69 g/m*3 2.6 C 0 km/h
132 13-12-2009 02:22:02 2.4 C 4.68 g/m*3 2.4 C 0 km/h
133 13-12-2009 02:34:01 2.4 C 4.74 g/m*3 2.4 C 0 km/h
134 13-12-2009 02:47:04 2.2 C 4.79 g/m*3 2.2 C 0 km/h
135 13-12-2009 02:59:04 2.2 C 4.79 g/m*3 2.2 C 0 km/h
136 13-12-2009 03:11:03 2.1 C 4.81 g/m*3 2.1 C 0 km/h
137 13-12-2009 03:23:03 2.1 C 4.87 g/m*3 2.1 C 0 km/h
138 13-12-2009 03:35:01 2.2 C 4.9 g/m*3 2.2 C 0 km/h
139 13-12-2009 03:47:01 2.3 C 4.99 g/m*3 2.3 C 0 km/h
140 13-12-2009 03:59:01 2.2 C 4.96 g/m*3 2.2 C 0 km/h
141 13-12-2009 04:11:02 2.2 C 4.96 g/m*3 2.2 C 0 km/h
142 13-12-2009 04:23:01 2.2 C 4.96 g/m*3 2.2 C 0 km/h
143 13-12-2009 04:35:01 2.2 C 4.96 g/m*3 2.2 C 0 km/h
144 13-12-2009 04:47:01 2.2 C 4.9 g/m*3 2.2 C 0 km/h
145 13-12-2009 04:59:01 2.2 C 4.9 g/m*3 2.2 C 0 km/h
146 13-12-2009 05:11:01 2.2 C 4.9 g/m*3 2.2 C 0 km/h
147 13-12-2009 05:23:02 2.2 C 4.84 g/m*3 2.2 C 0 km/h
148 13-12-2009 05:35:01 2.2 C 4.84 g/m*3 2.2 C 0 km/h
149 13-12-2009 05:47:03 2.2 C 4.84 g/m*3 2.2 C 0 km/h
150 13-12-2009 05:59:03 2.2 C 4.84 g/m*3 2.2 C 0 km/h
Sensor: Nr:Datum:Temp:Abs-Feuchte:Windchill:Wind:
Aussen-T/F 151 13-12-2009 06:11:02 2.2 C 4.79 g/m*3 2.2 C 0 km/h
152 13-12-2009 06:23:02 2.2 C 4.79 g/m*3 2.2 C 0 km/h
153 13-12-2009 06:35:02 2.2 C 4.79 g/m*3 2.2 C 0 km/h
154 13-12-2009 06:47:02 2 C 4.56 g/m*3 2 C 0 km/h
155 13-12-2009 06:59:02 2.1 C 4.25 g/m*3 2.1 C 0 km/h
156 13-12-2009 07:11:01 2 C 4.06 g/m*3 2 C 0 km/h
157 13-12-2009 07:23:02 1.7 C 4.03 g/m*3 1.7 C 0 km/h
158 13-12-2009 07:35:02 1.7 C 4.08 g/m*3 1.7 C 0 km/h
159 13-12-2009 07:47:02 1.7 C 4.03 g/m*3 1.7 C 0 km/h
160 13-12-2009 07:59:02 1.7 C 3.97 g/m*3 1.7 C 0 km/h
161 13-12-2009 08:11:03 1.7 C 4.03 g/m*3 1.7 C 0 km/h
162 13-12-2009 08:23:02 1.7 C 4.08 g/m*3 1.7 C 0 km/h
163 13-12-2009 08:35:02 1.7 C 4.08 g/m*3 1.7 C 0 km/h
164 13-12-2009 08:47:01 1.7 C 4.08 g/m*3 1.7 C 0 km/h
165 13-12-2009 08:59:01 1.8 C 4.11 g/m*3 1.8 C 0 km/h
166 13-12-2009 09:11:02 1.8 C 4.11 g/m*3 1.8 C 0 km/h
167 13-12-2009 09:23:01 1.9 C 4.14 g/m*3 1.9 C 0 km/h
168 13-12-2009 09:35:01 2 C 4.11 g/m*3 2 C 0 km/h
169 13-12-2009 09:47:01 2.1 C 4.14 g/m*3 2.1 C 0 km/h
170 13-12-2009 09:59:01 2.1 C 4.08 g/m*3 2.1 C 0 km/h
171 13-12-2009 10:11:02 2.1 C 3.97 g/m*3 2.1 C 0 km/h
172 13-12-2009 10:23:01 2.1 C 3.92 g/m*3 2.1 C 0 km/h
173 13-12-2009 10:35:02 2.1 C 3.75 g/m*3 2.1 C 0 km/h
174 13-12-2009 10:47:01 2.3 C 3.69 g/m*3 2.3 C 0 km/h
175 13-12-2009 10:59:01 2.3 C 3.52 g/m*3 2.3 C 0 km/h
Sensor: Nr:Datum:Temp:Abs-Feuchte:Windchill:Wind:
Aussen-T/F 176 13-12-2009 11:11:02 2.3 C 3.52 g/m*3 2.3 C 0 km/h
177 13-12-2009 11:23:01 2.3 C 3.52 g/m*3 2.3 C 0 km/h
178 13-12-2009 11:35:01 2.7 C 3.67 g/m*3 2.7 C 0 km/h
179 13-12-2009 11:47:01 2.8 C 3.7 g/m*3 2.8 C 0 km/h
180 13-12-2009 11:59:01 2.5 C 3.56 g/m*3 2.5 C 0 km/h
181 13-12-2009 12:11:01 2.5 C 3.56 g/m*3 2.5 C 0 km/h
182 13-12-2009 12:23:02 2.6 C 3.59 g/m*3 2.6 C 0 km/h
183 13-12-2009 12:35:01 2.6 C 3.59 g/m*3 2.6 C 0 km/h
184 13-12-2009 12:47:02 2.9 C 3.48 g/m*3 2.9 C 0 km/h
185 13-12-2009 12:59:02 2.8 C 3.4 g/m*3 2.8 C 0 km/h
186 13-12-2009 13:11:02 2.6 C 3.47 g/m*3 2.6 C 0 km/h
187 13-12-2009 13:23:02 2.6 C 3.47 g/m*3 2.6 C 0 km/h
188 13-12-2009 13:35:02 2.7 C 3.5 g/m*3 2.7 C 0 km/h
189 13-12-2009 13:47:02 2.8 C 3.58 g/m*3 2.8 C 0 km/h
190 13-12-2009 13:59:02 2.8 C 3.28 g/m*3 2.8 C 0 km/h
191 13-12-2009 14:11:02 2.6 C 3.07 g/m*3 2.6 C 0 km/h
192 13-12-2009 14:23:02 2.3 C 3.01 g/m*3 2.3 C 0 km/h
193 13-12-2009 14:35:01 2 C 2.95 g/m*3 2 C 0 km/h
194 13-12-2009 14:47:02 1.7 C 2.99 g/m*3 1.7 C 0 km/h
195 13-12-2009 14:59:02 1.6 C 2.97 g/m*3 1.6 C 0 km/h
196 13-12-2009 15:11:02 1.6 C 2.97 g/m*3 1.6 C 0 km/h
197 13-12-2009 15:23:02 1.5 C 3.01 g/m*3 1.5 C 0 km/h
198 13-12-2009 15:35:03 1.4 C 2.72 g/m*3 1.4 C 0 km/h
199 13-12-2009 15:47:02 1.4 C 2.72 g/m*3 1.4 C 0 km/h
200 13-12-2009 15:59:02 1.3 C 2.7 g/m*3 1.3 C 0 km/h
Sensor: Nr:Datum:Temp:Abs-Feuchte:Windchill:Wind:
Aussen-T/F 201 13-12-2009 16:11:01 1.2 C 2.63 g/m*3 1.2 C 0 km/h
202 13-12-2009 16:23:02 1.1 C 2.67 g/m*3 1.1 C 0 km/h
203 13-12-2009 16:35:01 1 C 2.7 g/m*3 1 C 0 km/h
204 13-12-2009 16:47:02 1 C 2.8 g/m*3 1 C 0 km/h
205 13-12-2009 16:59:02 0.9 C 2.73 g/m*3 0.9 C 0 km/h
206 13-12-2009 17:11:01 0.8 C 2.61 g/m*3 0.8 C 0 km/h
207 13-12-2009 17:23:01 0.8 C 2.61 g/m*3 0.8 C 0 km/h
208 13-12-2009 17:35:02 0.8 C 2.51 g/m*3 0.8 C 0 km/h
209 13-12-2009 17:47:02 0.6 C 2.42 g/m*3 0.6 C 0 km/h
210 13-12-2009 17:59:02 0.6 C 2.42 g/m*3 0.6 C 0 km/h
211 13-12-2009 18:11:02 0.5 C 2.41 g/m*3 0.5 C 0 km/h
212 13-12-2009 18:23:02 0.5 C 2.46 g/m*3 0.5 C 0 km/h
213 13-12-2009 18:35:02 0.4 C 2.39 g/m*3 0.4 C 0 km/h
214 13-12-2009 18:47:01 0.3 C 2.37 g/m*3 0.3 C 0 km/h
215 13-12-2009 18:59:01 0.2 C 2.41 g/m*3 0.2 C 0 km/h
216 13-12-2009 19:11:02 0.2 C 2.36 g/m*3 0.2 C 0 km/h
217 13-12-2009 19:23:01 0 C 2.37 g/m*3 0 C 0 km/h
218 13-12-2009 19:35:02 -0.2 C 2.39 g/m*3 -0.2 C 0 km/h
219 13-12-2009 19:47:02 -0.4 C 2.4 g/m*3 -0.4 C 0 km/h
220 13-12-2009 19:59:02 -0.5 C 2.43 g/m*3 -0.5 C 0 km/h
221 13-12-2009 20:11:02 -0.6 C 2.42 g/m*3 -0.6 C 0 km/h
222 13-12-2009 20:23:02 -0.6 C 2.46 g/m*3 -0.6 C 0 km/h
223 13-12-2009 20:35:02 -0.7 C 2.45 g/m*3 -0.7 C 0 km/h
224 13-12-2009 20:47:02 -0.7 C 2.45 g/m*3 -0.7 C 0 km/h
225 13-12-2009 20:59:02 -0.8 C 2.43 g/m*3 -0.8 C 0 km/h
Sensor: Nr:Datum:Temp:Abs-Feuchte:Windchill:Wind:
Aussen-T/F 226 13-12-2009 21:11:02 -0.9 C 2.46 g/m*3 -0.9 C 0 km/h
227 13-12-2009 21:23:02 -0.9 C 2.5 g/m*3 -0.9 C 0 km/h
228 13-12-2009 21:35:02 -0.9 C 2.5 g/m*3 -0.9 C 0 km/h
229 13-12-2009 21:47:02 -0.7 C 2.54 g/m*3 -0.7 C 0 km/h
230 13-12-2009 21:59:02 -0.5 C 2.57 g/m*3 -0.5 C 0 km/h
231 13-12-2009 22:11:02 -0.5 C 2.57 g/m*3 -0.5 C 0 km/h
232 13-12-2009 22:24:02 -0.4 C 2.59 g/m*3 -0.4 C 0 km/h
233 13-12-2009 22:36:02 -0.5 C 2.57 g/m*3 -0.5 C 0 km/h
234 13-12-2009 22:48:02 -0.4 C 2.59 g/m*3 -0.4 C 0 km/h
235 13-12-2009 23:00:02 -0.3 C 2.56 g/m*3 -0.3 C 0 km/h
236 13-12-2009 23:12:02 -0.3 C 2.56 g/m*3 -0.3 C 0 km/h
237 13-12-2009 23:24:02 -0.3 C 2.56 g/m*3 -0.3 C 0 km/h
238 13-12-2009 23:36:02 -0.3 C 2.61 g/m*3 -0.3 C 0 km/h
239 13-12-2009 23:48:02 -0.3 C 2.61 g/m*3 -0.3 C 0 km/h
240 14-12-2009 00:00:02 -0.3 C 2.66 g/m*3 -0.3 C 0 km/h
241 14-12-2009 00:12:02 -0.3 C 2.71 g/m*3 -0.3 C 0 km/h
242 14-12-2009 00:24:02 -0.4 C 2.73 g/m*3 -0.4 C 0 km/h
243 14-12-2009 00:36:02 -0.4 C 2.83 g/m*3 -0.4 C 0 km/h
244 14-12-2009 00:48:02 -0.5 C 2.86 g/m*3 -0.5 C 0 km/h
245 14-12-2009 01:00:02 -0.7 C 2.86 g/m*3 -0.7 C 0 km/h
246 14-12-2009 01:12:02 -1.1 C 2.83 g/m*3 -1.1 C 0 km/h
247 14-12-2009 01:24:02 -1.4 C 2.86 g/m*3 -1.4 C 0 km/h
248 14-12-2009 01:36:02 -1.7 C 2.84 g/m*3 -1.7 C 0 km/h
249 14-12-2009 01:48:02 -2 C 2.78 g/m*3 -2 C 0 km/h
250 14-12-2009 02:00:03 -2.2 C 2.78 g/m*3 -2.2 C 0 km/h
Sensor: Nr:Datum:Temp:Abs-Feuchte:Windchill:Wind:
Aussen-T/F 251 14-12-2009 02:12:03 -2.3 C 2.81 g/m*3 -2.3 C 0 km/h
252 14-12-2009 02:24:03 -2.4 C 2.79 g/m*3 -2.4 C 0 km/h
253 14-12-2009 02:36:03 -2.4 C 2.83 g/m*3 -2.4 C 0 km/h
254 14-12-2009 02:48:03 -2.5 C 2.85 g/m*3 -2.5 C 0 km/h
255 14-12-2009 03:00:03 -2.5 C 2.85 g/m*3 -2.5 C 0 km/h
256 14-12-2009 03:12:03 -2.7 C 2.85 g/m*3 -2.7 C 0 km/h
257 14-12-2009 03:24:03 -2.5 C 2.93 g/m*3 -2.5 C 0 km/h
258 14-12-2009 03:36:03 -2.1 C 3.01 g/m*3 -2.1 C 0 km/h
259 14-12-2009 03:48:03 -1.8 C 3.08 g/m*3 -1.8 C 0 km/h
260 14-12-2009 04:00:03 -1.7 C 3.06 g/m*3 -1.7 C 0 km/h
261 14-12-2009 04:12:03 -1.5 C 3.06 g/m*3 -1.5 C 0 km/h
262 14-12-2009 04:24:03 -1.4 C 3.08 g/m*3 -1.4 C 0 km/h
263 14-12-2009 04:36:03 -1.3 C 3.01 g/m*3 -1.3 C 0 km/h
264 14-12-2009 04:48:03 -1.2 C 2.99 g/m*3 -1.2 C 0 km/h
265 14-12-2009 05:00:03 -1.1 C 2.96 g/m*3 -1.1 C 0 km/h
266 14-12-2009 05:12:03 -0.9 C 2.87 g/m*3 -0.9 C 0 km/h
267 14-12-2009 05:24:03 -0.9 C 2.82 g/m*3 -0.9 C 0 km/h
268 14-12-2009 05:36:03 -0.9 C 2.78 g/m*3 -0.9 C 0 km/h
269 14-12-2009 05:48:03 -0.8 C 2.75 g/m*3 -0.8 C 0 km/h
270 14-12-2009 06:00:03 -0.8 C 2.66 g/m*3 -0.8 C 0 km/h
271 14-12-2009 06:12:04 -0.7 C 2.68 g/m*3 -0.7 C 0 km/h
272 14-12-2009 06:24:04 -0.7 C 2.63 g/m*3 -0.7 C 0 km/h
273 14-12-2009 06:36:04 -0.7 C 2.58 g/m*3 -0.7 C 0 km/h
274 14-12-2009 06:48:04 -0.8 C 2.57 g/m*3 -0.8 C 0 km/h
275 14-12-2009 07:00:04 -0.8 C 2.57 g/m*3 -0.8 C 0 km/h
Sensor: Nr:Datum:Temp:Abs-Feuchte:Windchill:Wind:
Aussen-T/F 276 14-12-2009 07:12:04 -0.8 C 2.52 g/m*3 -0.8 C 0 km/h
277 14-12-2009 07:24:04 -0.8 C 2.52 g/m*3 -0.8 C 0 km/h
278 14-12-2009 07:36:04 -0.7 C 2.58 g/m*3 -0.7 C 0 km/h
279 14-12-2009 07:48:02 -0.7 C 2.63 g/m*3 -0.7 C 0 km/h
280 14-12-2009 08:00:02 -0.7 C 2.63 g/m*3 -0.7 C 0 km/h
281 14-12-2009 08:12:02 -0.7 C 2.63 g/m*3 -0.7 C 0 km/h
282 14-12-2009 08:24:02 -0.7 C 2.58 g/m*3 -0.7 C 0 km/h
283 14-12-2009 08:36:01 -0.7 C 2.63 g/m*3 -0.7 C 0 km/h
284 14-12-2009 08:48:02 -0.7 C 2.63 g/m*3 -0.7 C 0 km/h
285 14-12-2009 09:00:02 -0.7 C 2.63 g/m*3 -0.7 C 0 km/h
286 14-12-2009 09:12:02 -0.7 C 2.63 g/m*3 -0.7 C 0 km/h
287 14-12-2009 09:24:02 -0.7 C 2.63 g/m*3 -0.7 C 0 km/h
288 14-12-2009 09:36:03 -0.7 C 2.58 g/m*3 -0.7 C 0 km/h
289 14-12-2009 09:48:02 -0.7 C 2.54 g/m*3 -0.7 C 0 km/h
290 14-12-2009 10:00:02 -0.6 C 2.51 g/m*3 -0.6 C 0 km/h
291 14-12-2009 10:12:03 -0.5 C 2.48 g/m*3 -0.5 C 0 km/h
292 14-12-2009 10:24:02 -0.4 C 2.5 g/m*3 -0.4 C 0 km/h
293 14-12-2009 10:36:03 -0.5 C 2.43 g/m*3 -0.5 C 0 km/h
294 14-12-2009 10:48:02 -0.2 C 2.53 g/m*3 -0.2 C 0 km/h
295 14-12-2009 11:00:02 -0.2 C 2.48 g/m*3 -0.2 C 0 km/h
296 14-12-2009 11:12:02 -0.2 C 2.48 g/m*3 -0.2 C 0 km/h
297 14-12-2009 11:24:01 0 C 2.52 g/m*3 0 C 0 km/h
298 14-12-2009 11:36:02 0.1 C 2.49 g/m*3 0.1 C 0 km/h
299 14-12-2009 11:48:01 0.3 C 2.52 g/m*3 0.3 C 0 km/h
300 14-12-2009 12:00:01 0.2 C 2.46 g/m*3 0.2 C 0 km/h
Sensor: Nr:Datum:Temp:Abs-Feuchte:Windchill:Wind:
Aussen-T/F 301 14-12-2009 12:12:02 0.1 C 2.44 g/m*3 0.1 C 0 km/h
302 14-12-2009 12:24:01 0.1 C 2.44 g/m*3 0.1 C 0 km/h
303 14-12-2009 12:36:02 0.1 C 2.44 g/m*3 0.1 C 0 km/h
304 14-12-2009 12:48:01 0 C 2.42 g/m*3 0 C 0 km/h
305 14-12-2009 13:00:01 0 C 2.42 g/m*3 0 C 0 km/h
306 14-12-2009 13:12:02 0 C 2.42 g/m*3 0 C 0 km/h
307 14-12-2009 13:24:01 0.1 C 2.44 g/m*3 0.1 C 0 km/h
308 14-12-2009 13:36:01 0.2 C 2.46 g/m*3 0.2 C 0 km/h
309 14-12-2009 13:48:01 0.4 C 2.49 g/m*3 0.4 C 0 km/h
310 14-12-2009 14:00:01 0.6 C 2.58 g/m*3 0.6 C 0 km/h
311 14-12-2009 14:12:01 0.6 C 2.63 g/m*3 0.6 C 0 km/h
312 14-12-2009 14:24:02 0.3 C 2.57 g/m*3 0.3 C 0 km/h
313 14-12-2009 14:36:01 0.2 C 2.6 g/m*3 0.2 C 0 km/h
314 14-12-2009 14:48:02 0.1 C 2.63 g/m*3 0.1 C 0 km/h
315 14-12-2009 15:00:02 0 C 2.62 g/m*3 0 C 0 km/h
316 14-12-2009 15:12:01 -0.1 C 2.65 g/m*3 -0.1 C 0 km/h
317 14-12-2009 15:24:02 -0.3 C 2.56 g/m*3 -0.3 C 0 km/h
318 14-12-2009 15:36:01 -0.4 C 2.59 g/m*3 -0.4 C 0 km/h
319 14-12-2009 15:48:02 -0.5 C 2.57 g/m*3 -0.5 C 0 km/h
320 14-12-2009 16:00:02 -0.4 C 2.64 g/m*3 -0.4 C 0 km/h
321 14-12-2009 16:12:02 -0.5 C 2.62 g/m*3 -0.5 C 0 km/h
322 14-12-2009 16:24:02 -0.5 C 2.67 g/m*3 -0.5 C 0 km/h
323 14-12-2009 16:36:02 -0.5 C 2.67 g/m*3 -0.5 C 0 km/h
324 14-12-2009 16:48:02 -0.6 C 2.65 g/m*3 -0.6 C 0 km/h
325 14-12-2009 17:00:03 -0.4 C 2.73 g/m*3 -0.4 C 0 km/h
Sensor: Nr:Datum:Temp:Abs-Feuchte:Windchill:Wind:
Aussen-T/F 326 14-12-2009 17:12:01 -0.5 C 2.71 g/m*3 -0.5 C 0 km/h
327 14-12-2009 17:24:01 -0.6 C 2.65 g/m*3 -0.6 C 0 km/h
328 14-12-2009 17:36:02 -0.6 C 2.65 g/m*3 -0.6 C 0 km/h
329 14-12-2009 17:48:02 -0.6 C 2.65 g/m*3 -0.6 C 0 km/h
330 14-12-2009 18:00:02 -0.6 C 2.7 g/m*3 -0.6 C 0 km/h
331 14-12-2009 18:12:02 -0.6 C 2.65 g/m*3 -0.6 C 0 km/h
332 14-12-2009 18:24:02 -0.7 C 2.58 g/m*3 -0.7 C 0 km/h
333 14-12-2009 18:36:02 -0.7 C 2.54 g/m*3 -0.7 C 0 km/h
334 14-12-2009 18:48:02 -0.8 C 2.57 g/m*3 -0.8 C 0 km/h
335 14-12-2009 19:00:02 -0.8 C 2.61 g/m*3 -0.8 C 0 km/h
336 14-12-2009 19:12:02 -0.7 C 2.63 g/m*3 -0.7 C 0 km/h
337 14-12-2009 19:24:02 -0.7 C 2.68 g/m*3 -0.7 C 0 km/h
338 14-12-2009 19:36:02 -0.7 C 2.68 g/m*3 -0.7 C 0 km/h
339 14-12-2009 19:48:01 -0.7 C 2.68 g/m*3 -0.7 C 0 km/h
340 14-12-2009 20:00:01 -0.6 C 2.7 g/m*3 -0.6 C 0 km/h
341 14-12-2009 20:12:02 -0.6 C 2.7 g/m*3 -0.6 C 0 km/h
342 14-12-2009 20:24:02 -0.6 C 2.7 g/m*3 -0.6 C 0 km/h
343 14-12-2009 20:36:02 -0.6 C 2.7 g/m*3 -0.6 C 0 km/h
344 14-12-2009 20:48:02 -0.6 C 2.65 g/m*3 -0.6 C 0 km/h
345 14-12-2009 21:00:02 -0.5 C 2.71 g/m*3 -0.5 C 0 km/h
346 14-12-2009 21:12:02 -0.5 C 2.71 g/m*3 -0.5 C 0 km/h
347 14-12-2009 21:24:02 -0.5 C 2.76 g/m*3 -0.5 C 0 km/h
348 14-12-2009 21:36:02 -0.5 C 2.71 g/m*3 -0.5 C 0 km/h
349 14-12-2009 21:49:04 -0.5 C 2.67 g/m*3 -0.5 C 0 km/h
350 14-12-2009 22:01:04 -1.1 C 2.6 g/m*3 -1.1 C 0 km/h
Sensor: Nr:Datum:Temp:Abs-Feuchte:Windchill:Wind:
Aussen-T/F 351 14-12-2009 22:13:04 -1.6 C 2.6 g/m*3 -1.6 C 0 km/h
352 14-12-2009 22:25:04 -1.8 C 2.61 g/m*3 -1.8 C 0 km/h
353 14-12-2009 22:37:04 -2 C 2.61 g/m*3 -2 C 0 km/h
354 14-12-2009 22:49:04 -2 C 2.66 g/m*3 -2 C 0 km/h
355 14-12-2009 23:01:04 -2.1 C 2.64 g/m*3 -2.1 C 0 km/h
356 14-12-2009 23:13:04 -2.2 C 2.66 g/m*3 -2.2 C 0 km/h
357 14-12-2009 23:25:05 -2.3 C 2.64 g/m*3 -2.3 C 0 km/h
358 14-12-2009 23:37:05 -2.4 C 2.62 g/m*3 -2.4 C 0 km/h
359 14-12-2009 23:49:05 -2.7 C 2.65 g/m*3 -2.7 C 0 km/h
360 15-12-2009 00:01:05 -2.7 C 2.69 g/m*3 -2.7 C 0 km/h
361 15-12-2009 00:13:05 -2.7 C 2.73 g/m*3 -2.7 C 0 km/h
362 15-12-2009 00:25:05 -2.9 C 2.69 g/m*3 -2.9 C 0 km/h
363 15-12-2009 00:37:05 -3 C 2.67 g/m*3 -3 C 0 km/h
364 15-12-2009 00:49:05 -3.2 C 2.67 g/m*3 -3.2 C 0 km/h
365 15-12-2009 01:01:05 -3.3 C 2.69 g/m*3 -3.3 C 0 km/h
366 15-12-2009 01:13:05 -3.3 C 2.73 g/m*3 -3.3 C 0 km/h
367 15-12-2009 01:25:05 -3.3 C 2.73 g/m*3 -3.3 C 0 km/h
368 15-12-2009 01:37:05 -3.4 C 2.71 g/m*3 -3.4 C 0 km/h
369 15-12-2009 01:49:05 -3.5 C 2.73 g/m*3 -3.5 C 0 km/h
370 15-12-2009 02:01:05 -3.5 C 2.73 g/m*3 -3.5 C 0 km/h
371 15-12-2009 02:13:05 -3.5 C 2.77 g/m*3 -3.5 C 0 km/h
372 15-12-2009 02:25:05 -3.2 C 2.83 g/m*3 -3.2 C 0 km/h
373 15-12-2009 02:37:05 -3 C 2.87 g/m*3 -3 C 0 km/h
374 15-12-2009 02:49:05 -2.7 C 2.93 g/m*3 -2.7 C 0 km/h
375 15-12-2009 03:01:06 -2.6 C 2.91 g/m*3 -2.6 C 0 km/h
Sensor: Nr:Datum:Temp:Abs-Feuchte:Windchill:Wind:
Aussen-T/F 376 15-12-2009 03:13:06 -2.4 C 2.91 g/m*3 -2.4 C 0 km/h
377 15-12-2009 03:25:06 -2.3 C 2.89 g/m*3 -2.3 C 0 km/h
378 15-12-2009 03:37:06 -2.3 C 2.89 g/m*3 -2.3 C 0 km/h
379 15-12-2009 03:49:06 -2.2 C 2.91 g/m*3 -2.2 C 0 km/h
380 15-12-2009 04:01:06 -2.1 C 2.93 g/m*3 -2.1 C 0 km/h
381 15-12-2009 04:13:06 -2 C 2.95 g/m*3 -2 C 0 km/h
382 15-12-2009 04:25:06 -1.9 C 2.97 g/m*3 -1.9 C 0 km/h
383 15-12-2009 04:37:06 -1.9 C 2.97 g/m*3 -1.9 C 0 km/h
384 15-12-2009 04:49:06 -1.9 C 2.97 g/m*3 -1.9 C 0 km/h
385 15-12-2009 05:01:06 -1.9 C 2.97 g/m*3 -1.9 C 0 km/h
386 15-12-2009 05:13:06 -1.9 C 2.97 g/m*3 -1.9 C 0 km/h
387 15-12-2009 05:25:06 -1.8 C 3.04 g/m*3 -1.8 C 0 km/h
388 15-12-2009 05:37:06 -1.8 C 3.04 g/m*3 -1.8 C 0 km/h
389 15-12-2009 05:49:06 -1.8 C 3.08 g/m*3 -1.8 C 0 km/h
390 15-12-2009 06:01:06 -1.7 C 3.1 g/m*3 -1.7 C 0 km/h
391 15-12-2009 06:13:06 -1.6 C 3.12 g/m*3 -1.6 C 0 km/h
392 15-12-2009 06:25:06 -1.5 C 3.14 g/m*3 -1.5 C 0 km/h
393 15-12-2009 06:37:06 -1.6 C 3.12 g/m*3 -1.6 C 0 km/h
394 15-12-2009 06:49:06 -1.6 C 3.12 g/m*3 -1.6 C 0 km/h
395 15-12-2009 07:01:07 -1.7 C 3.1 g/m*3 -1.7 C 0 km/h
396 15-12-2009 07:13:07 -1.7 C 3.14 g/m*3 -1.7 C 0 km/h
397 15-12-2009 07:25:02 -1.6 C 3.16 g/m*3 -1.6 C 0 km/h
398 15-12-2009 07:37:02 -1.6 C 3.16 g/m*3 -1.6 C 0 km/h
399 15-12-2009 07:49:02 -1.5 C 3.19 g/m*3 -1.5 C 0 km/h
400 15-12-2009 08:01:01 -1.3 C 3.19 g/m*3 -1.3 C 0 km/h
Sensor: Nr:Datum:Temp:Abs-Feuchte:Windchill:Wind:
Aussen-T/F 401 15-12-2009 08:13:01 -1.2 C 3.21 g/m*3 -1.2 C 0 km/h
402 15-12-2009 08:25:02 -1.2 C 3.21 g/m*3 -1.2 C 0 km/h
403 15-12-2009 08:37:02 -1.1 C 3.23 g/m*3 -1.1 C 0 km/h
404 15-12-2009 08:49:02 -1 C 3.25 g/m*3 -1 C 0 km/h
405 15-12-2009 09:01:02 -0.9 C 3.28 g/m*3 -0.9 C 0 km/h
406 15-12-2009 09:13:02 -0.9 C 3.23 g/m*3 -0.9 C 0 km/h
407 15-12-2009 09:25:01 -0.7 C 3.28 g/m*3 -0.7 C 0 km/h
408 15-12-2009 09:37:02 -0.5 C 3.28 g/m*3 -0.5 C 0 km/h
409 15-12-2009 09:49:02 -0.4 C 3.2 g/m*3 -0.4 C 0 km/h
410 15-12-2009 10:01:02 -0.2 C 3.15 g/m*3 -0.2 C 0 km/h
411 15-12-2009 10:13:02 0 C 3.15 g/m*3 0 C 0 km/h
412 15-12-2009 10:25:02 0.1 C 3.17 g/m*3 0.1 C 0 km/h
413 15-12-2009 10:37:02 0.2 C 3.14 g/m*3 0.2 C 0 km/h
414 15-12-2009 10:49:02 0.3 C 3.17 g/m*3 0.3 C 0 km/h
415 15-12-2009 11:01:02 0.3 C 3.12 g/m*3 0.3 C 0 km/h
416 15-12-2009 11:13:03 0.4 C 3.14 g/m*3 0.4 C 0 km/h
417 15-12-2009 11:25:02 0.3 C 3.12 g/m*3 0.3 C 0 km/h
418 15-12-2009 11:37:02 0.5 C 3.11 g/m*3 0.5 C 0 km/h
419 15-12-2009 11:49:01 0.7 C 3.05 g/m*3 0.7 C 0 km/h
420 15-12-2009 12:01:01 0.9 C 3.04 g/m*3 0.9 C 0 km/h
421 15-12-2009 12:13:01 1 C 2.91 g/m*3 1 C 0 km/h
422 15-12-2009 12:25:02 1 C 2.91 g/m*3 1 C 0 km/h
423 15-12-2009 12:37:01 0.8 C 2.92 g/m*3 0.8 C 0 km/h
424 15-12-2009 12:49:01 0.7 C 2.85 g/m*3 0.7 C 0 km/h
425 15-12-2009 13:01:01 0.8 C 2.87 g/m*3 0.8 C 0 km/h
Sensor: Nr:Datum:Temp:Abs-Feuchte:Windchill:Wind:
Aussen-T/F 426 15-12-2009 13:13:01 1.1 C 2.87 g/m*3 1.1 C 0 km/h
427 15-12-2009 13:25:02 1.6 C 2.87 g/m*3 1.6 C 0 km/h
428 15-12-2009 13:37:01 1.6 C 2.81 g/m*3 1.6 C 0 km/h
429 15-12-2009 13:49:02 1.6 C 2.76 g/m*3 1.6 C 0 km/h
430 15-12-2009 14:01:02 1.6 C 2.7 g/m*3 1.6 C 0 km/h
431 15-12-2009 14:13:02 1.6 C 2.65 g/m*3 1.6 C 0 km/h
432 15-12-2009 14:25:02 1.5 C 2.69 g/m*3 1.5 C 0 km/h
433 15-12-2009 14:37:02 1.4 C 2.67 g/m*3 1.4 C 0 km/h
434 15-12-2009 14:49:02 1.3 C 2.65 g/m*3 1.3 C 0 km/h
435 15-12-2009 15:01:01 1.2 C 2.63 g/m*3 1.2 C 0 km/h
436 15-12-2009 15:13:01 1.2 C 2.63 g/m*3 1.2 C 0 km/h
437 15-12-2009 15:25:02 1.2 C 2.63 g/m*3 1.2 C 0 km/h
438 15-12-2009 15:37:02 1.1 C 2.67 g/m*3 1.1 C 0 km/h
439 15-12-2009 15:49:02 1 C 2.65 g/m*3 1 C 0 km/h
440 15-12-2009 16:01:02 1 C 2.65 g/m*3 1 C 0 km/h
441 15-12-2009 16:13:02 1 C 2.6 g/m*3 1 C 0 km/h
442 15-12-2009 16:25:02 0.9 C 2.63 g/m*3 0.9 C 0 km/h
443 15-12-2009 16:37:02 0.9 C 2.68 g/m*3 0.9 C 0 km/h
444 15-12-2009 16:49:02 0.8 C 2.66 g/m*3 0.8 C 0 km/h
445 15-12-2009 17:01:02 0.7 C 2.64 g/m*3 0.7 C 0 km/h
446 15-12-2009 17:13:02 0.7 C 2.64 g/m*3 0.7 C 0 km/h
447 15-12-2009 17:25:02 0.6 C 2.68 g/m*3 0.6 C 0 km/h
448 15-12-2009 17:37:02 0.6 C 2.73 g/m*3 0.6 C 0 km/h
449 15-12-2009 17:49:01 0.6 C 2.68 g/m*3 0.6 C 0 km/h
450 15-12-2009 18:01:01 0.6 C 2.68 g/m*3 0.6 C 0 km/h
Sensor: Nr:Datum:Temp:Abs-Feuchte:Windchill:Wind:
Aussen-T/F 451 15-12-2009 18:13:01 0.6 C 2.63 g/m*3 0.6 C 0 km/h
452 15-12-2009 18:25:02 0.6 C 2.63 g/m*3 0.6 C 0 km/h
453 15-12-2009 18:37:02 0.6 C 2.63 g/m*3 0.6 C 0 km/h
454 15-12-2009 18:49:02 0.6 C 2.68 g/m*3 0.6 C 0 km/h
455 15-12-2009 19:01:02 0.5 C 2.71 g/m*3 0.5 C 0 km/h
456 15-12-2009 19:13:02 0.4 C 2.69 g/m*3 0.4 C 0 km/h
457 15-12-2009 19:25:05 0.4 C 2.74 g/m*3 0.4 C 0 km/h
458 15-12-2009 19:37:02 0.4 C 2.69 g/m*3 0.4 C 0 km/h
459 15-12-2009 19:49:02 0.4 C 2.74 g/m*3 0.4 C 0 km/h
460 15-12-2009 20:01:56 0.5 C 2.71 g/m*3 0.5 C 0 km/h
461 15-12-2009 20:13:56 0.5 C 2.76 g/m*3 0.5 C 0 km/h
462 15-12-2009 20:25:02 0.4 C 2.69 g/m*3 0.4 C 0 km/h
463 15-12-2009 20:37:02 0.5 C 2.66 g/m*3 0.5 C 0 km/h
464 15-12-2009 20:49:02 0.5 C 2.71 g/m*3 0.5 C 0 km/h
465 15-12-2009 21:01:01 0.5 C 2.71 g/m*3 0.5 C 0 km/h
466 15-12-2009 21:13:01 0.5 C 2.71 g/m*3 0.5 C 0 km/h
467 15-12-2009 21:25:01 0.3 C 2.67 g/m*3 0.3 C 0 km/h
468 15-12-2009 21:37:02 0.2 C 2.65 g/m*3 0.2 C 0 km/h
469 15-12-2009 21:49:02 0.2 C 2.65 g/m*3 0.2 C 0 km/h
470 15-12-2009 22:01:02 0.1 C 2.63 g/m*3 0.1 C 0 km/h
471 15-12-2009 22:13:02 0.1 C 2.68 g/m*3 0.1 C 0 km/h
472 15-12-2009 22:25:02 0.1 C 2.68 g/m*3 0.1 C 0 km/h
473 15-12-2009 22:38:02 0 C 2.66 g/m*3 0 C 0 km/h
474 15-12-2009 22:50:02 0 C 2.66 g/m*3 0 C 0 km/h
475 15-12-2009 23:02:02 -0.1 C 2.69 g/m*3 -0.1 C 0 km/h
Sensor: Nr:Datum:Temp:Abs-Feuchte:Windchill:Wind:
Aussen-T/F 476 15-12-2009 23:14:02 -0.2 C 2.72 g/m*3 -0.2 C 0 km/h
477 15-12-2009 23:26:03 -0.2 C 2.72 g/m*3 -0.2 C 0 km/h
478 15-12-2009 23:38:03 -0.2 C 2.72 g/m*3 -0.2 C 0 km/h
479 15-12-2009 23:50:03 -0.2 C 2.72 g/m*3 -0.2 C 0 km/h
480 16-12-2009 00:02:03 -0.2 C 2.77 g/m*3 -0.2 C 0 km/h
481 16-12-2009 00:14:03 -0.2 C 2.77 g/m*3 -0.2 C 0 km/h
482 16-12-2009 00:26:03 -0.3 C 2.75 g/m*3 -0.3 C 0 km/h
483 16-12-2009 00:38:03 -0.4 C 2.78 g/m*3 -0.4 C 0 km/h
484 16-12-2009 00:50:03 -0.5 C 2.76 g/m*3 -0.5 C 0 km/h
485 16-12-2009 01:02:03 -0.9 C 2.73 g/m*3 -0.9 C 0 km/h
486 16-12-2009 01:14:03 -1 C 2.76 g/m*3 -1 C 0 km/h
487 16-12-2009 01:26:03 -1.1 C 2.78 g/m*3 -1.1 C 0 km/h
488 16-12-2009 01:38:03 -1.1 C 2.74 g/m*3 -1.1 C 0 km/h
489 16-12-2009 01:50:03 -1.1 C 2.74 g/m*3 -1.1 C 0 km/h
490 16-12-2009 02:02:03 -1.2 C 2.76 g/m*3 -1.2 C 0 km/h
491 16-12-2009 02:14:03 -1.3 C 2.74 g/m*3 -1.3 C 0 km/h
492 16-12-2009 02:26:03 -1.3 C 2.79 g/m*3 -1.3 C 0 km/h
493 16-12-2009 02:38:03 -1.2 C 2.81 g/m*3 -1.2 C 0 km/h
494 16-12-2009 02:50:03 -1.1 C 2.83 g/m*3 -1.1 C 0 km/h
495 16-12-2009 03:02:03 -1.1 C 2.78 g/m*3 -1.1 C 0 km/h
496 16-12-2009 03:14:04 -1.1 C 2.78 g/m*3 -1.1 C 0 km/h
497 16-12-2009 03:26:04 -1.1 C 2.78 g/m*3 -1.1 C 0 km/h
498 16-12-2009 03:38:04 -1 C 2.85 g/m*3 -1 C 0 km/h
499 16-12-2009 03:50:04 -1 C 2.85 g/m*3 -1 C 0 km/h
500 16-12-2009 04:02:04 -1 C 2.8 g/m*3 -1 C 0 km/h
Sensor: Nr:Datum:Temp:Abs-Feuchte:Windchill:Wind:
Aussen-T/F 501 16-12-2009 04:14:04 -1 C 2.8 g/m*3 -1 C 0 km/h
502 16-12-2009 04:26:04 -1 C 2.8 g/m*3 -1 C 0 km/h
503 16-12-2009 04:38:04 -1.1 C 2.78 g/m*3 -1.1 C 0 km/h
504 16-12-2009 04:50:04 -1.1 C 2.78 g/m*3 -1.1 C 0 km/h
505 16-12-2009 05:02:04 -1.1 C 2.83 g/m*3 -1.1 C 0 km/h
506 16-12-2009 05:14:04 -1.2 C 2.81 g/m*3 -1.2 C 0 km/h
507 16-12-2009 05:26:04 -1.2 C 2.85 g/m*3 -1.2 C 0 km/h
508 16-12-2009 05:38:04 -1.2 C 2.85 g/m*3 -1.2 C 0 km/h
509 16-12-2009 05:50:04 -1.1 C 2.92 g/m*3 -1.1 C 0 km/h
510 16-12-2009 06:02:04 -1.1 C 2.87 g/m*3 -1.1 C 0 km/h
511 16-12-2009 06:14:04 -1.1 C 2.87 g/m*3 -1.1 C 0 km/h
512 16-12-2009 06:26:04 -1.2 C 2.85 g/m*3 -1.2 C 0 km/h
513 16-12-2009 06:38:04 -1.2 C 2.85 g/m*3 -1.2 C 0 km/h
514 16-12-2009 06:50:04 -1.2 C 2.85 g/m*3 -1.2 C 0 km/h
515 16-12-2009 07:02:03 -1.2 C 2.85 g/m*3 -1.2 C 0 km/h
516 16-12-2009 07:14:03 -1.2 C 2.85 g/m*3 -1.2 C 0 km/h
517 16-12-2009 07:26:02 -1.2 C 2.85 g/m*3 -1.2 C 0 km/h
518 16-12-2009 07:38:02 -1.2 C 2.9 g/m*3 -1.2 C 0 km/h
519 16-12-2009 07:50:01 -1.2 C 2.9 g/m*3 -1.2 C 0 km/h
520 16-12-2009 08:02:02 -1.2 C 2.9 g/m*3 -1.2 C 0 km/h
521 16-12-2009 08:14:02 -1.2 C 2.9 g/m*3 -1.2 C 0 km/h
522 16-12-2009 08:26:02 -1.2 C 2.9 g/m*3 -1.2 C 0 km/h
523 16-12-2009 08:38:02 -1.2 C 2.9 g/m*3 -1.2 C 0 km/h
524 16-12-2009 08:50:03 -1.2 C 2.9 g/m*3 -1.2 C 0 km/h
525 16-12-2009 09:02:02 -1.2 C 2.94 g/m*3 -1.2 C 0 km/h
Sensor: Nr:Datum:Temp:Abs-Feuchte:Windchill:Wind:
Aussen-T/F 526 16-12-2009 09:14:02 -1.2 C 2.94 g/m*3 -1.2 C 0 km/h
527 16-12-2009 09:26:03 -1.1 C 2.96 g/m*3 -1.1 C 0 km/h
528 16-12-2009 09:38:02 -1 C 2.98 g/m*3 -1 C 0 km/h
529 16-12-2009 09:50:02 -0.8 C 2.98 g/m*3 -0.8 C 0 km/h
530 16-12-2009 10:02:02 -0.6 C 3.02 g/m*3 -0.6 C 0 km/h
531 16-12-2009 10:14:02 -0.4 C 3.02 g/m*3 -0.4 C 0 km/h
532 16-12-2009 10:26:02 -0.2 C 3.01 g/m*3 -0.2 C 0 km/h
533 16-12-2009 10:38:02 -0.2 C 2.91 g/m*3 -0.2 C 0 km/h
534 16-12-2009 10:50:02 0 C 2.96 g/m*3 0 C 0 km/h
535 16-12-2009 11:02:02 0.1 C 2.98 g/m*3 0.1 C 0 km/h
536 16-12-2009 11:14:02 0.2 C 2.95 g/m*3 0.2 C 0 km/h
537 16-12-2009 11:26:02 0.1 C 2.88 g/m*3 0.1 C 0 km/h
538 16-12-2009 11:38:03 0.2 C 2.9 g/m*3 0.2 C 0 km/h
539 16-12-2009 11:50:02 0.4 C 2.89 g/m*3 0.4 C 0 km/h
540 16-12-2009 12:02:02 0.6 C 2.98 g/m*3 0.6 C 0 km/h
541 16-12-2009 12:14:02 0.8 C 2.97 g/m*3 0.8 C 0 km/h
542 16-12-2009 12:26:02 0.7 C 2.9 g/m*3 0.7 C 0 km/h
543 16-12-2009 12:38:02 1 C 2.96 g/m*3 1 C 0 km/h
544 16-12-2009 12:50:02 1.1 C 2.93 g/m*3 1.1 C 0 km/h
545 16-12-2009 13:02:03 1.1 C 2.93 g/m*3 1.1 C 0 km/h
546 16-12-2009 13:14:03 1.2 C 2.89 g/m*3 1.2 C 0 km/h
547 16-12-2009 13:26:02 1.1 C 2.82 g/m*3 1.1 C 0 km/h
548 16-12-2009 13:38:03 0.6 C 2.78 g/m*3 0.6 C 0 km/h
549 16-12-2009 13:50:02 0.6 C 2.78 g/m*3 0.6 C 0 km/h
550 16-12-2009 14:02:02 0.8 C 2.76 g/m*3 0.8 C 0 km/h
Sensor: Nr:Datum:Temp:Abs-Feuchte:Windchill:Wind:
Aussen-T/F 551 16-12-2009 14:14:02 0.9 C 2.84 g/m*3 0.9 C 0 km/h
552 16-12-2009 14:26:01 1 C 2.7 g/m*3 1 C 0 km/h
553 16-12-2009 14:38:02 1.3 C 2.75 g/m*3 1.3 C 0 km/h
554 16-12-2009 14:50:02 1.1 C 2.72 g/m*3 1.1 C 0 km/h
555 16-12-2009 15:02:02 0.7 C 2.69 g/m*3 0.7 C 0 km/h
556 16-12-2009 15:14:03 0.4 C 2.59 g/m*3 0.4 C 0 km/h
557 16-12-2009 15:26:01 0 C 2.62 g/m*3 0 C 0 km/h
558 16-12-2009 15:38:02 -0.3 C 2.61 g/m*3 -0.3 C 0 km/h
559 16-12-2009 15:50:02 -0.5 C 2.62 g/m*3 -0.5 C 0 km/h
560 16-12-2009 16:02:02 -0.6 C 2.6 g/m*3 -0.6 C 0 km/h
561 16-12-2009 16:14:02 -0.7 C 2.58 g/m*3 -0.7 C 0 km/h
562 16-12-2009 16:26:02 -0.9 C 2.55 g/m*3 -0.9 C 0 km/h
563 16-12-2009 16:38:02 -1.1 C 2.51 g/m*3 -1.1 C 0 km/h
564 16-12-2009 16:50:01 -1.3 C 2.48 g/m*3 -1.3 C 0 km/h
565 16-12-2009 17:02:02 -1.5 C 2.49 g/m*3 -1.5 C 0 km/h
566 16-12-2009 17:14:02 -1.7 C 2.5 g/m*3 -1.7 C 0 km/h
567 16-12-2009 17:26:02 -1.7 C 2.58 g/m*3 -1.7 C 0 km/h
568 16-12-2009 17:38:02 -1.8 C 2.61 g/m*3 -1.8 C 0 km/h
569 16-12-2009 17:50:02 -1.9 C 2.63 g/m*3 -1.9 C 0 km/h
570 16-12-2009 18:02:02 -2 C 2.66 g/m*3 -2 C 0 km/h
571 16-12-2009 18:14:02 -2.1 C 2.68 g/m*3 -2.1 C 0 km/h
572 16-12-2009 18:26:02 -2 C 2.7 g/m*3 -2 C 0 km/h
573 16-12-2009 18:38:03 -2 C 2.7 g/m*3 -2 C 0 km/h
574 16-12-2009 18:50:02 -2 C 2.7 g/m*3 -2 C 0 km/h
575 16-12-2009 19:02:01 -1.9 C 2.76 g/m*3 -1.9 C 0 km/h
Sensor: Nr:Datum:Temp:Abs-Feuchte:Windchill:Wind:
Aussen-T/F 576 16-12-2009 19:14:01 -1.9 C 2.76 g/m*3 -1.9 C 0 km/h
577 16-12-2009 19:26:01 -2.1 C 2.72 g/m*3 -2.1 C 0 km/h
578 16-12-2009 19:38:02 -2.3 C 2.68 g/m*3 -2.3 C 0 km/h
579 16-12-2009 19:50:02 -2.5 C 2.65 g/m*3 -2.5 C 0 km/h
580 16-12-2009 20:02:02 -2.6 C 2.67 g/m*3 -2.6 C 0 km/h
581 16-12-2009 20:14:02 -2.8 C 2.67 g/m*3 -2.8 C 0 km/h
582 16-12-2009 20:26:01 -2.9 C 2.69 g/m*3 -2.9 C 0 km/h
583 16-12-2009 20:38:02 -3 C 2.71 g/m*3 -3 C 0 km/h
584 16-12-2009 20:50:02 -3.1 C 2.69 g/m*3 -3.1 C 0 km/h
585 16-12-2009 21:02:02 -3.2 C 2.71 g/m*3 -3.2 C 0 km/h
586 16-12-2009 21:14:02 -3.2 C 2.75 g/m*3 -3.2 C 0 km/h
587 16-12-2009 21:26:02 -3.3 C 2.73 g/m*3 -3.3 C 0 km/h
588 16-12-2009 21:38:02 -3.5 C 2.69 g/m*3 -3.5 C 0 km/h
589 16-12-2009 21:50:02 -3.7 C 2.69 g/m*3 -3.7 C 0 km/h
590 16-12-2009 22:02:02 -3.7 C 2.73 g/m*3 -3.7 C 0 km/h
591 16-12-2009 22:14:02 -3.8 C 2.71 g/m*3 -3.8 C 0 km/h
592 16-12-2009 22:27:05 -3.9 C 2.69 g/m*3 -3.9 C 0 km/h
593 16-12-2009 22:39:05 -3.9 C 2.73 g/m*3 -3.9 C 0 km/h
594 16-12-2009 22:51:05 -3.8 C 2.78 g/m*3 -3.8 C 0 km/h
595 16-12-2009 23:03:05 -3.8 C 2.78 g/m*3 -3.8 C 0 km/h
596 16-12-2009 23:15:06 -4.1 C 2.72 g/m*3 -4.1 C 0 km/h
597 16-12-2009 23:27:06 -4.3 C 2.69 g/m*3 -4.3 C 0 km/h
598 16-12-2009 23:39:06 -4.4 C 2.67 g/m*3 -4.4 C 0 km/h
599 16-12-2009 23:51:06 -4.4 C 2.67 g/m*3 -4.4 C 0 km/h
600 17-12-2009 00:03:06 -4.6 C 2.66 g/m*3 -4.6 C 0 km/h
Sensor: Nr:Datum:Temp:Abs-Feuchte:Windchill:Wind:
Aussen-T/F 601 17-12-2009 00:15:06 -4.7 C 2.64 g/m*3 -4.7 C 0 km/h
602 17-12-2009 00:27:06 -4.8 C 2.66 g/m*3 -4.8 C 0 km/h
603 17-12-2009 00:39:06 -5.1 C 2.6 g/m*3 -5.1 C 0 km/h
604 17-12-2009 00:51:06 -5.3 C 2.57 g/m*3 -5.3 C 0 km/h
605 17-12-2009 01:03:06 -5.2 C 2.62 g/m*3 -5.2 C 0 km/h
606 17-12-2009 01:15:06 -5.4 C 2.58 g/m*3 -5.4 C 0 km/h
607 17-12-2009 01:27:06 -5.3 C 2.63 g/m*3 -5.3 C 0 km/h
608 17-12-2009 01:39:06 -5.3 C 2.63 g/m*3 -5.3 C 0 km/h
609 17-12-2009 01:51:06 -5.6 C 2.58 g/m*3 -5.6 C 0 km/h
610 17-12-2009 02:03:06 -5.6 C 2.58 g/m*3 -5.6 C 0 km/h
611 17-12-2009 02:15:06 -5.5 C 2.63 g/m*3 -5.5 C 0 km/h
612 17-12-2009 02:27:06 -5.6 C 2.64 g/m*3 -5.6 C 0 km/h
613 17-12-2009 02:39:06 -5.7 C 2.62 g/m*3 -5.7 C 0 km/h
614 17-12-2009 02:51:06 -5.9 C 2.58 g/m*3 -5.9 C 0 km/h
615 17-12-2009 03:03:06 -5.9 C 2.58 g/m*3 -5.9 C 0 km/h
616 17-12-2009 03:15:06 -5.6 C 2.67 g/m*3 -5.6 C 0 km/h
617 17-12-2009 03:27:07 -5.4 C 2.75 g/m*3 -5.4 C 0 km/h
618 17-12-2009 03:39:07 -5.3 C 2.77 g/m*3 -5.3 C 0 km/h
619 17-12-2009 03:51:07 -5.4 C 2.75 g/m*3 -5.4 C 0 km/h
620 17-12-2009 04:03:07 -5.3 C 2.77 g/m*3 -5.3 C 0 km/h
621 17-12-2009 04:15:07 -5.4 C 2.75 g/m*3 -5.4 C 0 km/h
622 17-12-2009 04:27:07 -5.5 C 2.73 g/m*3 -5.5 C 0 km/h
623 17-12-2009 04:39:07 -5.6 C 2.71 g/m*3 -5.6 C 0 km/h
624 17-12-2009 04:51:07 -5.9 C 2.65 g/m*3 -5.9 C 0 km/h
625 17-12-2009 05:03:07 -5.9 C 2.65 g/m*3 -5.9 C 0 km/h
Sensor: Nr:Datum:Temp:Abs-Feuchte:Windchill:Wind:
Aussen-T/F 626 17-12-2009 05:15:07 -6 C 2.63 g/m*3 -6 C 0 km/h
627 17-12-2009 05:27:07 -5.8 C 2.67 g/m*3 -5.8 C 0 km/h
628 17-12-2009 05:39:07 -5.9 C 2.65 g/m*3 -5.9 C 0 km/h
629 17-12-2009 05:51:07 -6 C 2.63 g/m*3 -6 C 0 km/h
630 17-12-2009 06:03:07 -6 C 2.63 g/m*3 -6 C 0 km/h
631 17-12-2009 06:15:07 -6.1 C 2.61 g/m*3 -6.1 C 0 km/h
632 17-12-2009 06:27:07 -6 C 2.63 g/m*3 -6 C 0 km/h
633 17-12-2009 06:39:07 -6.2 C 2.59 g/m*3 -6.2 C 0 km/h
634 17-12-2009 06:51:02 -6.2 C 2.59 g/m*3 -6.2 C 0 km/h
635 17-12-2009 07:03:02 -6.1 C 2.61 g/m*3 -6.1 C 0 km/h
636 17-12-2009 07:15:02 -6.2 C 2.59 g/m*3 -6.2 C 0 km/h
637 17-12-2009 07:27:02 -6.4 C 2.55 g/m*3 -6.4 C 0 km/h
638 17-12-2009 07:39:02 -6.5 C 2.53 g/m*3 -6.5 C 0 km/h
639 17-12-2009 07:51:02 -6.6 C 2.52 g/m*3 -6.6 C 0 km/h
640 17-12-2009 08:03:01 -6.7 C 2.5 g/m*3 -6.7 C 0 km/h
641 17-12-2009 08:15:01 -6.7 C 2.5 g/m*3 -6.7 C 0 km/h
642 17-12-2009 08:27:01 -6.6 C 2.52 g/m*3 -6.6 C 0 km/h
643 17-12-2009 08:39:02 -6.2 C 2.62 g/m*3 -6.2 C 0 km/h
644 17-12-2009 08:51:02 -6 C 2.66 g/m*3 -6 C 0 km/h
645 17-12-2009 09:03:02 -6 C 2.66 g/m*3 -6 C 0 km/h
646 17-12-2009 09:15:02 -6 C 2.63 g/m*3 -6 C 0 km/h
647 17-12-2009 09:27:02 -5.9 C 2.65 g/m*3 -5.9 C 0 km/h
648 17-12-2009 09:39:02 -5.8 C 2.67 g/m*3 -5.8 C 0 km/h
649 17-12-2009 09:51:02 -5.7 C 2.69 g/m*3 -5.7 C 0 km/h
650 17-12-2009 10:03:03 -5.6 C 2.71 g/m*3 -5.6 C 0 km/h
Sensor: Nr:Datum:Temp:Abs-Feuchte:Windchill:Wind:
Aussen-T/F 651 17-12-2009 10:15:02 -5.5 C 2.73 g/m*3 -5.5 C 0 km/h
652 17-12-2009 10:27:02 -5.3 C 2.77 g/m*3 -5.3 C 0 km/h
653 17-12-2009 10:39:02 -5.1 C 2.81 g/m*3 -5.1 C 0 km/h
654 17-12-2009 10:51:01 -4.9 C 2.85 g/m*3 -4.9 C 0 km/h
655 17-12-2009 11:03:02 -4.5 C 2.93 g/m*3 -4.5 C 0 km/h
656 17-12-2009 11:15:01 -4.2 C 2.96 g/m*3 -4.2 C 0 km/h
657 17-12-2009 11:27:01 -4 C 3 g/m*3 -4 C 0 km/h
658 17-12-2009 11:39:01 -4.1 C 2.94 g/m*3 -4.1 C 0 km/h
659 17-12-2009 11:51:01 -4.1 C 2.94 g/m*3 -4.1 C 0 km/h
660 17-12-2009 12:03:01 -4.1 C 2.94 g/m*3 -4.1 C 0 km/h
661 17-12-2009 12:15:02 -3.8 C 3.01 g/m*3 -3.8 C 0 km/h
662 17-12-2009 12:27:02 -3 C 3.14 g/m*3 -3 C 0 km/h
663 17-12-2009 12:39:01 -2.3 C 3.05 g/m*3 -2.3 C 0 km/h
664 17-12-2009 12:51:01 -1.9 C 2.84 g/m*3 -1.9 C 0 km/h
665 17-12-2009 13:03:01 -1.8 C 2.78 g/m*3 -1.8 C 0 km/h
666 17-12-2009 13:15:02 -1.7 C 2.76 g/m*3 -1.7 C 0 km/h
667 17-12-2009 13:27:02 -1.6 C 2.64 g/m*3 -1.6 C 0 km/h
668 17-12-2009 13:39:01 -1.5 C 2.62 g/m*3 -1.5 C 0 km/h
669 17-12-2009 13:51:02 -1.5 C 2.62 g/m*3 -1.5 C 0 km/h
670 17-12-2009 14:03:02 -1.4 C 2.64 g/m*3 -1.4 C 0 km/h
671 17-12-2009 14:15:02 -1.4 C 2.64 g/m*3 -1.4 C 0 km/h
672 17-12-2009 14:27:03 -1.3 C 2.66 g/m*3 -1.3 C 0 km/h
673 17-12-2009 14:39:02 -1.3 C 2.61 g/m*3 -1.3 C 0 km/h
674 17-12-2009 14:51:02 -1.3 C 2.52 g/m*3 -1.3 C 0 km/h
675 17-12-2009 15:03:01 -1.3 C 2.48 g/m*3 -1.3 C 0 km/h
Sensor: Nr:Datum:Temp:Abs-Feuchte:Windchill:Wind:
Aussen-T/F 676 17-12-2009 15:15:02 -1.6 C 2.43 g/m*3 -1.6 C 0 km/h
677 17-12-2009 15:27:02 -1.7 C 2.45 g/m*3 -1.7 C 0 km/h
678 17-12-2009 15:39:02 -2 C 2.49 g/m*3 -2 C 0 km/h
679 17-12-2009 15:51:02 -2.2 C 2.54 g/m*3 -2.2 C 0 km/h
680 17-12-2009 16:03:03 -2.3 C 2.56 g/m*3 -2.3 C 0 km/h
681 17-12-2009 16:15:02 -2.5 C 2.52 g/m*3 -2.5 C 0 km/h
682 17-12-2009 16:27:02 -2.7 C 2.53 g/m*3 -2.7 C 0 km/h
683 17-12-2009 16:39:02 -2.6 C 2.51 g/m*3 -2.6 C 0 km/h
684 17-12-2009 16:51:01 -2.6 C 2.51 g/m*3 -2.6 C 0 km/h
685 17-12-2009 17:03:02 -3 C 2.44 g/m*3 -3 C 0 km/h
686 17-12-2009 17:15:01 -3.5 C 2.39 g/m*3 -3.5 C 0 km/h
687 17-12-2009 17:27:01 -3.8 C 2.37 g/m*3 -3.8 C 0 km/h
688 17-12-2009 17:39:02 -4.1 C 2.36 g/m*3 -4.1 C 0 km/h
689 17-12-2009 17:51:01 -4.2 C 2.34 g/m*3 -4.2 C 0 km/h
690 17-12-2009 18:03:02 -4.5 C 2.29 g/m*3 -4.5 C 0 km/h
691 17-12-2009 18:15:01 -4.6 C 2.28 g/m*3 -4.6 C 0 km/h
692 17-12-2009 18:27:01 -4.5 C 2.33 g/m*3 -4.5 C 0 km/h
693 17-12-2009 18:39:02 -4.6 C 2.35 g/m*3 -4.6 C 0 km/h
694 17-12-2009 18:51:01 -4.6 C 2.35 g/m*3 -4.6 C 0 km/h
695 17-12-2009 19:03:02 -4.7 C 2.37 g/m*3 -4.7 C 0 km/h
696 17-12-2009 19:15:02 -4.6 C 2.42 g/m*3 -4.6 C 0 km/h
697 17-12-2009 19:27:02 -4.7 C 2.4 g/m*3 -4.7 C 0 km/h
698 17-12-2009 19:39:02 -4.7 C 2.44 g/m*3 -4.7 C 0 km/h
699 17-12-2009 19:51:02 -4.6 C 2.45 g/m*3 -4.6 C 0 km/h
700 17-12-2009 20:03:01 -4.7 C 2.44 g/m*3 -4.7 C 0 km/h
Sensor: Nr:Datum:Temp:Abs-Feuchte:Windchill:Wind:
Aussen-T/F 701 17-12-2009 20:15:02 -4.6 C 2.49 g/m*3 -4.6 C 0 km/h
702 17-12-2009 20:27:02 -4.4 C 2.52 g/m*3 -4.4 C 0 km/h
703 17-12-2009 20:39:01 -4.2 C 2.56 g/m*3 -4.2 C 0 km/h
704 17-12-2009 20:51:02 -4.1 C 2.58 g/m*3 -4.1 C 0 km/h
705 17-12-2009 21:03:01 -4.1 C 2.54 g/m*3 -4.1 C 0 km/h
706 17-12-2009 21:15:01 -4.1 C 2.54 g/m*3 -4.1 C 0 km/h
707 17-12-2009 21:27:01 -4.1 C 2.58 g/m*3 -4.1 C 0 km/h
708 17-12-2009 21:39:01 -4.1 C 2.58 g/m*3 -4.1 C 0 km/h
709 17-12-2009 21:51:02 -4 C 2.56 g/m*3 -4 C 0 km/h
710 17-12-2009 22:04:03 -4 C 2.56 g/m*3 -4 C 0 km/h
711 17-12-2009 22:16:03 -3.9 C 2.54 g/m*3 -3.9 C 0 km/h
712 17-12-2009 22:28:03 -3.9 C 2.51 g/m*3 -3.9 C 0 km/h
713 17-12-2009 22:40:03 -3.7 C 2.54 g/m*3 -3.7 C 0 km/h
714 17-12-2009 22:52:03 -3.7 C 2.54 g/m*3 -3.7 C 0 km/h
715 17-12-2009 23:04:03 -3.7 C 2.54 g/m*3 -3.7 C 0 km/h
716 17-12-2009 23:16:03 -3.8 C 2.49 g/m*3 -3.8 C 0 km/h
717 17-12-2009 23:28:03 -4 C 2.41 g/m*3 -4 C 0 km/h
718 17-12-2009 23:40:03 -4.2 C 2.38 g/m*3 -4.2 C 0 km/h
719 17-12-2009 23:52:03 -4.3 C 2.4 g/m*3 -4.3 C 0 km/h
720 18-12-2009 00:04:03 -4.6 C 2.35 g/m*3 -4.6 C 0 km/h
721 18-12-2009 00:16:03 -4.9 C 2.33 g/m*3 -4.9 C 0 km/h
722 18-12-2009 00:28:03 -5.1 C 2.37 g/m*3 -5.1 C 0 km/h
723 18-12-2009 00:40:03 -5.3 C 2.33 g/m*3 -5.3 C 0 km/h
724 18-12-2009 00:52:03 -5.4 C 2.35 g/m*3 -5.4 C 0 km/h
725 18-12-2009 01:04:03 -5.5 C 2.33 g/m*3 -5.5 C 0 km/h
Sensor: Nr:Datum:Temp:Abs-Feuchte:Windchill:Wind:
Aussen-T/F 726 18-12-2009 01:16:03 -5.6 C 2.35 g/m*3 -5.6 C 0 km/h
727 18-12-2009 01:28:03 -5.7 C 2.33 g/m*3 -5.7 C 0 km/h
728 18-12-2009 01:40:03 -5.6 C 2.38 g/m*3 -5.6 C 0 km/h
729 18-12-2009 01:52:04 -5.6 C 2.41 g/m*3 -5.6 C 0 km/h
730 18-12-2009 02:04:04 -5.4 C 2.41 g/m*3 -5.4 C 0 km/h
731 18-12-2009 02:16:04 -5.7 C 2.33 g/m*3 -5.7 C 0 km/h
732 18-12-2009 02:28:04 -6 C 2.28 g/m*3 -6 C 0 km/h
733 18-12-2009 02:40:04 -6.1 C 2.3 g/m*3 -6.1 C 0 km/h
734 18-12-2009 02:52:04 -6.3 C 2.26 g/m*3 -6.3 C 0 km/h
735 18-12-2009 03:04:04 -6.4 C 2.28 g/m*3 -6.4 C 0 km/h
736 18-12-2009 03:16:04 -6.5 C 2.29 g/m*3 -6.5 C 0 km/h
737 18-12-2009 03:28:04 -6.6 C 2.27 g/m*3 -6.6 C 0 km/h
738 18-12-2009 03:40:04 -6.7 C 2.26 g/m*3 -6.7 C 0 km/h
739 18-12-2009 03:52:04 -6.6 C 2.3 g/m*3 -6.6 C 0 km/h
740 18-12-2009 04:04:04 -6.7 C 2.32 g/m*3 -6.7 C 0 km/h
741 18-12-2009 04:16:04 -6.8 C 2.3 g/m*3 -6.8 C 0 km/h
742 18-12-2009 04:28:04 -6.8 C 2.3 g/m*3 -6.8 C 0 km/h
743 18-12-2009 04:40:04 -6.9 C 2.31 g/m*3 -6.9 C 0 km/h
744 18-12-2009 04:52:04 -7.1 C 2.28 g/m*3 -7.1 C 0 km/h
745 18-12-2009 05:04:04 -7.1 C 2.28 g/m*3 -7.1 C 0 km/h
746 18-12-2009 05:16:04 -7.2 C 2.29 g/m*3 -7.2 C 0 km/h
747 18-12-2009 05:28:04 -7.4 C 2.26 g/m*3 -7.4 C 0 km/h
748 18-12-2009 05:40:04 -7.4 C 2.26 g/m*3 -7.4 C 0 km/h
749 18-12-2009 05:52:04 -7.5 C 2.24 g/m*3 -7.5 C 0 km/h
750 18-12-2009 06:04:04 -7.5 C 2.24 g/m*3 -7.5 C 0 km/h
Sensor: Nr:Datum:Temp:Abs-Feuchte:Windchill:Wind:
Aussen-T/F 751 18-12-2009 06:16:05 -7.6 C 2.25 g/m*3 -7.6 C 0 km/h
752 18-12-2009 06:28:05 -7.7 C 2.24 g/m*3 -7.7 C 0 km/h
753 18-12-2009 06:40:05 -7.8 C 2.22 g/m*3 -7.8 C 0 km/h
754 18-12-2009 06:52:05 -7.9 C 2.2 g/m*3 -7.9 C 0 km/h
755 18-12-2009 07:04:02 -7.9 C 2.2 g/m*3 -7.9 C 0 km/h
756 18-12-2009 07:16:02 -7.8 C 2.22 g/m*3 -7.8 C 0 km/h
757 18-12-2009 07:28:03 -7.7 C 2.24 g/m*3 -7.7 C 0 km/h
758 18-12-2009 07:40:02 -7.3 C 2.33 g/m*3 -7.3 C 0 km/h
759 18-12-2009 07:52:02 -7.1 C 2.37 g/m*3 -7.1 C 0 km/h
760 18-12-2009 08:04:02 -6.8 C 2.42 g/m*3 -6.8 C 0 km/h
761 18-12-2009 08:16:02 -6.6 C 2.46 g/m*3 -6.6 C 0 km/h
762 18-12-2009 08:28:02 -6.5 C 2.44 g/m*3 -6.5 C 0 km/h
763 18-12-2009 08:40:02 -6.6 C 2.43 g/m*3 -6.6 C 0 km/h
764 18-12-2009 08:52:02 -6.7 C 2.38 g/m*3 -6.7 C 0 km/h
765 18-12-2009 09:04:02 -6.7 C 2.38 g/m*3 -6.7 C 0 km/h
766 18-12-2009 09:16:01 -6.6 C 2.39 g/m*3 -6.6 C 0 km/h
767 18-12-2009 09:28:01 -6.4 C 2.43 g/m*3 -6.4 C 0 km/h
768 18-12-2009 09:40:02 -6.1 C 2.48 g/m*3 -6.1 C 0 km/h
769 18-12-2009 09:52:02 -5.7 C 2.56 g/m*3 -5.7 C 0 km/h
770 18-12-2009 10:04:02 -5.4 C 2.58 g/m*3 -5.4 C 0 km/h
771 18-12-2009 10:16:01 -5.2 C 2.58 g/m*3 -5.2 C 0 km/h
772 18-12-2009 10:28:01 -4.8 C 2.63 g/m*3 -4.8 C 0 km/h
773 18-12-2009 10:40:02 -4.4 C 2.67 g/m*3 -4.4 C 0 km/h
774 18-12-2009 10:52:02 -4.2 C 2.6 g/m*3 -4.2 C 0 km/h
775 18-12-2009 11:04:02 -4.1 C 2.51 g/m*3 -4.1 C 0 km/h
Sensor: Nr:Datum:Temp:Abs-Feuchte:Windchill:Wind:
Aussen-T/F 776 18-12-2009 11:16:01 -3.9 C 2.54 g/m*3 -3.9 C 0 km/h
777 18-12-2009 11:28:01 -3.7 C 2.54 g/m*3 -3.7 C 0 km/h
778 18-12-2009 11:40:02 -3.6 C 2.52 g/m*3 -3.6 C 0 km/h
779 18-12-2009 11:52:02 -3.4 C 2.52 g/m*3 -3.4 C 0 km/h
780 18-12-2009 12:04:02 -3.1 C 2.5 g/m*3 -3.1 C 0 km/h
781 18-12-2009 12:16:02 -2.9 C 2.49 g/m*3 -2.9 C 0 km/h
782 18-12-2009 12:28:02 -3 C 2.44 g/m*3 -3 C 0 km/h
783 18-12-2009 12:40:02 -3 C 2.44 g/m*3 -3 C 0 km/h
784 18-12-2009 12:52:02 -3.2 C 2.44 g/m*3 -3.2 C 0 km/h
785 18-12-2009 13:04:02 -3 C 2.51 g/m*3 -3 C 0 km/h
786 18-12-2009 13:16:02 -2.8 C 2.59 g/m*3 -2.8 C 0 km/h
787 18-12-2009 13:28:02 -2.8 C 2.55 g/m*3 -2.8 C 0 km/h
788 18-12-2009 13:40:01 -2.4 C 2.66 g/m*3 -2.4 C 0 km/h
789 18-12-2009 13:52:02 -2.1 C 2.68 g/m*3 -2.1 C 0 km/h
790 18-12-2009 14:04:01 -2.1 C 2.64 g/m*3 -2.1 C 0 km/h
791 18-12-2009 14:16:02 -2.2 C 2.66 g/m*3 -2.2 C 0 km/h
792 18-12-2009 14:28:02 -2.1 C 2.72 g/m*3 -2.1 C 0 km/h
793 18-12-2009 14:40:01 -2 C 2.78 g/m*3 -2 C 0 km/h
794 18-12-2009 14:52:02 -1.9 C 2.84 g/m*3 -1.9 C 0 km/h
795 18-12-2009 15:04:02 -1.8 C 2.91 g/m*3 -1.8 C 0 km/h
796 18-12-2009 15:16:02 -1.8 C 2.86 g/m*3 -1.8 C 0 km/h
797 18-12-2009 15:28:02 -1.9 C 2.89 g/m*3 -1.9 C 0 km/h
798 18-12-2009 15:40:03 -1.9 C 2.89 g/m*3 -1.9 C 0 km/h
799 18-12-2009 15:52:02 -1.9 C 2.8 g/m*3 -1.9 C 0 km/h
800 18-12-2009 16:04:02 -2 C 2.74 g/m*3 -2 C 0 km/h
Sensor: Nr:Datum:Temp:Abs-Feuchte:Windchill:Wind:
Aussen-T/F 801 18-12-2009 16:16:01 -2.1 C 2.89 g/m*3 -2.1 C 0 km/h
802 18-12-2009 16:28:01 -2.5 C 3.01 g/m*3 -2.5 C 0 km/h
803 18-12-2009 16:40:02 -2.6 C 3.07 g/m*3 -2.6 C 0 km/h
804 18-12-2009 16:52:02 -2.7 C 3.05 g/m*3 -2.7 C 0 km/h
805 18-12-2009 17:04:02 -2.9 C 3.05 g/m*3 -2.9 C 0 km/h
806 18-12-2009 17:16:02 -3 C 3.02 g/m*3 -3 C 0 km/h
807 18-12-2009 17:28:02 -3 C 3.02 g/m*3 -3 C 0 km/h
808 18-12-2009 17:40:02 -2.9 C 3.01 g/m*3 -2.9 C 0 km/h
809 18-12-2009 17:52:02 -3 C 2.83 g/m*3 -3 C 0 km/h
810 18-12-2009 18:04:01 -3.2 C 2.59 g/m*3 -3.2 C 0 km/h
811 18-12-2009 18:16:02 -3.4 C 2.52 g/m*3 -3.4 C 0 km/h
812 18-12-2009 18:28:02 -3.6 C 2.45 g/m*3 -3.6 C 0 km/h
813 18-12-2009 18:40:01 -3.7 C 2.35 g/m*3 -3.7 C 0 km/h
814 18-12-2009 18:52:02 -3.8 C 2.12 g/m*3 -3.8 C 0 km/h
815 18-12-2009 19:04:02 -3.8 C 2.08 g/m*3 -3.8 C 0 km/h
816 18-12-2009 19:16:02 -3.8 C 2.12 g/m*3 -3.8 C 0 km/h
817 18-12-2009 19:28:02 -4.1 C 1.96 g/m*3 -4.1 C 0 km/h
818 18-12-2009 19:40:03 -4.2 C 1.8 g/m*3 -4.2 C 0 km/h
819 18-12-2009 19:52:02 -4.2 C 1.8 g/m*3 -4.2 C 0 km/h
820 18-12-2009 20:04:01 -4.6 C 1.61 g/m*3 -4.6 C 0 km/h
821 18-12-2009 20:16:02 -4.8 C 1.59 g/m*3 -4.8 C 0 km/h
822 18-12-2009 20:28:02 -5.1 C 1.55 g/m*3 -5.1 C 0 km/h
823 18-12-2009 20:40:02 -5.2 C 1.51 g/m*3 -5.2 C 0 km/h
824 18-12-2009 20:52:02 -5.2 C 1.54 g/m*3 -5.2 C 0 km/h
825 18-12-2009 21:04:01 -5.3 C 1.5 g/m*3 -5.3 C 0 km/h
Sensor: Nr:Datum:Temp:Abs-Feuchte:Windchill:Wind:
Aussen-T/F 826 18-12-2009 21:16:01 -5.4 C 1.49 g/m*3 -5.4 C 0 km/h
827 18-12-2009 21:28:01 -5.4 C 1.59 g/m*3 -5.4 C 0 km/h
828 18-12-2009 21:41:29 -5.4 C 1.69 g/m*3 -5.4 C 0 km/h
829 18-12-2009 21:53:29 -5.4 C 1.72 g/m*3 -5.4 C 0 km/h
830 18-12-2009 22:05:29 -5.7 C 1.78 g/m*3 -5.7 C 0 km/h
831 18-12-2009 22:17:29 -5.8 C 1.86 g/m*3 -5.8 C 0 km/h
832 18-12-2009 22:29:29 -6 C 1.93 g/m*3 -6 C 0 km/h
833 18-12-2009 22:41:29 -7.2 C 1.83 g/m*3 -7.2 C 0 km/h
834 18-12-2009 22:53:29 -7.4 C 1.89 g/m*3 -7.4 C 0 km/h
835 18-12-2009 23:05:29 -7.3 C 1.96 g/m*3 -7.3 C 0 km/h
836 18-12-2009 23:17:29 -7.6 C 1.92 g/m*3 -7.6 C 0 km/h
837 18-12-2009 23:29:29 -7.8 C 1.89 g/m*3 -7.8 C 0 km/h
838 18-12-2009 23:41:29 -7.9 C 1.87 g/m*3 -7.9 C 0 km/h
839 18-12-2009 23:53:29 -8.2 C 1.75 g/m*3 -8.2 C 0 km/h
840 19-12-2009 00:05:29 -8.5 C 1.69 g/m*3 -8.5 C 0 km/h
841 19-12-2009 00:17:29 -8.6 C 1.65 g/m*3 -8.6 C 0 km/h
842 19-12-2009 00:29:29 -8.8 C 1.57 g/m*3 -8.8 C 0 km/h
843 19-12-2009 00:41:29 -9.1 C 1.49 g/m*3 -9.1 C 0 km/h
844 19-12-2009 00:53:29 -9.4 C 1.43 g/m*3 -9.4 C 0 km/h
845 19-12-2009 01:05:29 -9.6 C 1.38 g/m*3 -9.6 C 0 km/h
846 19-12-2009 01:17:29 -9.8 C 1.36 g/m*3 -9.8 C 0 km/h
847 19-12-2009 01:29:30 -9.9 C 1.35 g/m*3 -9.9 C 0 km/h
848 19-12-2009 01:41:30 -10 C 1.3 g/m*3 -10 C 0 km/h
849 19-12-2009 01:53:30 -10 C 1.27 g/m*3 -10 C 0 km/h
850 19-12-2009 02:05:30 -10 C 1.25 g/m*3 -10 C 0 km/h
Sensor: Nr:Datum:Temp:Abs-Feuchte:Windchill:Wind:
Aussen-T/F 851 19-12-2009 02:17:30 -10 C 1.22 g/m*3 -10 C 0 km/h
852 19-12-2009 02:29:30 -10 C 1.25 g/m*3 -10 C 0 km/h
853 19-12-2009 02:41:30 -10.4 C 1.17 g/m*3 -10.4 C 0 km/h
854 19-12-2009 02:53:30 -11.2 C 1.1 g/m*3 -11.2 C 0 km/h
855 19-12-2009 03:05:30 -11.8 C 1.07 g/m*3 -11.8 C 0 km/h
856 19-12-2009 03:17:30 -12.1 C 1.06 g/m*3 -12.1 C 0 km/h
857 19-12-2009 03:29:30 -12.3 C 1.07 g/m*3 -12.3 C 0 km/h
858 19-12-2009 03:41:30 -12.5 C 1.07 g/m*3 -12.5 C 0 km/h
859 19-12-2009 03:53:30 -12.5 C 1.09 g/m*3 -12.5 C 0 km/h
860 19-12-2009 04:05:30 -12.5 C 1.09 g/m*3 -12.5 C 0 km/h
861 19-12-2009 04:17:30 -12.6 C 1.08 g/m*3 -12.6 C 0 km/h
862 19-12-2009 04:29:30 -12.6 C 1.1 g/m*3 -12.6 C 0 km/h
863 19-12-2009 04:41:30 -12.6 C 1.08 g/m*3 -12.6 C 0 km/h
864 19-12-2009 04:53:30 -12.6 C 1.06 g/m*3 -12.6 C 0 km/h
865 19-12-2009 05:05:30 -12.7 C 1.04 g/m*3 -12.7 C 0 km/h
866 19-12-2009 05:17:30 -13.1 C 1 g/m*3 -13.1 C 0 km/h
867 19-12-2009 05:29:30 -13.2 C 1 g/m*3 -13.2 C 0 km/h
868 19-12-2009 05:41:30 -13.3 C 1.01 g/m*3 -13.3 C 0 km/h
869 19-12-2009 05:53:30 -13.4 C 1.02 g/m*3 -13.4 C 0 km/h
870 19-12-2009 06:05:31 -13.5 C 1.03 g/m*3 -13.5 C 0 km/h
871 19-12-2009 06:17:31 -13.6 C 1.02 g/m*3 -13.6 C 0 km/h
872 19-12-2009 06:29:31 -13.7 C 1.03 g/m*3 -13.7 C 0 km/h
873 19-12-2009 06:41:31 -13.9 C 1.01 g/m*3 -13.9 C 0 km/h
874 19-12-2009 06:53:31 -13.7 C 1.05 g/m*3 -13.7 C 0 km/h
875 19-12-2009 07:05:31 -13.9 C 1.05 g/m*3 -13.9 C 0 km/h
Sensor: Nr:Datum:Temp:Abs-Feuchte:Windchill:Wind:
Aussen-T/F 876 19-12-2009 07:17:31 -14 C 1.04 g/m*3 -14 C 0 km/h
877 19-12-2009 07:29:31 -13.7 C 1.08 g/m*3 -13.7 C 0 km/h
878 19-12-2009 07:41:01 -13.5 C 1.1 g/m*3 -13.5 C 0 km/h
879 19-12-2009 07:53:02 -13.4 C 1.13 g/m*3 -13.4 C 0 km/h
880 19-12-2009 08:05:02 -13.5 C 1.12 g/m*3 -13.5 C 0 km/h
881 19-12-2009 08:17:02 -13.7 C 1.1 g/m*3 -13.7 C 0 km/h
882 19-12-2009 08:29:03 -13.7 C 1.1 g/m*3 -13.7 C 0 km/h
883 19-12-2009 08:41:02 -14 C 1.07 g/m*3 -14 C 0 km/h
884 19-12-2009 08:53:02 -14.1 C 1.07 g/m*3 -14.1 C 0 km/h
885 19-12-2009 09:05:01 -14.1 C 1.07 g/m*3 -14.1 C 0 km/h
886 19-12-2009 09:17:02 -13.9 C 1.1 g/m*3 -13.9 C 0 km/h
887 19-12-2009 09:29:02 -13.9 C 1.1 g/m*3 -13.9 C 0 km/h
888 19-12-2009 09:41:02 -13.9 C 1.08 g/m*3 -13.9 C 0 km/h
889 19-12-2009 09:53:02 -13.7 C 1.12 g/m*3 -13.7 C 0 km/h
890 19-12-2009 10:05:03 -13.5 C 1.14 g/m*3 -13.5 C 0 km/h
891 19-12-2009 10:17:02 -13.4 C 1.16 g/m*3 -13.4 C 0 km/h
892 19-12-2009 10:29:02 -13.2 C 1.16 g/m*3 -13.2 C 0 km/h
893 19-12-2009 10:41:03 -13 C 1.18 g/m*3 -13 C 0 km/h
894 19-12-2009 10:53:02 -12.7 C 1.19 g/m*3 -12.7 C 0 km/h
895 19-12-2009 11:05:02 -12.8 C 1.16 g/m*3 -12.8 C 0 km/h
896 19-12-2009 11:17:01 -12.8 C 1.14 g/m*3 -12.8 C 0 km/h
897 19-12-2009 11:29:01 -12.7 C 1.15 g/m*3 -12.7 C 0 km/h
898 19-12-2009 11:41:02 -12.6 C 1.14 g/m*3 -12.6 C 0 km/h
899 19-12-2009 11:53:02 -12.6 C 1.12 g/m*3 -12.6 C 0 km/h
900 19-12-2009 12:05:02 -12.3 C 1.15 g/m*3 -12.3 C 0 km/h
Sensor: Nr:Datum:Temp:Abs-Feuchte:Windchill:Wind:
Aussen-T/F 901 19-12-2009 12:17:02 -12 C 1.13 g/m*3 -12 C 0 km/h
902 19-12-2009 12:29:02 -11.5 C 1.16 g/m*3 -11.5 C 0 km/h
903 19-12-2009 12:41:02 -11.7 C 1.12 g/m*3 -11.7 C 0 km/h
904 19-12-2009 12:53:02 -11.7 C 1.12 g/m*3 -11.7 C 0 km/h
905 19-12-2009 13:05:02 -11.6 C 1.11 g/m*3 -11.6 C 0 km/h
906 19-12-2009 13:17:01 -11.6 C 1.11 g/m*3 -11.6 C 0 km/h
907 19-12-2009 13:29:01 -11.4 C 1.12 g/m*3 -11.4 C 0 km/h
908 19-12-2009 13:41:02 -11.3 C 1.11 g/m*3 -11.3 C 0 km/h
909 19-12-2009 13:53:02 -11.1 C 1.13 g/m*3 -11.1 C 0 km/h
910 19-12-2009 14:05:02 -11.2 C 1.12 g/m*3 -11.2 C 0 km/h
911 19-12-2009 14:17:02 -11.2 C 1.12 g/m*3 -11.2 C 0 km/h
912 19-12-2009 14:29:02 -11.1 C 1.11 g/m*3 -11.1 C 0 km/h
913 19-12-2009 14:41:02 -11.2 C 1.12 g/m*3 -11.2 C 0 km/h
914 19-12-2009 14:53:02 -11.2 C 1.12 g/m*3 -11.2 C 0 km/h
915 19-12-2009 15:05:02 -11.2 C 1.12 g/m*3 -11.2 C 0 km/h
916 19-12-2009 15:17:02 -11.1 C 1.15 g/m*3 -11.1 C 0 km/h
917 19-12-2009 15:29:02 -11 C 1.16 g/m*3 -11 C 0 km/h
918 19-12-2009 15:41:02 -11.2 C 1.14 g/m*3 -11.2 C 0 km/h
919 19-12-2009 15:53:02 -11.4 C 1.12 g/m*3 -11.4 C 0 km/h
920 19-12-2009 16:05:02 -11.7 C 1.12 g/m*3 -11.7 C 0 km/h
921 19-12-2009 16:17:02 -12 C 1.11 g/m*3 -12 C 0 km/h
922 19-12-2009 16:29:02 -12.1 C 1.1 g/m*3 -12.1 C 0 km/h
923 19-12-2009 16:41:02 -12.3 C 1.11 g/m*3 -12.3 C 0 km/h
924 19-12-2009 16:53:02 -12.4 C 1.1 g/m*3 -12.4 C 0 km/h
925 19-12-2009 17:05:02 -12.4 C 1.1 g/m*3 -12.4 C 0 km/h
Sensor: Nr:Datum:Temp:Abs-Feuchte:Windchill:Wind:
Aussen-T/F 926 19-12-2009 17:17:03 -12.4 C 1.12 g/m*3 -12.4 C 0 km/h
927 19-12-2009 17:29:03 -12.5 C 1.09 g/m*3 -12.5 C 0 km/h
928 19-12-2009 17:41:02 -12.7 C 1.07 g/m*3 -12.7 C 0 km/h
929 19-12-2009 17:53:02 -13 C 1.05 g/m*3 -13 C 0 km/h
930 19-12-2009 18:05:04 -13.2 C 1.05 g/m*3 -13.2 C 0 km/h
931 19-12-2009 18:17:02 -13.3 C 1.06 g/m*3 -13.3 C 0 km/h
932 19-12-2009 18:29:02 -13.4 C 1.05 g/m*3 -13.4 C 0 km/h
933 19-12-2009 18:41:04 -13.6 C 1.05 g/m*3 -13.6 C 0 km/h
934 19-12-2009 18:53:05 -13.8 C 1.04 g/m*3 -13.8 C 0 km/h
935 19-12-2009 19:05:04 -13.5 C 1.1 g/m*3 -13.5 C 0 km/h
936 19-12-2009 19:17:03 -13.9 C 1.1 g/m*3 -13.9 C 0 km/h
937 19-12-2009 19:29:03 -13.9 C 1.1 g/m*3 -13.9 C 0 km/h
938 19-12-2009 19:41:03 -14.2 C 1.09 g/m*3 -14.2 C 0 km/h
939 19-12-2009 19:53:02 -14.4 C 1.07 g/m*3 -14.4 C 0 km/h
940 19-12-2009 20:05:02 -14.6 C 1.07 g/m*3 -14.6 C 0 km/h
941 19-12-2009 20:17:02 -14.8 C 1.06 g/m*3 -14.8 C 0 km/h
942 19-12-2009 20:29:02 -14.8 C 1.07 g/m*3 -14.8 C 0 km/h
943 19-12-2009 20:41:02 -14.9 C 1.07 g/m*3 -14.9 C 0 km/h
944 19-12-2009 20:53:02 -15 C 1.06 g/m*3 -15 C 0 km/h
945 19-12-2009 21:05:03 -15.1 C 1.05 g/m*3 -15.1 C 0 km/h
946 19-12-2009 21:17:02 -15 C 1.06 g/m*3 -15 C 0 km/h
947 19-12-2009 21:29:02 -15 C 1.06 g/m*3 -15 C 0 km/h
948 19-12-2009 21:41:02 -15.1 C 1.05 g/m*3 -15.1 C 0 km/h
949 19-12-2009 21:53:01 -15.3 C 1.03 g/m*3 -15.3 C 0 km/h
950 19-12-2009 22:05:01 -15.3 C 1.05 g/m*3 -15.3 C 0 km/h
Sensor: Nr:Datum:Temp:Abs-Feuchte:Windchill:Wind:
Aussen-T/F 951 19-12-2009 22:17:02 -15.4 C 1.02 g/m*3 -15.4 C 0 km/h
952 19-12-2009 22:29:02 -15.5 C 1.02 g/m*3 -15.5 C 0 km/h
953 19-12-2009 22:41:01 -15.6 C 1.02 g/m*3 -15.6 C 0 km/h
954 19-12-2009 22:53:03 -15.7 C 1.02 g/m*3 -15.7 C 0 km/h
955 19-12-2009 23:05:02 -15.8 C 0.99 g/m*3 -15.8 C 0 km/h
956 19-12-2009 23:17:02 -15.8 C 0.99 g/m*3 -15.8 C 0 km/h
957 19-12-2009 23:29:02 -15.8 C 0.99 g/m*3 -15.8 C 0 km/h
958 19-12-2009 23:41:02 -15.9 C 0.98 g/m*3 -15.9 C 0 km/h
959 19-12-2009 23:53:02 -15.9 C 0.98 g/m*3 -15.9 C 0 km/h
960 20-12-2009 00:05:01 -16 C 0.98 g/m*3 -16 C 0 km/h
961 20-12-2009 00:17:02 -16.1 C 0.97 g/m*3 -16.1 C 0 km/h
962 20-12-2009 00:29:02 -16.2 C 0.96 g/m*3 -16.2 C 0 km/h
963 20-12-2009 00:41:01 -16.3 C 0.95 g/m*3 -16.3 C 0 km/h
964 20-12-2009 00:54:01 -16.2 C 0.98 g/m*3 -16.2 C 0 km/h
965 20-12-2009 01:06:01 -16.2 C 0.98 g/m*3 -16.2 C 0 km/h
966 20-12-2009 01:18:01 -16.3 C 0.95 g/m*3 -16.3 C 0 km/h
967 20-12-2009 01:30:01 -16.4 C 0.95 g/m*3 -16.4 C 0 km/h
968 20-12-2009 01:42:01 -16.4 C 0.95 g/m*3 -16.4 C 0 km/h
969 20-12-2009 01:54:01 -16.4 C 0.95 g/m*3 -16.4 C 0 km/h
970 20-12-2009 02:06:01 -16 C 0.99 g/m*3 -16 C 0 km/h
971 20-12-2009 02:18:01 -16.1 C 0.98 g/m*3 -16.1 C 0 km/h
972 20-12-2009 02:30:01 -16.1 C 0.98 g/m*3 -16.1 C 0 km/h
973 20-12-2009 02:42:01 -16.1 C 0.98 g/m*3 -16.1 C 0 km/h
974 20-12-2009 02:54:01 -16 C 0.99 g/m*3 -16 C 0 km/h
975 20-12-2009 03:06:02 -16 C 0.99 g/m*3 -16 C 0 km/h
Sensor: Nr:Datum:Temp:Abs-Feuchte:Windchill:Wind:
Aussen-T/F 976 20-12-2009 03:18:02 -15.9 C 1 g/m*3 -15.9 C 0 km/h
977 20-12-2009 03:30:02 -15.8 C 1.01 g/m*3 -15.8 C 0 km/h
978 20-12-2009 03:42:02 -15.4 C 1.06 g/m*3 -15.4 C 0 km/h
979 20-12-2009 03:54:02 -14.8 C 1.12 g/m*3 -14.8 C 0 km/h
980 20-12-2009 04:06:02 -14.5 C 1.13 g/m*3 -14.5 C 0 km/h
981 20-12-2009 04:18:02 -14.7 C 1.1 g/m*3 -14.7 C 0 km/h
982 20-12-2009 04:30:02 -14.8 C 1.09 g/m*3 -14.8 C 0 km/h
983 20-12-2009 04:42:02 -14.5 C 1.12 g/m*3 -14.5 C 0 km/h
984 20-12-2009 04:54:02 -14.3 C 1.13 g/m*3 -14.3 C 0 km/h
985 20-12-2009 05:06:02 -14.2 C 1.16 g/m*3 -14.2 C 0 km/h
986 20-12-2009 05:18:02 -14.1 C 1.17 g/m*3 -14.1 C 0 km/h
987 20-12-2009 05:30:02 -13.3 C 1.24 g/m*3 -13.3 C 0 km/h
988 20-12-2009 05:42:02 -12.8 C 1.26 g/m*3 -12.8 C 0 km/h
989 20-12-2009 05:54:02 -13 C 1.22 g/m*3 -13 C 0 km/h
990 20-12-2009 06:06:03 -12.8 C 1.22 g/m*3 -12.8 C 0 km/h
991 20-12-2009 06:18:03 -12.5 C 1.25 g/m*3 -12.5 C 0 km/h
992 20-12-2009 06:30:03 -12.3 C 1.25 g/m*3 -12.3 C 0 km/h
993 20-12-2009 06:42:03 -12 C 1.25 g/m*3 -12 C 0 km/h
994 20-12-2009 06:54:03 -12.5 C 1.19 g/m*3 -12.5 C 0 km/h
995 20-12-2009 07:06:03 -12.8 C 1.18 g/m*3 -12.8 C 0 km/h
996 20-12-2009 07:18:03 -12.9 C 1.19 g/m*3 -12.9 C 0 km/h
997 20-12-2009 07:30:03 -12.7 C 1.23 g/m*3 -12.7 C 0 km/h
998 20-12-2009 07:42:03 -12.5 C 1.27 g/m*3 -12.5 C 0 km/h
999 20-12-2009 07:54:03 -12.1 C 1.33 g/m*3 -12.1 C 0 km/h
1000 20-12-2009 08:06:02 -11.6 C 1.38 g/m*3 -11.6 C 0 km/h
Sensor: Nr:Datum:Temp:Abs-Feuchte:Windchill:Wind:
Aussen-T/F 1001 20-12-2009 08:18:02 -11.3 C 1.41 g/m*3 -11.3 C 0 km/h
1002 20-12-2009 08:30:02 -11.2 C 1.42 g/m*3 -11.2 C 0 km/h
1003 20-12-2009 08:42:01 -11 C 1.44 g/m*3 -11 C 0 km/h
1004 20-12-2009 08:54:02 -10.8 C 1.46 g/m*3 -10.8 C 0 km/h
1005 20-12-2009 09:06:02 -10.6 C 1.51 g/m*3 -10.6 C 0 km/h
1006 20-12-2009 09:18:02 -10 C 1.55 g/m*3 -10 C 0 km/h
1007 20-12-2009 09:30:02 -9.6 C 1.6 g/m*3 -9.6 C 0 km/h
1008 20-12-2009 09:42:02 -9.1 C 1.59 g/m*3 -9.1 C 0 km/h
1009 20-12-2009 09:54:01 -8.8 C 1.6 g/m*3 -8.8 C 0 km/h
1010 20-12-2009 10:06:01 -8.5 C 1.61 g/m*3 -8.5 C 0 km/h
1011 20-12-2009 10:18:01 -8.2 C 1.62 g/m*3 -8.2 C 0 km/h
1012 20-12-2009 10:30:01 -8 C 1.64 g/m*3 -8 C 0 km/h
1013 20-12-2009 10:42:01 -7.8 C 1.67 g/m*3 -7.8 C 0 km/h
1014 20-12-2009 10:54:01 -7.4 C 1.69 g/m*3 -7.4 C 0 km/h
1015 20-12-2009 11:06:02 -7.2 C 1.68 g/m*3 -7.2 C 0 km/h
1016 20-12-2009 11:18:01 -7.1 C 1.7 g/m*3 -7.1 C 0 km/h
1017 20-12-2009 11:30:01 -7 C 1.71 g/m*3 -7 C 0 km/h
1018 20-12-2009 11:42:01 -6.7 C 1.81 g/m*3 -6.7 C 0 km/h
1019 20-12-2009 11:54:02 -6.5 C 1.83 g/m*3 -6.5 C 0 km/h
1020 20-12-2009 12:06:02 -6.2 C 1.87 g/m*3 -6.2 C 0 km/h
1021 20-12-2009 12:18:02 -6.1 C 1.92 g/m*3 -6.1 C 0 km/h
1022 20-12-2009 12:30:02 -5.9 C 2.01 g/m*3 -5.9 C 0 km/h
1023 20-12-2009 12:42:02 -6 C 2.06 g/m*3 -6 C 0 km/h
1024 20-12-2009 12:54:02 -5.9 C 2.14 g/m*3 -5.9 C 0 km/h
1025 20-12-2009 13:06:02 -5.8 C 2.25 g/m*3 -5.8 C 0 km/h
Sensor: Nr:Datum:Temp:Abs-Feuchte:Windchill:Wind:
Aussen-T/F 1026 20-12-2009 13:18:03 -5.7 C 2.33 g/m*3 -5.7 C 0 km/h
1027 20-12-2009 13:30:03 -5.7 C 2.36 g/m*3 -5.7 C 0 km/h
1028 20-12-2009 13:42:02 -5.6 C 2.41 g/m*3 -5.6 C 0 km/h
1029 20-12-2009 13:54:02 -5.5 C 2.46 g/m*3 -5.5 C 0 km/h
1030 20-12-2009 14:06:02 -5.4 C 2.51 g/m*3 -5.4 C 0 km/h
1031 20-12-2009 14:18:01 -5.3 C 2.57 g/m*3 -5.3 C 0 km/h
1032 20-12-2009 14:30:01 -5.3 C 2.57 g/m*3 -5.3 C 0 km/h
1033 20-12-2009 14:42:01 -5.2 C 2.62 g/m*3 -5.2 C 0 km/h
1034 20-12-2009 14:54:01 -5 C 2.66 g/m*3 -5 C 0 km/h
1035 20-12-2009 15:06:01 -5 C 2.66 g/m*3 -5 C 0 km/h
1036 20-12-2009 15:18:02 -4.9 C 2.68 g/m*3 -4.9 C 0 km/h
1037 20-12-2009 15:30:02 -4.7 C 2.71 g/m*3 -4.7 C 0 km/h
1038 20-12-2009 15:42:01 -4.4 C 2.74 g/m*3 -4.4 C 0 km/h
1039 20-12-2009 15:54:02 -4.3 C 2.76 g/m*3 -4.3 C 0 km/h
1040 20-12-2009 16:06:02 -4.3 C 2.72 g/m*3 -4.3 C 0 km/h
1041 20-12-2009 16:18:03 -4 C 2.82 g/m*3 -4 C 0 km/h
1042 20-12-2009 16:30:03 -3.8 C 2.86 g/m*3 -3.8 C 0 km/h
1043 20-12-2009 16:42:02 -3.7 C 2.84 g/m*3 -3.7 C 0 km/h
1044 20-12-2009 16:54:03 -3.7 C 2.8 g/m*3 -3.7 C 0 km/h
1045 20-12-2009 17:06:02 -3.5 C 2.84 g/m*3 -3.5 C 0 km/h
1046 20-12-2009 17:18:02 -3.2 C 2.9 g/m*3 -3.2 C 0 km/h
1047 20-12-2009 17:30:02 -3 C 2.95 g/m*3 -3 C 0 km/h
1048 20-12-2009 17:42:02 -2.8 C 2.95 g/m*3 -2.8 C 0 km/h
1049 20-12-2009 17:54:02 -2.8 C 2.95 g/m*3 -2.8 C 0 km/h
1050 20-12-2009 18:06:02 -2.7 C 2.97 g/m*3 -2.7 C 0 km/h
Sensor: Nr:Datum:Temp:Abs-Feuchte:Windchill:Wind:
Aussen-T/F 1051 20-12-2009 18:18:02 -2.7 C 2.97 g/m*3 -2.7 C 0 km/h
1052 20-12-2009 18:30:02 -2.7 C 3.01 g/m*3 -2.7 C 0 km/h
1053 20-12-2009 18:42:02 -2.5 C 3.05 g/m*3 -2.5 C 0 km/h
1054 20-12-2009 18:54:02 -2.3 C 3.1 g/m*3 -2.3 C 0 km/h
1055 20-12-2009 19:06:02 -2 C 3.12 g/m*3 -2 C 0 km/h
1056 20-12-2009 19:18:01 -1.8 C 3.12 g/m*3 -1.8 C 0 km/h
1057 20-12-2009 19:30:01 -1.9 C 3.1 g/m*3 -1.9 C 0 km/h
1058 20-12-2009 19:42:02 -2 C 3.08 g/m*3 -2 C 0 km/h
1059 20-12-2009 19:54:02 -1.9 C 3.14 g/m*3 -1.9 C 0 km/h
1060 20-12-2009 20:06:02 -1.7 C 3.14 g/m*3 -1.7 C 0 km/h
1061 20-12-2009 20:18:01 -1.6 C 3.16 g/m*3 -1.6 C 0 km/h
1062 20-12-2009 20:30:01 -1.7 C 3.14 g/m*3 -1.7 C 0 km/h
1063 20-12-2009 20:42:02 -1.6 C 3.16 g/m*3 -1.6 C 0 km/h
1064 20-12-2009 20:54:02 -1.5 C 3.19 g/m*3 -1.5 C 0 km/h
1065 20-12-2009 21:06:02 -1.5 C 3.14 g/m*3 -1.5 C 0 km/h
1066 20-12-2009 21:18:01 -1.3 C 3.14 g/m*3 -1.3 C 0 km/h
1067 20-12-2009 21:30:01 -1.1 C 3.14 g/m*3 -1.1 C 0 km/h
1068 20-12-2009 21:42:02 -1.1 C 3.05 g/m*3 -1.1 C 0 km/h
1069 20-12-2009 21:54:02 -1.2 C 2.99 g/m*3 -1.2 C 0 km/h
1070 20-12-2009 22:06:02 -1.3 C 2.92 g/m*3 -1.3 C 0 km/h
1071 20-12-2009 22:18:02 -1.8 C 2.78 g/m*3 -1.8 C 0 km/h
1072 20-12-2009 22:30:02 -2 C 2.78 g/m*3 -2 C 0 km/h
1073 20-12-2009 22:42:02 -2.1 C 2.76 g/m*3 -2.1 C 0 km/h
1074 20-12-2009 22:54:02 -2 C 2.87 g/m*3 -2 C 0 km/h
1075 20-12-2009 23:06:01 -2 C 2.87 g/m*3 -2 C 0 km/h
Sensor: Nr:Datum:Temp:Abs-Feuchte:Windchill:Wind:
Aussen-T/F 1076 20-12-2009 23:18:01 -2.1 C 2.85 g/m*3 -2.1 C 0 km/h
1077 20-12-2009 23:30:01 -2.3 C 2.85 g/m*3 -2.3 C 0 km/h
1078 20-12-2009 23:42:02 -2.6 C 2.83 g/m*3 -2.6 C 0 km/h
1079 20-12-2009 23:54:02 -2.6 C 2.87 g/m*3 -2.6 C 0 km/h
1080 21-12-2009 00:06:02 -2.7 C 2.85 g/m*3 -2.7 C 0 km/h
1081 21-12-2009 00:18:02 -3.1 C 2.81 g/m*3 -3.1 C 0 km/h
1082 21-12-2009 00:30:02 -3.2 C 2.79 g/m*3 -3.2 C 0 km/h
1083 21-12-2009 00:42:02 -3.2 C 2.79 g/m*3 -3.2 C 0 km/h
1084 21-12-2009 00:54:01 -3.3 C 2.77 g/m*3 -3.3 C 0 km/h
1085 21-12-2009 01:06:02 -3.3 C 2.77 g/m*3 -3.3 C 0 km/h
1086 21-12-2009 01:18:01 -3.7 C 2.73 g/m*3 -3.7 C 0 km/h
1087 21-12-2009 01:30:01 -3.9 C 2.73 g/m*3 -3.9 C 0 km/h
1088 21-12-2009 01:42:02 -4.1 C 2.72 g/m*3 -4.1 C 0 km/h
1089 21-12-2009 01:54:02 -4.2 C 2.74 g/m*3 -4.2 C 0 km/h
1090 21-12-2009 02:06:02 -4.2 C 2.74 g/m*3 -4.2 C 0 km/h
1091 21-12-2009 02:18:01 -4.4 C 2.7 g/m*3 -4.4 C 0 km/h
1092 21-12-2009 02:30:01 -4.3 C 2.76 g/m*3 -4.3 C 0 km/h
1093 21-12-2009 02:42:02 -4.1 C 2.8 g/m*3 -4.1 C 0 km/h
1094 21-12-2009 02:55:03 -4 C 2.82 g/m*3 -4 C 0 km/h
1095 21-12-2009 03:07:03 -3.8 C 2.86 g/m*3 -3.8 C 0 km/h
1096 21-12-2009 03:19:04 -4 C 2.82 g/m*3 -4 C 0 km/h
1097 21-12-2009 03:31:02 -3.9 C 2.84 g/m*3 -3.9 C 0 km/h
1098 21-12-2009 03:43:02 -4 C 2.82 g/m*3 -4 C 0 km/h
1099 21-12-2009 03:55:02 -4 C 2.82 g/m*3 -4 C 0 km/h
1100 21-12-2009 04:07:02 -4 C 2.85 g/m*3 -4 C 0 km/h
Sensor: Nr:Datum:Temp:Abs-Feuchte:Windchill:Wind:
Aussen-T/F 1101 21-12-2009 04:19:02 -4.4 C 2.74 g/m*3 -4.4 C 0 km/h
1102 21-12-2009 04:31:02 -4.8 C 2.66 g/m*3 -4.8 C 0 km/h
1103 21-12-2009 04:43:02 -5.2 C 2.62 g/m*3 -5.2 C 0 km/h
1104 21-12-2009 04:55:02 -5.3 C 2.63 g/m*3 -5.3 C 0 km/h
1105 21-12-2009 05:07:02 -5.3 C 2.67 g/m*3 -5.3 C 0 km/h
1106 21-12-2009 05:19:02 -5.3 C 2.67 g/m*3 -5.3 C 0 km/h
1107 21-12-2009 05:31:02 -5.3 C 2.7 g/m*3 -5.3 C 0 km/h
1108 21-12-2009 05:43:02 -5.1 C 2.77 g/m*3 -5.1 C 0 km/h
1109 21-12-2009 05:55:02 -5.1 C 2.77 g/m*3 -5.1 C 0 km/h
1110 21-12-2009 06:07:02 -4.8 C 2.83 g/m*3 -4.8 C 0 km/h
1111 21-12-2009 06:19:01 -4.6 C 2.87 g/m*3 -4.6 C 0 km/h
1112 21-12-2009 06:31:02 -4.9 C 2.74 g/m*3 -4.9 C 0 km/h
1113 21-12-2009 06:43:03 -5.1 C 2.7 g/m*3 -5.1 C 0 km/h
1114 21-12-2009 06:55:02 -5 C 2.76 g/m*3 -5 C 0 km/h
1115 21-12-2009 07:07:02 -4.7 C 2.82 g/m*3 -4.7 C 0 km/h
1116 21-12-2009 07:19:01 -4.3 C 2.86 g/m*3 -4.3 C 0 km/h
1117 21-12-2009 07:31:02 -4.2 C 2.81 g/m*3 -4.2 C 0 km/h
1118 21-12-2009 07:43:02 -4.3 C 2.76 g/m*3 -4.3 C 0 km/h
1119 21-12-2009 07:55:01 -4.5 C 2.72 g/m*3 -4.5 C 0 km/h
1120 21-12-2009 08:07:02 -4.8 C 2.63 g/m*3 -4.8 C 0 km/h
1121 21-12-2009 08:19:02 -5.2 C 2.55 g/m*3 -5.2 C 0 km/h
1122 21-12-2009 08:31:01 -5.6 C 2.51 g/m*3 -5.6 C 0 km/h
1123 21-12-2009 08:43:01 -5.7 C 2.49 g/m*3 -5.7 C 0 km/h
1124 21-12-2009 08:55:01 -6 C 2.47 g/m*3 -6 C 0 km/h
1125 21-12-2009 09:07:01 -5.8 C 2.54 g/m*3 -5.8 C 0 km/h
Sensor: Nr:Datum:Temp:Abs-Feuchte:Windchill:Wind:
Aussen-T/F 1126 21-12-2009 09:19:02 -5.7 C 2.56 g/m*3 -5.7 C 0 km/h
1127 21-12-2009 09:31:01 -5.7 C 2.56 g/m*3 -5.7 C 0 km/h
1128 21-12-2009 09:43:01 -5.2 C 2.68 g/m*3 -5.2 C 0 km/h
1129 21-12-2009 09:55:02 -5.3 C 2.63 g/m*3 -5.3 C 0 km/h
1130 21-12-2009 10:07:01 -5.1 C 2.67 g/m*3 -5.1 C 0 km/h
1131 21-12-2009 10:19:01 -4.7 C 2.75 g/m*3 -4.7 C 0 km/h
1132 21-12-2009 10:31:01 -4 C 2.89 g/m*3 -4 C 0 km/h
1133 21-12-2009 10:43:01 -3.3 C 2.88 g/m*3 -3.3 C 0 km/h
1134 21-12-2009 10:55:02 -2.8 C 2.91 g/m*3 -2.8 C 0 km/h
1135 21-12-2009 11:07:02 -2.6 C 2.83 g/m*3 -2.6 C 0 km/h
1136 21-12-2009 11:19:02 -2.6 C 2.83 g/m*3 -2.6 C 0 km/h
1137 21-12-2009 11:31:02 -2.4 C 2.87 g/m*3 -2.4 C 0 km/h
1138 21-12-2009 11:43:02 -2.2 C 2.91 g/m*3 -2.2 C 0 km/h
1139 21-12-2009 11:55:02 -2.1 C 2.93 g/m*3 -2.1 C 0 km/h
1140 21-12-2009 12:07:01 -1.7 C 2.97 g/m*3 -1.7 C 0 km/h
1141 21-12-2009 12:19:01 -1.1 C 3.05 g/m*3 -1.1 C 0 km/h
1142 21-12-2009 12:31:02 -0.9 C 3.1 g/m*3 -0.9 C 0 km/h
1143 21-12-2009 12:43:02 -0.8 C 3.07 g/m*3 -0.8 C 0 km/h
1144 21-12-2009 12:55:02 -0.8 C 3.16 g/m*3 -0.8 C 0 km/h
1145 21-12-2009 13:07:01 -0.8 C 3.21 g/m*3 -0.8 C 0 km/h
1146 21-12-2009 13:19:02 -0.7 C 3.32 g/m*3 -0.7 C 0 km/h
1147 21-12-2009 13:31:02 -0.6 C 3.35 g/m*3 -0.6 C 0 km/h
1148 21-12-2009 13:43:02 -0.4 C 3.39 g/m*3 -0.4 C 0 km/h
1149 21-12-2009 13:55:02 -0.4 C 3.39 g/m*3 -0.4 C 0 km/h
1150 21-12-2009 14:07:02 -0.4 C 3.39 g/m*3 -0.4 C 0 km/h
Sensor: Nr:Datum:Temp:Abs-Feuchte:Windchill:Wind:
Aussen-T/F 1151 21-12-2009 14:19:02 -0.3 C 3.42 g/m*3 -0.3 C 0 km/h
1152 21-12-2009 14:31:02 -0.2 C 3.49 g/m*3 -0.2 C 0 km/h
1153 21-12-2009 14:43:02 -0.1 C 3.51 g/m*3 -0.1 C 0 km/h
1154 21-12-2009 14:55:01 0.1 C 3.56 g/m*3 0.1 C 0 km/h
1155 21-12-2009 15:07:02 -0.1 C 3.56 g/m*3 -0.1 C 0 km/h
1156 21-12-2009 15:19:01 -0.2 C 3.58 g/m*3 -0.2 C 0 km/h
1157 21-12-2009 15:31:01 -0.2 C 3.63 g/m*3 -0.2 C 0 km/h
1158 21-12-2009 15:43:01 -0.2 C 3.63 g/m*3 -0.2 C 0 km/h
1159 21-12-2009 15:55:01 -0.3 C 3.65 g/m*3 -0.3 C 0 km/h
1160 21-12-2009 16:07:02 -0.3 C 3.65 g/m*3 -0.3 C 0 km/h
1161 21-12-2009 16:19:01 -0.5 C 3.65 g/m*3 -0.5 C 0 km/h
1162 21-12-2009 16:31:01 -0.7 C 3.6 g/m*3 -0.7 C 0 km/h
1163 21-12-2009 16:43:01 -0.8 C 3.62 g/m*3 -0.8 C 0 km/h
1164 21-12-2009 16:55:01 -0.9 C 3.64 g/m*3 -0.9 C 0 km/h
1165 21-12-2009 17:07:02 -0.8 C 3.67 g/m*3 -0.8 C 0 km/h
1166 21-12-2009 17:19:02 -0.9 C 3.69 g/m*3 -0.9 C 0 km/h
1167 21-12-2009 17:31:01 -1 C 3.71 g/m*3 -1 C 0 km/h
1168 21-12-2009 17:43:01 -0.9 C 3.73 g/m*3 -0.9 C 0 km/h
1169 21-12-2009 17:55:01 -0.7 C 3.83 g/m*3 -0.7 C 0 km/h
1170 21-12-2009 18:07:02 -0.7 C 3.83 g/m*3 -0.7 C 0 km/h
1171 21-12-2009 18:19:02 -0.6 C 3.86 g/m*3 -0.6 C 0 km/h
1172 21-12-2009 18:31:01 -0.5 C 3.88 g/m*3 -0.5 C 0 km/h
1173 21-12-2009 18:43:01 -0.2 C 3.97 g/m*3 -0.2 C 0 km/h
1174 21-12-2009 18:55:02 0 C 3.97 g/m*3 0 C 0 km/h
1175 21-12-2009 19:07:01 0.2 C 3.98 g/m*3 0.2 C 0 km/h
Sensor: Nr:Datum:Temp:Abs-Feuchte:Windchill:Wind:
Aussen-T/F 1176 21-12-2009 19:19:02 0.3 C 3.96 g/m*3 0.3 C 0 km/h
1177 21-12-2009 19:31:01 0.5 C 4.01 g/m*3 0.5 C 0 km/h
1178 21-12-2009 19:43:01 0.5 C 4.01 g/m*3 0.5 C 0 km/h
1179 21-12-2009 19:55:02 0.5 C 4.01 g/m*3 0.5 C 0 km/h
1180 21-12-2009 20:07:02 0.5 C 4.01 g/m*3 0.5 C 0 km/h
1181 21-12-2009 20:19:02 0.6 C 4.09 g/m*3 0.6 C 0 km/h
1182 21-12-2009 20:31:03 0.5 C 4.06 g/m*3 0.5 C 0 km/h
1183 21-12-2009 20:43:03 0.6 C 4.19 g/m*3 0.6 C 0 km/h
1184 21-12-2009 20:55:02 0.7 C 4.27 g/m*3 0.7 C 0 km/h
1185 21-12-2009 21:07:01 0.7 C 4.32 g/m*3 0.7 C 0 km/h
1186 21-12-2009 21:19:02 1 C 4.41 g/m*3 1 C 0 km/h
1187 21-12-2009 21:31:02 0.8 C 4.35 g/m*3 0.8 C 0 km/h
1188 21-12-2009 21:43:02 0.7 C 4.37 g/m*3 0.7 C 0 km/h
1189 21-12-2009 21:55:02 0.7 C 4.42 g/m*3 0.7 C 0 km/h
1190 21-12-2009 22:08:02 0.6 C 4.44 g/m*3 0.6 C 0 km/h
1191 21-12-2009 22:20:02 0.7 C 4.47 g/m*3 0.7 C 0 km/h
1192 21-12-2009 22:32:02 0.6 C 4.49 g/m*3 0.6 C 0 km/h
1193 21-12-2009 22:44:02 0.7 C 4.53 g/m*3 0.7 C 0 km/h
1194 21-12-2009 22:56:02 0.8 C 4.56 g/m*3 0.8 C 0 km/h
1195 21-12-2009 23:08:02 0.6 C 4.49 g/m*3 0.6 C 0 km/h
1196 21-12-2009 23:20:02 0.7 C 4.53 g/m*3 0.7 C 0 km/h
1197 21-12-2009 23:32:02 0.8 C 4.56 g/m*3 0.8 C 0 km/h
1198 21-12-2009 23:44:02 0.8 C 4.56 g/m*3 0.8 C 0 km/h
1199 21-12-2009 23:56:02 0.8 C 4.56 g/m*3 0.8 C 0 km/h
1200 22-12-2009 00:08:02 0.8 C 4.56 g/m*3 0.8 C 0 km/h
Sensor: Nr:Datum:Temp:Abs-Feuchte:Windchill:Wind:
Aussen-T/F 1201 22-12-2009 00:20:02 0.9 C 4.54 g/m*3 0.9 C 0 km/h
1202 22-12-2009 00:32:02 1 C 4.52 g/m*3 1 C 0 km/h
1203 22-12-2009 00:44:02 1.1 C 4.55 g/m*3 1.1 C 0 km/h
1204 22-12-2009 00:56:02 1 C 4.52 g/m*3 1 C 0 km/h
1205 22-12-2009 01:08:02 1 C 4.52 g/m*3 1 C 0 km/h
1206 22-12-2009 01:20:02 1 C 4.52 g/m*3 1 C 0 km/h
1207 22-12-2009 01:32:02 1 C 4.52 g/m*3 1 C 0 km/h
1208 22-12-2009 01:44:02 1 C 4.57 g/m*3 1 C 0 km/h
1209 22-12-2009 01:56:02 1.1 C 4.6 g/m*3 1.1 C 0 km/h
1210 22-12-2009 02:08:02 1.2 C 4.63 g/m*3 1.2 C 0 km/h
1211 22-12-2009 02:20:03 1.1 C 4.6 g/m*3 1.1 C 0 km/h
1212 22-12-2009 02:32:03 1.2 C 4.63 g/m*3 1.2 C 0 km/h
1213 22-12-2009 02:44:03 1.2 C 4.63 g/m*3 1.2 C 0 km/h
1214 22-12-2009 02:56:03 1 C 4.57 g/m*3 1 C 0 km/h
1215 22-12-2009 03:08:03 0.9 C 4.59 g/m*3 0.9 C 0 km/h
1216 22-12-2009 03:20:03 1.1 C 4.65 g/m*3 1.1 C 0 km/h
1217 22-12-2009 03:32:03 1.1 C 4.65 g/m*3 1.1 C 0 km/h
1218 22-12-2009 03:44:03 0.9 C 4.64 g/m*3 0.9 C 0 km/h
1219 22-12-2009 03:56:03 1.1 C 4.7 g/m*3 1.1 C 0 km/h
1220 22-12-2009 04:08:03 1.2 C 4.79 g/m*3 1.2 C 0 km/h
1221 22-12-2009 04:20:03 1.3 C 4.82 g/m*3 1.3 C 0 km/h
1222 22-12-2009 04:32:03 1.6 C 4.92 g/m*3 1.6 C 0 km/h
1223 22-12-2009 04:44:03 1.5 C 4.89 g/m*3 1.5 C 0 km/h
1224 22-12-2009 04:56:03 1.5 C 4.89 g/m*3 1.5 C 0 km/h
1225 22-12-2009 05:08:03 1.7 C 4.95 g/m*3 1.7 C 0 km/h
Sensor: Nr:Datum:Temp:Abs-Feuchte:Windchill:Wind:
Aussen-T/F 1226 22-12-2009 05:20:03 1.6 C 4.92 g/m*3 1.6 C 0 km/h
1227 22-12-2009 05:32:03 1.6 C 4.97 g/m*3 1.6 C 0 km/h
1228 22-12-2009 05:44:03 1.6 C 4.97 g/m*3 1.6 C 0 km/h
1229 22-12-2009 05:56:03 1.8 C 5.04 g/m*3 1.8 C 0 km/h
1230 22-12-2009 06:08:03 1.8 C 5.1 g/m*3 1.8 C 0 km/h
1231 22-12-2009 06:20:03 2 C 5.17 g/m*3 2 C 0 km/h
1232 22-12-2009 06:32:04 2.3 C 5.27 g/m*3 2.3 C 0 km/h
1233 22-12-2009 06:44:04 2.5 C 5.4 g/m*3 2.5 C 0 km/h
1234 22-12-2009 06:56:04 2.5 C 5.4 g/m*3 2.5 C 0 km/h
1235 22-12-2009 07:08:02 2.5 C 5.4 g/m*3 2.5 C 0 km/h
1236 22-12-2009 07:20:02 2.6 C 5.44 g/m*3 2.6 C 0 km/h
1237 22-12-2009 07:32:01 2.8 C 5.57 g/m*3 2.8 C 0 km/h
1238 22-12-2009 07:44:01 2.8 C 5.57 g/m*3 2.8 C 0 km/h
1239 22-12-2009 07:56:02 2.7 C 5.54 g/m*3 2.7 C 0 km/h
1240 22-12-2009 08:08:01 2.7 C 5.54 g/m*3 2.7 C 0 km/h
1241 22-12-2009 08:20:02 3 C 5.65 g/m*3 3 C 0 km/h
1242 22-12-2009 08:32:02 3 C 5.65 g/m*3 3 C 0 km/h
1243 22-12-2009 08:44:02 3.1 C 5.69 g/m*3 3.1 C 0 km/h
1244 22-12-2009 08:56:02 3 C 5.65 g/m*3 3 C 0 km/h
1245 22-12-2009 09:08:02 3 C 5.65 g/m*3 3 C 0 km/h
1246 22-12-2009 09:20:02 3.3 C 5.76 g/m*3 3.3 C 0 km/h
1247 22-12-2009 09:32:02 3.4 C 5.8 g/m*3 3.4 C 0 km/h
1248 22-12-2009 09:44:02 3.4 C 5.8 g/m*3 3.4 C 0 km/h
1249 22-12-2009 09:56:01 3.4 C 5.8 g/m*3 3.4 C 0 km/h
1250 22-12-2009 10:08:02 3.5 C 5.84 g/m*3 3.5 C 0 km/h
Sensor: Nr:Datum:Temp:Abs-Feuchte:Windchill:Wind:
Aussen-T/F 1251 22-12-2009 10:20:01 3.5 C 5.84 g/m*3 3.5 C 0 km/h
1252 22-12-2009 10:32:02 3.5 C 5.84 g/m*3 3.5 C 0 km/h
1253 22-12-2009 10:44:02 3.6 C 5.88 g/m*3 3.6 C 0 km/h
1254 22-12-2009 10:56:02 3.7 C 5.92 g/m*3 3.7 C 0 km/h
1255 22-12-2009 11:08:02 3.8 C 5.96 g/m*3 3.8 C 0 km/h
1256 22-12-2009 11:20:01 3.9 C 6 g/m*3 3.9 C 0 km/h
1257 22-12-2009 11:32:02 3.8 C 5.96 g/m*3 3.8 C 0 km/h
1258 22-12-2009 11:44:02 4 C 6.04 g/m*3 4 C 0 km/h
1259 22-12-2009 11:56:02 4.3 C 6.16 g/m*3 4.3 C 0 km/h
1260 22-12-2009 12:08:02 5 C 6.46 g/m*3 5 C 0 km/h
1261 22-12-2009 12:20:01 5.6 C 6.72 g/m*3 5.6 C 0 km/h
1262 22-12-2009 12:32:02 6 C 6.9 g/m*3 6 C 0 km/h
1263 22-12-2009 12:44:02 6 C 6.9 g/m*3 6 C 0 km/h
1264 22-12-2009 12:56:02 6 C 6.68 g/m*3 6 C 0 km/h
1265 22-12-2009 13:08:02 6 C 6.46 g/m*3 6 C 0 km/h
1266 22-12-2009 13:20:02 6.2 C 6.25 g/m*3 6.2 C 0 km/h
1267 22-12-2009 13:32:02 6.3 C 6.07 g/m*3 6.3 C 0 km/h
1268 22-12-2009 13:44:02 6.1 C 5.77 g/m*3 6.1 C 0 km/h
1269 22-12-2009 13:56:01 5.9 C 5.7 g/m*3 5.9 C 0 km/h
1270 22-12-2009 14:08:02 6 C 5.52 g/m*3 6 C 0 km/h
1271 22-12-2009 14:20:02 5.9 C 5.34 g/m*3 5.9 C 0 km/h
1272 22-12-2009 14:32:02 5.7 C 5.05 g/m*3 5.7 C 0 km/h
1273 22-12-2009 14:44:02 5.6 C 4.95 g/m*3 5.6 C 0 km/h
1274 22-12-2009 14:56:02 5.5 C 4.92 g/m*3 5.5 C 0 km/h
1275 22-12-2009 15:08:02 5.1 C 4.86 g/m*3 5.1 C 0 km/h
Sensor: Nr:Datum:Temp:Abs-Feuchte:Windchill:Wind:
Aussen-T/F 1276 22-12-2009 15:20:02 5 C 4.76 g/m*3 5 C 0 km/h
1277 22-12-2009 15:32:01 4.6 C 4.7 g/m*3 4.6 C 0 km/h
1278 22-12-2009 15:44:01 4.4 C 4.7 g/m*3 4.4 C 0 km/h
1279 22-12-2009 15:56:02 4.2 C 4.64 g/m*3 4.2 C 0 km/h
1280 22-12-2009 16:08:01 3.9 C 4.61 g/m*3 3.9 C 0 km/h
1281 22-12-2009 16:20:01 3.5 C 4.55 g/m*3 3.5 C 0 km/h
1282 22-12-2009 16:32:02 3.4 C 4.64 g/m*3 3.4 C 0 km/h
1283 22-12-2009 16:44:02 3.6 C 4.64 g/m*3 3.6 C 0 km/h
1284 22-12-2009 16:56:02 3.4 C 4.64 g/m*3 3.4 C 0 km/h
1285 22-12-2009 17:08:02 3.4 C 4.64 g/m*3 3.4 C 0 km/h
1286 22-12-2009 17:20:02 3.5 C 4.55 g/m*3 3.5 C 0 km/h
1287 22-12-2009 17:32:02 3.5 C 4.49 g/m*3 3.5 C 0 km/h
1288 22-12-2009 17:44:02 3.4 C 4.46 g/m*3 3.4 C 0 km/h
1289 22-12-2009 17:56:02 3.2 C 4.4 g/m*3 3.2 C 0 km/h
1290 22-12-2009 18:08:02 3 C 4.46 g/m*3 3 C 0 km/h
1291 22-12-2009 18:20:01 2.8 C 4.52 g/m*3 2.8 C 0 km/h
1292 22-12-2009 18:32:02 2.8 C 4.58 g/m*3 2.8 C 0 km/h
1293 22-12-2009 18:44:02 2.7 C 4.54 g/m*3 2.7 C 0 km/h
1294 22-12-2009 18:56:02 2.7 C 4.6 g/m*3 2.7 C 0 km/h
1295 22-12-2009 19:08:02 2.6 C 4.57 g/m*3 2.6 C 0 km/h
1296 22-12-2009 19:20:02 2.5 C 4.54 g/m*3 2.5 C 0 km/h
1297 22-12-2009 19:32:02 2.6 C 4.63 g/m*3 2.6 C 0 km/h
1298 22-12-2009 19:44:03 2.4 C 4.62 g/m*3 2.4 C 0 km/h
1299 22-12-2009 19:56:02 2.2 C 4.62 g/m*3 2.2 C 0 km/h
1300 22-12-2009 20:08:02 2.2 C 4.73 g/m*3 2.2 C 0 km/h
Sensor: Nr:Datum:Temp:Abs-Feuchte:Windchill:Wind:
Aussen-T/F 1301 22-12-2009 20:20:02 2.1 C 4.81 g/m*3 2.1 C 0 km/h
1302 22-12-2009 20:32:02 2.1 C 4.87 g/m*3 2.1 C 0 km/h
1303 22-12-2009 20:44:02 2 C 4.83 g/m*3 2 C 0 km/h
1304 22-12-2009 20:56:01 1.9 C 4.91 g/m*3 1.9 C 0 km/h
1305 22-12-2009 21:08:01 1.7 C 4.85 g/m*3 1.7 C 0 km/h
1306 22-12-2009 21:20:01 1.6 C 4.87 g/m*3 1.6 C 0 km/h
1307 22-12-2009 21:32:01 1.5 C 4.89 g/m*3 1.5 C 0 km/h
1308 22-12-2009 21:44:01 1.4 C 4.85 g/m*3 1.4 C 0 km/h
1309 22-12-2009 21:56:01 1.3 C 4.82 g/m*3 1.3 C 0 km/h
1310 22-12-2009 22:08:01 1 C 4.72 g/m*3 1 C 0 km/h
1311 22-12-2009 22:21:02 0.8 C 4.71 g/m*3 0.8 C 0 km/h
1312 22-12-2009 22:33:02 0.8 C 4.76 g/m*3 0.8 C 0 km/h
1313 22-12-2009 22:45:02 0.8 C 4.76 g/m*3 0.8 C 0 km/h
1314 22-12-2009 22:57:02 0.8 C 4.76 g/m*3 0.8 C 0 km/h
1315 22-12-2009 23:09:02 0.7 C 4.73 g/m*3 0.7 C 0 km/h
1316 22-12-2009 23:21:02 0.5 C 4.66 g/m*3 0.5 C 0 km/h
1317 22-12-2009 23:33:02 0.4 C 4.63 g/m*3 0.4 C 0 km/h
1318 22-12-2009 23:45:02 0.4 C 4.63 g/m*3 0.4 C 0 km/h
1319 22-12-2009 23:57:02 0.4 C 4.63 g/m*3 0.4 C 0 km/h
1320 23-12-2009 00:09:02 0.4 C 4.68 g/m*3 0.4 C 0 km/h
1321 23-12-2009 00:21:02 0.4 C 4.68 g/m*3 0.4 C 0 km/h
1322 23-12-2009 00:33:02 0.5 C 4.71 g/m*3 0.5 C 0 km/h
1323 23-12-2009 00:45:02 0.5 C 4.71 g/m*3 0.5 C 0 km/h
1324 23-12-2009 00:57:03 0.6 C 4.8 g/m*3 0.6 C 0 km/h
1325 23-12-2009 01:09:03 0.5 C 4.76 g/m*3 0.5 C 0 km/h
Sensor: Nr:Datum:Temp:Abs-Feuchte:Windchill:Wind:
Aussen-T/F 1326 23-12-2009 01:21:03 0.5 C 4.76 g/m*3 0.5 C 0 km/h
1327 23-12-2009 01:33:03 0.6 C 4.8 g/m*3 0.6 C 0 km/h
1328 23-12-2009 01:45:03 0.6 C 4.8 g/m*3 0.6 C 0 km/h
1329 23-12-2009 01:57:03 0.6 C 4.8 g/m*3 0.6 C 0 km/h
1330 23-12-2009 02:09:03 0.6 C 4.8 g/m*3 0.6 C 0 km/h
1331 23-12-2009 02:21:03 0.6 C 4.8 g/m*3 0.6 C 0 km/h
1332 23-12-2009 02:33:03 0.6 C 4.8 g/m*3 0.6 C 0 km/h
1333 23-12-2009 02:45:03 0.7 C 4.83 g/m*3 0.7 C 0 km/h
1334 23-12-2009 02:57:03 0.6 C 4.8 g/m*3 0.6 C 0 km/h
1335 23-12-2009 03:09:03 0.6 C 4.8 g/m*3 0.6 C 0 km/h
1336 23-12-2009 03:21:03 0.5 C 4.76 g/m*3 0.5 C 0 km/h
1337 23-12-2009 03:33:03 0.4 C 4.73 g/m*3 0.4 C 0 km/h
1338 23-12-2009 03:45:03 0.4 C 4.73 g/m*3 0.4 C 0 km/h
1339 23-12-2009 03:57:03 0.3 C 4.7 g/m*3 0.3 C 0 km/h
1340 23-12-2009 04:09:03 0.3 C 4.7 g/m*3 0.3 C 0 km/h
1341 23-12-2009 04:21:03 0.3 C 4.7 g/m*3 0.3 C 0 km/h
1342 23-12-2009 04:33:03 0.3 C 4.7 g/m*3 0.3 C 0 km/h
1343 23-12-2009 04:45:03 0.4 C 4.73 g/m*3 0.4 C 0 km/h
1344 23-12-2009 04:57:04 0.2 C 4.67 g/m*3 0.2 C 0 km/h
1345 23-12-2009 05:09:04 0.3 C 4.7 g/m*3 0.3 C 0 km/h
1346 23-12-2009 05:21:04 0.3 C 4.7 g/m*3 0.3 C 0 km/h
1347 23-12-2009 05:33:04 0.3 C 4.7 g/m*3 0.3 C 0 km/h
1348 23-12-2009 05:45:04 0.3 C 4.7 g/m*3 0.3 C 0 km/h
1349 23-12-2009 05:57:04 0.3 C 4.7 g/m*3 0.3 C 0 km/h
1350 23-12-2009 06:09:04 0.1 C 4.63 g/m*3 0.1 C 0 km/h
Sensor: Nr:Datum:Temp:Abs-Feuchte:Windchill:Wind:
Aussen-T/F 1351 23-12-2009 06:21:04 0.1 C 4.63 g/m*3 0.1 C 0 km/h
1352 23-12-2009 06:33:03 0.2 C 4.67 g/m*3 0.2 C 0 km/h
1353 23-12-2009 06:45:02 0.3 C 4.7 g/m*3 0.3 C 0 km/h
1354 23-12-2009 06:57:02 0.3 C 4.7 g/m*3 0.3 C 0 km/h
1355 23-12-2009 07:09:02 0.3 C 4.7 g/m*3 0.3 C 0 km/h
1356 23-12-2009 07:21:02 0.1 C 4.63 g/m*3 0.1 C 0 km/h
1357 23-12-2009 07:33:02 -0.2 C 4.54 g/m*3 -0.2 C 0 km/h
1358 23-12-2009 07:45:02 -0.4 C 4.48 g/m*3 -0.4 C 0 km/h
1359 23-12-2009 07:57:02 -0.6 C 4.42 g/m*3 -0.6 C 0 km/h
1360 23-12-2009 08:09:02 -1 C 4.29 g/m*3 -1 C 0 km/h
1361 23-12-2009 08:21:02 -1.2 C 4.24 g/m*3 -1.2 C 0 km/h
1362 23-12-2009 08:33:02 -1.4 C 4.18 g/m*3 -1.4 C 0 km/h
1363 23-12-2009 08:45:01 -1.4 C 4.18 g/m*3 -1.4 C 0 km/h
1364 23-12-2009 08:57:01 -1.4 C 4.18 g/m*3 -1.4 C 0 km/h
1365 23-12-2009 09:09:01 -1.4 C 4.18 g/m*3 -1.4 C 0 km/h
1366 23-12-2009 09:21:01 -1.2 C 4.24 g/m*3 -1.2 C 0 km/h
1367 23-12-2009 09:33:01 -1 C 4.29 g/m*3 -1 C 0 km/h
1368 23-12-2009 09:45:01 -0.5 C 4.45 g/m*3 -0.5 C 0 km/h
1369 23-12-2009 09:57:01 -0.3 C 4.51 g/m*3 -0.3 C 0 km/h
1370 23-12-2009 10:09:01 0.1 C 4.63 g/m*3 0.1 C 0 km/h
1371 23-12-2009 10:21:02 0.2 C 4.67 g/m*3 0.2 C 0 km/h
1372 23-12-2009 10:33:01 0.2 C 4.67 g/m*3 0.2 C 0 km/h
1373 23-12-2009 10:45:02 0.5 C 4.76 g/m*3 0.5 C 0 km/h
1374 23-12-2009 10:57:02 0.8 C 4.86 g/m*3 0.8 C 0 km/h
1375 23-12-2009 11:09:02 0.8 C 4.81 g/m*3 0.8 C 0 km/h
Sensor: Nr:Datum:Temp:Abs-Feuchte:Windchill:Wind:
Aussen-T/F 1376 23-12-2009 11:21:03 0.9 C 4.74 g/m*3 0.9 C 0 km/h
1377 23-12-2009 11:33:02 0.9 C 4.69 g/m*3 0.9 C 0 km/h
1378 23-12-2009 11:45:02 0.5 C 4.46 g/m*3 0.5 C 0 km/h
1379 23-12-2009 11:57:02 0.4 C 4.43 g/m*3 0.4 C 0 km/h
1380 23-12-2009 12:09:02 0.4 C 4.43 g/m*3 0.4 C 0 km/h
1381 23-12-2009 12:21:02 0.9 C 4.64 g/m*3 0.9 C 0 km/h
1382 23-12-2009 12:33:02 1 C 4.62 g/m*3 1 C 0 km/h
1383 23-12-2009 12:45:02 1 C 4.62 g/m*3 1 C 0 km/h
1384 23-12-2009 12:57:02 1.1 C 4.65 g/m*3 1.1 C 0 km/h
1385 23-12-2009 13:09:01 1.5 C 4.78 g/m*3 1.5 C 0 km/h
1386 23-12-2009 13:21:02 2 C 4.89 g/m*3 2 C 0 km/h
1387 23-12-2009 13:33:02 2.3 C 4.93 g/m*3 2.3 C 0 km/h
1388 23-12-2009 13:45:02 2.5 C 5 g/m*3 2.5 C 0 km/h
1389 23-12-2009 13:57:03 2.4 C 4.97 g/m*3 2.4 C 0 km/h
1390 23-12-2009 14:09:02 1.6 C 4.65 g/m*3 1.6 C 0 km/h
1391 23-12-2009 14:21:02 2 C 4.83 g/m*3 2 C 0 km/h
1392 23-12-2009 14:33:02 2.3 C 4.93 g/m*3 2.3 C 0 km/h
1393 23-12-2009 14:45:02 2.3 C 4.93 g/m*3 2.3 C 0 km/h
1394 23-12-2009 14:57:02 1.8 C 4.77 g/m*3 1.8 C 0 km/h
1395 23-12-2009 15:09:02 1.6 C 4.76 g/m*3 1.6 C 0 km/h
1396 23-12-2009 15:21:01 1.3 C 4.66 g/m*3 1.3 C 0 km/h
1397 23-12-2009 15:33:02 1.2 C 4.63 g/m*3 1.2 C 0 km/h
1398 23-12-2009 15:45:02 1 C 4.62 g/m*3 1 C 0 km/h
1399 23-12-2009 15:57:02 1.1 C 4.65 g/m*3 1.1 C 0 km/h
1400 23-12-2009 16:09:02 0.8 C 4.61 g/m*3 0.8 C 0 km/h
Sensor: Nr:Datum:Temp:Abs-Feuchte:Windchill:Wind:
Aussen-T/F 1401 23-12-2009 16:21:02 0.5 C 4.51 g/m*3 0.5 C 0 km/h
1402 23-12-2009 16:33:02 0.4 C 4.48 g/m*3 0.4 C 0 km/h
1403 23-12-2009 16:45:02 0.2 C 4.47 g/m*3 0.2 C 0 km/h
1404 23-12-2009 16:57:02 0 C 4.41 g/m*3 0 C 0 km/h
1405 23-12-2009 17:09:01 -0.2 C 4.4 g/m*3 -0.2 C 0 km/h
1406 23-12-2009 17:21:02 -0.3 C 4.37 g/m*3 -0.3 C 0 km/h
1407 23-12-2009 17:33:01 -0.3 C 4.41 g/m*3 -0.3 C 0 km/h
1408 23-12-2009 17:45:01 -0.5 C 4.35 g/m*3 -0.5 C 0 km/h
1409 23-12-2009 17:57:01 -0.5 C 4.35 g/m*3 -0.5 C 0 km/h
1410 23-12-2009 18:09:02 -0.5 C 4.35 g/m*3 -0.5 C 0 km/h
1411 23-12-2009 18:21:01 -0.6 C 4.32 g/m*3 -0.6 C 0 km/h
1412 23-12-2009 18:33:02 -0.7 C 4.34 g/m*3 -0.7 C 0 km/h
1413 23-12-2009 18:45:02 -0.7 C 4.34 g/m*3 -0.7 C 0 km/h
1414 23-12-2009 18:57:02 -0.3 C 4.46 g/m*3 -0.3 C 0 km/h
1415 23-12-2009 19:09:02 0 C 4.6 g/m*3 0 C 0 km/h
1416 23-12-2009 19:21:02 0.2 C 4.67 g/m*3 0.2 C 0 km/h
1417 23-12-2009 19:33:02 0.2 C 4.67 g/m*3 0.2 C 0 km/h
1418 23-12-2009 19:45:02 0.3 C 4.7 g/m*3 0.3 C 0 km/h
1419 23-12-2009 19:57:02 0.3 C 4.7 g/m*3 0.3 C 0 km/h
1420 23-12-2009 20:09:02 0.5 C 4.76 g/m*3 0.5 C 0 km/h
1421 23-12-2009 20:21:02 0.6 C 4.8 g/m*3 0.6 C 0 km/h
1422 23-12-2009 20:33:02 0.7 C 4.83 g/m*3 0.7 C 0 km/h
1423 23-12-2009 20:45:01 0.8 C 4.86 g/m*3 0.8 C 0 km/h
1424 23-12-2009 20:57:01 1 C 4.93 g/m*3 1 C 0 km/h
1425 23-12-2009 21:09:01 1 C 4.93 g/m*3 1 C 0 km/h
Sensor: Nr:Datum:Temp:Abs-Feuchte:Windchill:Wind:
Aussen-T/F 1426 23-12-2009 21:21:01 1.1 C 4.96 g/m*3 1.1 C 0 km/h
1427 23-12-2009 21:33:01 1.2 C 5 g/m*3 1.2 C 0 km/h
1428 23-12-2009 21:45:01 1.2 C 5 g/m*3 1.2 C 0 km/h
1429 23-12-2009 21:57:01 1.3 C 5.03 g/m*3 1.3 C 0 km/h
1430 23-12-2009 22:09:01 1.3 C 5.03 g/m*3 1.3 C 0 km/h
1431 23-12-2009 22:21:02 1.3 C 5.03 g/m*3 1.3 C 0 km/h
1432 23-12-2009 22:33:01 1.3 C 5.03 g/m*3 1.3 C 0 km/h
1433 23-12-2009 22:45:02 1.2 C 5 g/m*3 1.2 C 0 km/h
1434 23-12-2009 22:57:02 1.1 C 4.96 g/m*3 1.1 C 0 km/h
1435 23-12-2009 23:09:02 1.1 C 4.96 g/m*3 1.1 C 0 km/h
1436 23-12-2009 23:21:02 1.1 C 4.96 g/m*3 1.1 C 0 km/h
1437 23-12-2009 23:33:02 1.2 C 5 g/m*3 1.2 C 0 km/h
1438 23-12-2009 23:45:02 1.2 C 5 g/m*3 1.2 C 0 km/h
1439 23-12-2009 23:57:02 1.2 C 5 g/m*3 1.2 C 0 km/h
1440 24-12-2009 00:09:01 1.2 C 5 g/m*3 1.2 C 0 km/h
1441 24-12-2009 00:21:02 1.2 C 5 g/m*3 1.2 C 0 km/h
1442 24-12-2009 00:34:03 1.1 C 4.96 g/m*3 1.1 C 0 km/h
1443 24-12-2009 00:46:03 1.2 C 5 g/m*3 1.2 C 0 km/h
1444 24-12-2009 00:58:03 1.2 C 5 g/m*3 1.2 C 0 km/h
1445 24-12-2009 01:10:03 1.1 C 4.91 g/m*3 1.1 C 0 km/h
1446 24-12-2009 01:22:03 1.1 C 4.91 g/m*3 1.1 C 0 km/h
1447 24-12-2009 01:34:04 1.2 C 4.95 g/m*3 1.2 C 0 km/h
1448 24-12-2009 01:46:04 1.2 C 4.95 g/m*3 1.2 C 0 km/h
1449 24-12-2009 01:58:04 1.1 C 4.91 g/m*3 1.1 C 0 km/h
1450 24-12-2009 02:10:04 1 C 4.88 g/m*3 1 C 0 km/h
Sensor: Nr:Datum:Temp:Abs-Feuchte:Windchill:Wind:
Aussen-T/F 1451 24-12-2009 02:22:04 0.9 C 4.85 g/m*3 0.9 C 0 km/h
1452 24-12-2009 02:34:04 1 C 4.88 g/m*3 1 C 0 km/h
1453 24-12-2009 02:46:04 0.9 C 4.9 g/m*3 0.9 C 0 km/h
1454 24-12-2009 02:58:04 0.6 C 4.75 g/m*3 0.6 C 0 km/h
1455 24-12-2009 03:10:04 0.6 C 4.8 g/m*3 0.6 C 0 km/h
1456 24-12-2009 03:22:04 0.7 C 4.83 g/m*3 0.7 C 0 km/h
1457 24-12-2009 03:34:04 0.8 C 4.86 g/m*3 0.8 C 0 km/h
1458 24-12-2009 03:46:04 0.9 C 4.9 g/m*3 0.9 C 0 km/h
1459 24-12-2009 03:58:04 1 C 4.93 g/m*3 1 C 0 km/h
1460 24-12-2009 04:10:04 1.1 C 4.96 g/m*3 1.1 C 0 km/h
1461 24-12-2009 04:22:04 1.1 C 4.96 g/m*3 1.1 C 0 km/h
1462 24-12-2009 04:34:04 1.2 C 5 g/m*3 1.2 C 0 km/h
1463 24-12-2009 04:46:04 1.2 C 5 g/m*3 1.2 C 0 km/h
1464 24-12-2009 04:58:04 1.3 C 5.03 g/m*3 1.3 C 0 km/h
1465 24-12-2009 05:10:04 1.3 C 5.03 g/m*3 1.3 C 0 km/h
1466 24-12-2009 05:22:04 1.4 C 5.07 g/m*3 1.4 C 0 km/h
1467 24-12-2009 05:34:04 1.3 C 5.03 g/m*3 1.3 C 0 km/h
1468 24-12-2009 05:46:05 1.3 C 5.03 g/m*3 1.3 C 0 km/h
1469 24-12-2009 05:58:05 1.4 C 5.01 g/m*3 1.4 C 0 km/h
1470 24-12-2009 06:10:05 1.3 C 4.98 g/m*3 1.3 C 0 km/h
1471 24-12-2009 06:22:05 1.2 C 4.95 g/m*3 1.2 C 0 km/h
1472 24-12-2009 06:34:05 1.3 C 4.98 g/m*3 1.3 C 0 km/h
1473 24-12-2009 06:46:05 1.3 C 4.98 g/m*3 1.3 C 0 km/h
1474 24-12-2009 06:58:05 1.3 C 4.98 g/m*3 1.3 C 0 km/h
1475 24-12-2009 07:10:05 1.4 C 5.01 g/m*3 1.4 C 0 km/h
Sensor: Nr:Datum:Temp:Abs-Feuchte:Windchill:Wind:
Aussen-T/F 1476 24-12-2009 07:22:05 1.4 C 5.01 g/m*3 1.4 C 0 km/h
1477 24-12-2009 07:34:05 1.4 C 5.01 g/m*3 1.4 C 0 km/h
1478 24-12-2009 07:46:05 1.4 C 5.01 g/m*3 1.4 C 0 km/h
1479 24-12-2009 07:58:05 1.4 C 5.01 g/m*3 1.4 C 0 km/h
1480 24-12-2009 08:10:05 1.5 C 5.05 g/m*3 1.5 C 0 km/h
1481 24-12-2009 08:22:05 1.6 C 5.08 g/m*3 1.6 C 0 km/h
1482 24-12-2009 08:34:05 1.6 C 5.08 g/m*3 1.6 C 0 km/h
1483 24-12-2009 08:46:05 1.6 C 5.08 g/m*3 1.6 C 0 km/h
1484 24-12-2009 08:58:05 1.7 C 5.12 g/m*3 1.7 C 0 km/h
1485 24-12-2009 09:10:05 1.7 C 5.12 g/m*3 1.7 C 0 km/h
1486 24-12-2009 09:22:05 1.7 C 5.12 g/m*3 1.7 C 0 km/h
1487 24-12-2009 09:34:05 1.8 C 5.15 g/m*3 1.8 C 0 km/h
1488 24-12-2009 09:46:06 1.9 C 5.19 g/m*3 1.9 C 0 km/h
1489 24-12-2009 09:58:06 2 C 5.17 g/m*3 2 C 0 km/h
1490 24-12-2009 10:10:06 2 C 5.17 g/m*3 2 C 0 km/h
1491 24-12-2009 10:22:02 2.1 C 5.2 g/m*3 2.1 C 0 km/h
1492 24-12-2009 10:34:02 2.2 C 5.24 g/m*3 2.2 C 0 km/h
1493 24-12-2009 10:46:01 2.3 C 5.22 g/m*3 2.3 C 0 km/h
1494 24-12-2009 10:58:01 2.6 C 5.32 g/m*3 2.6 C 0 km/h
1495 24-12-2009 11:10:02 2.7 C 5.36 g/m*3 2.7 C 0 km/h
1496 24-12-2009 11:22:01 2.8 C 5.34 g/m*3 2.8 C 0 km/h
1497 24-12-2009 11:34:02 3 C 5.35 g/m*3 3 C 0 km/h
1498 24-12-2009 11:46:01 3.2 C 5.42 g/m*3 3.2 C 0 km/h
1499 24-12-2009 11:58:01 3.6 C 5.57 g/m*3 3.6 C 0 km/h
1500 24-12-2009 12:10:02 3.7 C 5.55 g/m*3 3.7 C 0 km/h
Sensor: Nr:Datum:Temp:Abs-Feuchte:Windchill:Wind:
Aussen-T/F 1501 24-12-2009 12:22:01 4.1 C 5.57 g/m*3 4.1 C 0 km/h
1502 24-12-2009 12:34:02 4.4 C 5.62 g/m*3 4.4 C 0 km/h
1503 24-12-2009 12:46:02 4.2 C 5.22 g/m*3 4.2 C 0 km/h
1504 24-12-2009 12:58:02 4.1 C 5.06 g/m*3 4.1 C 0 km/h
1505 24-12-2009 13:10:02 4 C 5.02 g/m*3 4 C 0 km/h
1506 24-12-2009 13:22:01 4 C 5.02 g/m*3 4 C 0 km/h
1507 24-12-2009 13:34:02 4.2 C 5.09 g/m*3 4.2 C 0 km/h
1508 24-12-2009 13:46:01 4.3 C 5.06 g/m*3 4.3 C 0 km/h
1509 24-12-2009 13:58:01 4.4 C 5.03 g/m*3 4.4 C 0 km/h
1510 24-12-2009 14:10:02 4.3 C 4.99 g/m*3 4.3 C 0 km/h
1511 24-12-2009 14:22:02 4.1 C 4.93 g/m*3 4.1 C 0 km/h
1512 24-12-2009 14:34:02 4.1 C 4.99 g/m*3 4.1 C 0 km/h
1513 24-12-2009 14:46:01 4.2 C 5.09 g/m*3 4.2 C 0 km/h
1514 24-12-2009 14:58:01 4 C 5.02 g/m*3 4 C 0 km/h
1515 24-12-2009 15:10:02 3.9 C 5.05 g/m*3 3.9 C 0 km/h
1516 24-12-2009 15:22:02 3.8 C 5.08 g/m*3 3.8 C 0 km/h
1517 24-12-2009 15:34:02 3.6 C 5.08 g/m*3 3.6 C 0 km/h
1518 24-12-2009 15:46:02 3.5 C 5.1 g/m*3 3.5 C 0 km/h
1519 24-12-2009 15:58:02 3.4 C 5.07 g/m*3 3.4 C 0 km/h
1520 24-12-2009 16:10:02 3.2 C 5.06 g/m*3 3.2 C 0 km/h
1521 24-12-2009 16:22:02 3 C 4.99 g/m*3 3 C 0 km/h
1522 24-12-2009 16:34:01 2.8 C 5.04 g/m*3 2.8 C 0 km/h
1523 24-12-2009 16:46:02 2.7 C 5.07 g/m*3 2.7 C 0 km/h
1524 24-12-2009 16:58:02 2.5 C 5 g/m*3 2.5 C 0 km/h
1525 24-12-2009 17:10:01 2.5 C 5.06 g/m*3 2.5 C 0 km/h
Sensor: Nr:Datum:Temp:Abs-Feuchte:Windchill:Wind:
Aussen-T/F 1526 24-12-2009 17:22:02 2.5 C 5.12 g/m*3 2.5 C 0 km/h
1527 24-12-2009 17:34:01 2.6 C 5.15 g/m*3 2.6 C 0 km/h
1528 24-12-2009 17:46:02 2.6 C 5.21 g/m*3 2.6 C 0 km/h
1529 24-12-2009 17:58:02 2.6 C 5.21 g/m*3 2.6 C 0 km/h
1530 24-12-2009 18:10:01 2.6 C 5.21 g/m*3 2.6 C 0 km/h
1531 24-12-2009 18:22:01 2.6 C 5.27 g/m*3 2.6 C 0 km/h
1532 24-12-2009 18:34:01 2.6 C 5.27 g/m*3 2.6 C 0 km/h
1533 24-12-2009 18:46:02 2.7 C 5.3 g/m*3 2.7 C 0 km/h
1534 24-12-2009 18:58:02 2.7 C 5.3 g/m*3 2.7 C 0 km/h
1535 24-12-2009 19:10:02 2.7 C 5.36 g/m*3 2.7 C 0 km/h
1536 24-12-2009 19:22:02 2.7 C 5.36 g/m*3 2.7 C 0 km/h
1537 24-12-2009 19:34:02 2.7 C 5.36 g/m*3 2.7 C 0 km/h
1538 24-12-2009 19:46:02 2.7 C 5.36 g/m*3 2.7 C 0 km/h
1539 24-12-2009 19:58:02 2.7 C 5.36 g/m*3 2.7 C 0 km/h
1540 24-12-2009 20:10:01 2.7 C 5.36 g/m*3 2.7 C 0 km/h
1541 24-12-2009 20:22:01 2.7 C 5.36 g/m*3 2.7 C 0 km/h
1542 24-12-2009 20:34:02 2.7 C 5.36 g/m*3 2.7 C 0 km/h
1543 24-12-2009 20:46:02 2.7 C 5.36 g/m*3 2.7 C 0 km/h
1544 24-12-2009 20:58:02 2.7 C 5.36 g/m*3 2.7 C 0 km/h
1545 24-12-2009 21:10:02 2.7 C 5.36 g/m*3 2.7 C 0 km/h
1546 24-12-2009 21:22:02 2.6 C 5.32 g/m*3 2.6 C 0 km/h
1547 24-12-2009 21:34:02 2.6 C 5.32 g/m*3 2.6 C 0 km/h
1548 24-12-2009 21:46:01 2.6 C 5.32 g/m*3 2.6 C 0 km/h
1549 24-12-2009 21:58:01 2.6 C 5.32 g/m*3 2.6 C 0 km/h
1550 24-12-2009 22:10:02 2.6 C 5.38 g/m*3 2.6 C 0 km/h
Sensor: Nr:Datum:Temp:Abs-Feuchte:Windchill:Wind:
Aussen-T/F 1551 24-12-2009 22:22:01 2.6 C 5.38 g/m*3 2.6 C 0 km/h
1552 24-12-2009 22:34:02 2.7 C 5.42 g/m*3 2.7 C 0 km/h
1553 24-12-2009 22:47:01 2.7 C 5.42 g/m*3 2.7 C 0 km/h
1554 24-12-2009 22:59:01 2.7 C 5.48 g/m*3 2.7 C 0 km/h
1555 24-12-2009 23:11:01 2.7 C 5.48 g/m*3 2.7 C 0 km/h
1556 24-12-2009 23:23:01 2.8 C 5.51 g/m*3 2.8 C 0 km/h
1557 24-12-2009 23:35:01 2.8 C 5.51 g/m*3 2.8 C 0 km/h
1558 24-12-2009 23:47:01 2.9 C 5.61 g/m*3 2.9 C 0 km/h
1559 24-12-2009 23:59:01 2.9 C 5.61 g/m*3 2.9 C 0 km/h
1560 25-12-2009 00:11:01 3 C 5.59 g/m*3 3 C 0 km/h
1561 25-12-2009 00:23:02 3 C 5.59 g/m*3 3 C 0 km/h
1562 25-12-2009 00:35:02 3 C 5.65 g/m*3 3 C 0 km/h
1563 25-12-2009 00:47:02 3.1 C 5.69 g/m*3 3.1 C 0 km/h
1564 25-12-2009 00:59:02 3.1 C 5.69 g/m*3 3.1 C 0 km/h
1565 25-12-2009 01:11:02 3.1 C 5.69 g/m*3 3.1 C 0 km/h
1566 25-12-2009 01:23:02 3 C 5.65 g/m*3 3 C 0 km/h
1567 25-12-2009 01:35:02 3 C 5.65 g/m*3 3 C 0 km/h
1568 25-12-2009 01:47:02 3.1 C 5.69 g/m*3 3.1 C 0 km/h
1569 25-12-2009 01:59:02 3.1 C 5.69 g/m*3 3.1 C 0 km/h
1570 25-12-2009 02:11:02 3.2 C 5.72 g/m*3 3.2 C 0 km/h
1571 25-12-2009 02:23:02 3.2 C 5.72 g/m*3 3.2 C 0 km/h
1572 25-12-2009 02:35:02 3.1 C 5.69 g/m*3 3.1 C 0 km/h
1573 25-12-2009 02:47:02 3.1 C 5.69 g/m*3 3.1 C 0 km/h
1574 25-12-2009 02:59:02 3.1 C 5.69 g/m*3 3.1 C 0 km/h
1575 25-12-2009 03:11:02 3.1 C 5.69 g/m*3 3.1 C 0 km/h
Sensor: Nr:Datum:Temp:Abs-Feuchte:Windchill:Wind:
Aussen-T/F 1576 25-12-2009 03:23:02 3.1 C 5.69 g/m*3 3.1 C 0 km/h
1577 25-12-2009 03:35:02 3.1 C 5.69 g/m*3 3.1 C 0 km/h
1578 25-12-2009 03:47:02 3.2 C 5.72 g/m*3 3.2 C 0 km/h
1579 25-12-2009 03:59:02 3.2 C 5.72 g/m*3 3.2 C 0 km/h
1580 25-12-2009 04:11:02 3.2 C 5.72 g/m*3 3.2 C 0 km/h
1581 25-12-2009 04:23:02 3.1 C 5.69 g/m*3 3.1 C 0 km/h
1582 25-12-2009 04:35:03 3.1 C 5.69 g/m*3 3.1 C 0 km/h
1583 25-12-2009 04:47:03 3.2 C 5.72 g/m*3 3.2 C 0 km/h
1584 25-12-2009 04:59:03 3.2 C 5.72 g/m*3 3.2 C 0 km/h
1585 25-12-2009 05:11:03 3.2 C 5.72 g/m*3 3.2 C 0 km/h
1586 25-12-2009 05:23:03 3.3 C 5.76 g/m*3 3.3 C 0 km/h
1587 25-12-2009 05:35:03 3.4 C 5.8 g/m*3 3.4 C 0 km/h
1588 25-12-2009 05:47:03 3.4 C 5.8 g/m*3 3.4 C 0 km/h
1589 25-12-2009 05:59:03 3.5 C 5.84 g/m*3 3.5 C 0 km/h
1590 25-12-2009 06:11:03 3.6 C 5.88 g/m*3 3.6 C 0 km/h
1591 25-12-2009 06:23:03 3.6 C 5.88 g/m*3 3.6 C 0 km/h
1592 25-12-2009 06:35:03 3.6 C 5.88 g/m*3 3.6 C 0 km/h
1593 25-12-2009 06:47:03 3.5 C 5.84 g/m*3 3.5 C 0 km/h
1594 25-12-2009 06:59:03 6.8 C 7.27 g/m*3 6.8 C 0 km/h
1595 25-12-2009 07:11:03 7.1 C 7.41 g/m*3 7.1 C 0 km/h
1596 25-12-2009 07:23:03 7.1 C 7.41 g/m*3 7.1 C 0 km/h
1597 25-12-2009 07:35:03 6.8 C 7.11 g/m*3 6.8 C 0 km/h
1598 25-12-2009 07:47:03 6.4 C 6.56 g/m*3 6.4 C 0 km/h
1599 25-12-2009 07:59:03 5.9 C 6.06 g/m*3 5.9 C 0 km/h
1600 25-12-2009 08:11:03 5.6 C 5.87 g/m*3 5.6 C 0 km/h
Sensor: Nr:Datum:Temp:Abs-Feuchte:Windchill:Wind:
Aussen-T/F 1601 25-12-2009 08:23:03 5.1 C 5.68 g/m*3 5.1 C 0 km/h
1602 25-12-2009 08:35:03 4.8 C 5.5 g/m*3 4.8 C 0 km/h
1603 25-12-2009 08:47:04 4.4 C 5.09 g/m*3 4.4 C 0 km/h
1604 25-12-2009 08:59:04 4.2 C 4.77 g/m*3 4.2 C 0 km/h
1605 25-12-2009 09:11:04 4.1 C 4.67 g/m*3 4.1 C 0 km/h
1606 25-12-2009 09:23:04 4 C 4.58 g/m*3 4 C 0 km/h
1607 25-12-2009 09:35:04 4 C 4.58 g/m*3 4 C 0 km/h
1608 25-12-2009 09:47:01 4 C 4.64 g/m*3 4 C 0 km/h
1609 25-12-2009 09:59:01 3.8 C 4.64 g/m*3 3.8 C 0 km/h
1610 25-12-2009 10:11:02 4 C 4.64 g/m*3 4 C 0 km/h
1611 25-12-2009 10:23:01 4.1 C 4.74 g/m*3 4.1 C 0 km/h
1612 25-12-2009 10:35:02 4.2 C 4.77 g/m*3 4.2 C 0 km/h
1613 25-12-2009 10:47:02 4.3 C 4.8 g/m*3 4.3 C 0 km/h
1614 25-12-2009 10:59:02 4.1 C 4.67 g/m*3 4.1 C 0 km/h
1615 25-12-2009 11:11:02 4.1 C 4.67 g/m*3 4.1 C 0 km/h
1616 25-12-2009 11:23:02 4.5 C 4.73 g/m*3 4.5 C 0 km/h
1617 25-12-2009 11:35:02 4.7 C 4.73 g/m*3 4.7 C 0 km/h
1618 25-12-2009 11:47:02 5 C 4.69 g/m*3 5 C 0 km/h
1619 25-12-2009 11:59:02 5.2 C 4.68 g/m*3 5.2 C 0 km/h
1620 25-12-2009 12:11:03 5.2 C 4.75 g/m*3 5.2 C 0 km/h
1621 25-12-2009 12:23:02 5.3 C 4.78 g/m*3 5.3 C 0 km/h
1622 25-12-2009 12:35:03 5.5 C 4.78 g/m*3 5.5 C 0 km/h
1623 25-12-2009 12:47:02 5.7 C 4.84 g/m*3 5.7 C 0 km/h
1624 25-12-2009 12:59:02 5.9 C 4.83 g/m*3 5.9 C 0 km/h
1625 25-12-2009 13:11:02 6 C 4.72 g/m*3 6 C 0 km/h
Sensor: Nr:Datum:Temp:Abs-Feuchte:Windchill:Wind:
Aussen-T/F 1626 25-12-2009 13:23:01 6 C 4.65 g/m*3 6 C 0 km/h
1627 25-12-2009 13:35:02 6.2 C 4.71 g/m*3 6.2 C 0 km/h
1628 25-12-2009 13:47:02 6.3 C 4.66 g/m*3 6.3 C 0 km/h
1629 25-12-2009 13:59:02 6.2 C 4.56 g/m*3 6.2 C 0 km/h
1630 25-12-2009 14:11:02 6.2 C 4.56 g/m*3 6.2 C 0 km/h
1631 25-12-2009 14:23:02 6 C 4.5 g/m*3 6 C 0 km/h
1632 25-12-2009 14:35:02 5.9 C 4.61 g/m*3 5.9 C 0 km/h
1633 25-12-2009 14:47:02 5.8 C 4.58 g/m*3 5.8 C 0 km/h
1634 25-12-2009 14:59:03 5.8 C 4.66 g/m*3 5.8 C 0 km/h
1635 25-12-2009 15:11:01 5.7 C 4.7 g/m*3 5.7 C 0 km/h
1636 25-12-2009 15:23:02 5.7 C 4.77 g/m*3 5.7 C 0 km/h
1637 25-12-2009 15:35:02 5.6 C 4.88 g/m*3 5.6 C 0 km/h
1638 25-12-2009 15:47:02 5.4 C 4.95 g/m*3 5.4 C 0 km/h
1639 25-12-2009 15:59:02 5.4 C 4.95 g/m*3 5.4 C 0 km/h
1640 25-12-2009 16:11:02 5.4 C 4.88 g/m*3 5.4 C 0 km/h
1641 25-12-2009 16:23:02 5.1 C 4.92 g/m*3 5.1 C 0 km/h
1642 25-12-2009 16:35:03 5 C 4.89 g/m*3 5 C 0 km/h
1643 25-12-2009 16:47:02 5 C 4.89 g/m*3 5 C 0 km/h
1644 25-12-2009 16:59:02 4.8 C 4.9 g/m*3 4.8 C 0 km/h
1645 25-12-2009 17:11:02 4.7 C 4.93 g/m*3 4.7 C 0 km/h
1646 25-12-2009 17:23:01 4.9 C 4.93 g/m*3 4.9 C 0 km/h
1647 25-12-2009 17:35:02 5 C 4.76 g/m*3 5 C 0 km/h
1648 25-12-2009 17:47:02 5 C 4.69 g/m*3 5 C 0 km/h
1649 25-12-2009 17:59:02 4.7 C 4.66 g/m*3 4.7 C 0 km/h
1650 25-12-2009 18:11:02 4.6 C 4.63 g/m*3 4.6 C 0 km/h
Sensor: Nr:Datum:Temp:Abs-Feuchte:Windchill:Wind:
Aussen-T/F 1651 25-12-2009 18:23:02 4.7 C 4.66 g/m*3 4.7 C 0 km/h
1652 25-12-2009 18:35:02 4.7 C 4.6 g/m*3 4.7 C 0 km/h
1653 25-12-2009 18:47:02 4.7 C 4.6 g/m*3 4.7 C 0 km/h
1654 25-12-2009 18:59:02 4.7 C 4.53 g/m*3 4.7 C 0 km/h
1655 25-12-2009 19:11:02 4.7 C 4.46 g/m*3 4.7 C 0 km/h
1656 25-12-2009 19:23:02 4.5 C 4.47 g/m*3 4.5 C 0 km/h
1657 25-12-2009 19:35:02 4.2 C 4.45 g/m*3 4.2 C 0 km/h
1658 25-12-2009 19:47:02 4.2 C 4.38 g/m*3 4.2 C 0 km/h
1659 25-12-2009 19:59:02 4.3 C 4.28 g/m*3 4.3 C 0 km/h
1660 25-12-2009 20:11:02 4.6 C 4.04 g/m*3 4.6 C 0 km/h
1661 25-12-2009 20:23:02 4.5 C 3.88 g/m*3 4.5 C 0 km/h
1662 25-12-2009 20:35:02 4.5 C 3.88 g/m*3 4.5 C 0 km/h
1663 25-12-2009 20:47:01 4.3 C 3.89 g/m*3 4.3 C 0 km/h
1664 25-12-2009 20:59:01 4.1 C 4.03 g/m*3 4.1 C 0 km/h
1665 25-12-2009 21:11:01 3.8 C 4.27 g/m*3 3.8 C 0 km/h
1666 25-12-2009 21:23:02 3.6 C 4.39 g/m*3 3.6 C 0 km/h
1667 25-12-2009 21:35:01 3.5 C 4.43 g/m*3 3.5 C 0 km/h
1668 25-12-2009 21:47:03 3.4 C 4.46 g/m*3 3.4 C 0 km/h
1669 25-12-2009 21:59:03 3.7 C 4.55 g/m*3 3.7 C 0 km/h
1670 25-12-2009 22:11:03 3.9 C 4.48 g/m*3 3.9 C 0 km/h
1671 25-12-2009 22:23:02 4 C 4.32 g/m*3 4 C 0 km/h
1672 25-12-2009 22:35:03 3.8 C 4.33 g/m*3 3.8 C 0 km/h
1673 25-12-2009 22:48:03 3.8 C 4.33 g/m*3 3.8 C 0 km/h
1674 25-12-2009 23:00:03 3.8 C 4.27 g/m*3 3.8 C 0 km/h
1675 25-12-2009 23:12:04 3.7 C 4.24 g/m*3 3.7 C 0 km/h
Sensor: Nr:Datum:Temp:Abs-Feuchte:Windchill:Wind:
Aussen-T/F 1676 25-12-2009 23:24:04 3.8 C 4.27 g/m*3 3.8 C 0 km/h
1677 25-12-2009 23:36:04 3.8 C 4.27 g/m*3 3.8 C 0 km/h
1678 25-12-2009 23:48:04 3.8 C 4.27 g/m*3 3.8 C 0 km/h
1679 26-12-2009 00:00:04 3.8 C 4.27 g/m*3 3.8 C 0 km/h
1680 26-12-2009 00:12:04 3.8 C 4.14 g/m*3 3.8 C 0 km/h
1681 26-12-2009 00:24:04 3.5 C 4 g/m*3 3.5 C 0 km/h
1682 26-12-2009 00:36:04 3.4 C 3.97 g/m*3 3.4 C 0 km/h
1683 26-12-2009 00:48:04 3 C 3.92 g/m*3 3 C 0 km/h
1684 26-12-2009 01:00:04 2.6 C 4.05 g/m*3 2.6 C 0 km/h
1685 26-12-2009 01:12:04 2.5 C 4.08 g/m*3 2.5 C 0 km/h
1686 26-12-2009 01:24:04 2.5 C 4.08 g/m*3 2.5 C 0 km/h
1687 26-12-2009 01:36:04 2.8 C 4.11 g/m*3 2.8 C 0 km/h
1688 26-12-2009 01:48:04 2.7 C 4.08 g/m*3 2.7 C 0 km/h
1689 26-12-2009 02:00:04 2.7 C 4.14 g/m*3 2.7 C 0 km/h
1690 26-12-2009 02:12:04 2.6 C 4.17 g/m*3 2.6 C 0 km/h
1691 26-12-2009 02:24:04 2.8 C 4.34 g/m*3 2.8 C 0 km/h
1692 26-12-2009 02:36:04 2.8 C 4.34 g/m*3 2.8 C 0 km/h
1693 26-12-2009 02:48:04 2.7 C 4.31 g/m*3 2.7 C 0 km/h
1694 26-12-2009 03:00:04 2.7 C 4.37 g/m*3 2.7 C 0 km/h
1695 26-12-2009 03:12:05 2.6 C 4.4 g/m*3 2.6 C 0 km/h
1696 26-12-2009 03:24:05 2.5 C 4.43 g/m*3 2.5 C 0 km/h
1697 26-12-2009 03:36:05 2.4 C 4.45 g/m*3 2.4 C 0 km/h
1698 26-12-2009 03:48:05 2.6 C 4.51 g/m*3 2.6 C 0 km/h
1699 26-12-2009 04:00:05 2.7 C 4.54 g/m*3 2.7 C 0 km/h
1700 26-12-2009 04:12:05 2.7 C 4.49 g/m*3 2.7 C 0 km/h
Sensor: Nr:Datum:Temp:Abs-Feuchte:Windchill:Wind:
Aussen-T/F 1701 26-12-2009 04:24:05 2.5 C 4.48 g/m*3 2.5 C 0 km/h
1702 26-12-2009 04:36:05 2.5 C 4.48 g/m*3 2.5 C 0 km/h
1703 26-12-2009 04:48:05 2.7 C 4.6 g/m*3 2.7 C 0 km/h
1704 26-12-2009 05:00:05 2.7 C 4.6 g/m*3 2.7 C 0 km/h
1705 26-12-2009 05:12:05 2.8 C 4.58 g/m*3 2.8 C 0 km/h
1706 26-12-2009 05:24:05 2.8 C 4.52 g/m*3 2.8 C 0 km/h
1707 26-12-2009 05:36:05 2.5 C 4.43 g/m*3 2.5 C 0 km/h
1708 26-12-2009 05:48:05 2.7 C 4.54 g/m*3 2.7 C 0 km/h
1709 26-12-2009 06:00:05 2.7 C 4.54 g/m*3 2.7 C 0 km/h
1710 26-12-2009 06:12:05 2.8 C 4.52 g/m*3 2.8 C 0 km/h
1711 26-12-2009 06:24:05 2.8 C 4.52 g/m*3 2.8 C 0 km/h
1712 26-12-2009 06:36:05 2.9 C 4.55 g/m*3 2.9 C 0 km/h
1713 26-12-2009 06:48:05 2.8 C 4.52 g/m*3 2.8 C 0 km/h
1714 26-12-2009 07:00:05 2.7 C 4.54 g/m*3 2.7 C 0 km/h
1715 26-12-2009 07:12:05 2.6 C 4.57 g/m*3 2.6 C 0 km/h
1716 26-12-2009 07:24:05 2.6 C 4.57 g/m*3 2.6 C 0 km/h
1717 26-12-2009 07:36:05 2.5 C 4.6 g/m*3 2.5 C 0 km/h
1718 26-12-2009 07:48:06 2.2 C 4.51 g/m*3 2.2 C 0 km/h
1719 26-12-2009 08:00:06 2 C 4.5 g/m*3 2 C 0 km/h
1720 26-12-2009 08:12:06 1.7 C 4.46 g/m*3 1.7 C 0 km/h
1721 26-12-2009 08:24:06 1.9 C 4.58 g/m*3 1.9 C 0 km/h
1722 26-12-2009 08:36:06 1.7 C 4.52 g/m*3 1.7 C 0 km/h
1723 26-12-2009 08:48:06 1.6 C 4.54 g/m*3 1.6 C 0 km/h
1724 26-12-2009 09:00:06 1.7 C 4.57 g/m*3 1.7 C 0 km/h
1725 26-12-2009 09:12:06 1.8 C 4.6 g/m*3 1.8 C 0 km/h
Sensor: Nr:Datum:Temp:Abs-Feuchte:Windchill:Wind:
Aussen-T/F 1726 26-12-2009 09:24:06 2.1 C 4.59 g/m*3 2.1 C 0 km/h
1727 26-12-2009 09:36:03 2.3 C 4.59 g/m*3 2.3 C 0 km/h
1728 26-12-2009 09:48:02 2.7 C 4.6 g/m*3 2.7 C 0 km/h
1729 26-12-2009 10:00:02 3 C 4.58 g/m*3 3 C 0 km/h
1730 26-12-2009 10:12:01 3.2 C 4.52 g/m*3 3.2 C 0 km/h
1731 26-12-2009 10:24:02 3.3 C 4.55 g/m*3 3.3 C 0 km/h
1732 26-12-2009 10:36:02 3.4 C 4.58 g/m*3 3.4 C 0 km/h
1733 26-12-2009 10:48:02 3.5 C 4.61 g/m*3 3.5 C 0 km/h
1734 26-12-2009 11:00:02 3.8 C 4.71 g/m*3 3.8 C 0 km/h
1735 26-12-2009 11:12:02 3.9 C 4.74 g/m*3 3.9 C 0 km/h
1736 26-12-2009 11:24:02 3.6 C 4.64 g/m*3 3.6 C 0 km/h
1737 26-12-2009 11:36:02 3.7 C 4.74 g/m*3 3.7 C 0 km/h
1738 26-12-2009 11:48:02 4 C 4.83 g/m*3 4 C 0 km/h
1739 26-12-2009 12:00:02 4.1 C 4.8 g/m*3 4.1 C 0 km/h
1740 26-12-2009 12:12:02 4.1 C 4.74 g/m*3 4.1 C 0 km/h
1741 26-12-2009 12:24:01 3.8 C 4.71 g/m*3 3.8 C 0 km/h
1742 26-12-2009 12:36:02 3.7 C 4.67 g/m*3 3.7 C 0 km/h
1743 26-12-2009 12:48:02 3.6 C 4.64 g/m*3 3.6 C 0 km/h
1744 26-12-2009 13:00:02 3.6 C 4.7 g/m*3 3.6 C 0 km/h
1745 26-12-2009 13:12:02 3.9 C 4.74 g/m*3 3.9 C 0 km/h
1746 26-12-2009 13:24:01 3.9 C 4.74 g/m*3 3.9 C 0 km/h
1747 26-12-2009 13:36:02 4 C 4.7 g/m*3 4 C 0 km/h
1748 26-12-2009 13:48:02 4.1 C 4.67 g/m*3 4.1 C 0 km/h
1749 26-12-2009 14:00:02 4 C 4.64 g/m*3 4 C 0 km/h
1750 26-12-2009 14:12:02 3.9 C 4.74 g/m*3 3.9 C 0 km/h
Sensor: Nr:Datum:Temp:Abs-Feuchte:Windchill:Wind:
Aussen-T/F 1751 26-12-2009 14:24:01 4.1 C 4.74 g/m*3 4.1 C 0 km/h
1752 26-12-2009 14:36:02 4.2 C 4.7 g/m*3 4.2 C 0 km/h
1753 26-12-2009 14:48:02 4.1 C 4.67 g/m*3 4.1 C 0 km/h
1754 26-12-2009 15:00:02 3.7 C 4.67 g/m*3 3.7 C 0 km/h
1755 26-12-2009 15:12:02 3.5 C 4.67 g/m*3 3.5 C 0 km/h
1756 26-12-2009 15:24:02 3.3 C 4.67 g/m*3 3.3 C 0 km/h
1757 26-12-2009 15:36:02 3.1 C 4.67 g/m*3 3.1 C 0 km/h
1758 26-12-2009 15:48:01 3 C 4.7 g/m*3 3 C 0 km/h
1759 26-12-2009 16:00:01 2.8 C 4.75 g/m*3 2.8 C 0 km/h
1760 26-12-2009 16:12:02 2.7 C 4.72 g/m*3 2.7 C 0 km/h
1761 26-12-2009 16:24:02 2.7 C 4.72 g/m*3 2.7 C 0 km/h
1762 26-12-2009 16:36:02 2.5 C 4.66 g/m*3 2.5 C 0 km/h
1763 26-12-2009 16:48:02 2.2 C 4.56 g/m*3 2.2 C 0 km/h
1764 26-12-2009 17:00:02 1.6 C 4.43 g/m*3 1.6 C 0 km/h
1765 26-12-2009 17:12:02 1.4 C 4.48 g/m*3 1.4 C 0 km/h
1766 26-12-2009 17:24:02 1.4 C 4.53 g/m*3 1.4 C 0 km/h
1767 26-12-2009 17:36:01 1.7 C 4.68 g/m*3 1.7 C 0 km/h
1768 26-12-2009 17:48:02 1.6 C 4.54 g/m*3 1.6 C 0 km/h
1769 26-12-2009 18:00:02 1 C 4.36 g/m*3 1 C 0 km/h
1770 26-12-2009 18:12:02 0.6 C 4.29 g/m*3 0.6 C 0 km/h
1771 26-12-2009 18:24:02 0.5 C 4.26 g/m*3 0.5 C 0 km/h
1772 26-12-2009 18:36:02 0.3 C 4.25 g/m*3 0.3 C 0 km/h
1773 26-12-2009 18:48:02 0.3 C 4.3 g/m*3 0.3 C 0 km/h
1774 26-12-2009 19:00:02 0.1 C 4.24 g/m*3 0.1 C 0 km/h
1775 26-12-2009 19:12:02 0.1 C 4.29 g/m*3 0.1 C 0 km/h
Sensor: Nr:Datum:Temp:Abs-Feuchte:Windchill:Wind:
Aussen-T/F 1776 26-12-2009 19:24:02 0.1 C 4.29 g/m*3 0.1 C 0 km/h
1777 26-12-2009 19:36:02 -0.1 C 4.23 g/m*3 -0.1 C 0 km/h
1778 26-12-2009 19:48:02 -0.3 C 4.22 g/m*3 -0.3 C 0 km/h
1779 26-12-2009 20:00:02 -0.5 C 4.17 g/m*3 -0.5 C 0 km/h
1780 26-12-2009 20:12:02 -0.7 C 4.11 g/m*3 -0.7 C 0 km/h
1781 26-12-2009 20:24:02 -0.5 C 4.17 g/m*3 -0.5 C 0 km/h
1782 26-12-2009 20:36:02 -0.4 C 4.24 g/m*3 -0.4 C 0 km/h
1783 26-12-2009 20:48:01 -0.7 C 4.15 g/m*3 -0.7 C 0 km/h
1784 26-12-2009 21:00:01 -0.8 C 4.17 g/m*3 -0.8 C 0 km/h
1785 26-12-2009 21:12:02 -0.8 C 4.17 g/m*3 -0.8 C 0 km/h
1786 26-12-2009 21:24:01 -0.8 C 4.17 g/m*3 -0.8 C 0 km/h
1787 26-12-2009 21:36:01 -0.8 C 4.17 g/m*3 -0.8 C 0 km/h
1788 26-12-2009 21:48:01 -0.8 C 4.17 g/m*3 -0.8 C 0 km/h
1789 26-12-2009 22:00:01 -0.9 C 4.14 g/m*3 -0.9 C 0 km/h
1790 26-12-2009 22:12:01 -0.9 C 4.19 g/m*3 -0.9 C 0 km/h
1791 26-12-2009 22:24:01 -1 C 4.16 g/m*3 -1 C 0 km/h
1792 26-12-2009 22:36:02 -1.1 C 4.09 g/m*3 -1.1 C 0 km/h
1793 26-12-2009 22:49:03 -1.2 C 4.06 g/m*3 -1.2 C 0 km/h
1794 26-12-2009 23:01:03 -1.1 C 4.13 g/m*3 -1.1 C 0 km/h
1795 26-12-2009 23:13:03 -1.3 C 4.07 g/m*3 -1.3 C 0 km/h
1796 26-12-2009 23:25:03 -1.2 C 4.1 g/m*3 -1.2 C 0 km/h
1797 26-12-2009 23:37:03 -1.4 C 4.04 g/m*3 -1.4 C 0 km/h
1798 26-12-2009 23:49:03 -1.6 C 3.99 g/m*3 -1.6 C 0 km/h
1799 27-12-2009 00:01:03 -1.6 C 3.99 g/m*3 -1.6 C 0 km/h
1800 27-12-2009 00:13:03 -1.8 C 3.93 g/m*3 -1.8 C 0 km/h
Sensor: Nr:Datum:Temp:Abs-Feuchte:Windchill:Wind:
Aussen-T/F 1801 27-12-2009 00:25:03 -1.8 C 3.93 g/m*3 -1.8 C 0 km/h
1802 27-12-2009 00:37:03 -1.8 C 3.93 g/m*3 -1.8 C 0 km/h
1803 27-12-2009 00:49:03 -1.9 C 3.91 g/m*3 -1.9 C 0 km/h
1804 27-12-2009 01:01:03 -1.8 C 3.93 g/m*3 -1.8 C 0 km/h
1805 27-12-2009 01:13:03 -1.9 C 3.91 g/m*3 -1.9 C 0 km/h
1806 27-12-2009 01:25:03 -2 C 3.88 g/m*3 -2 C 0 km/h
1807 27-12-2009 01:37:03 -2.3 C 3.8 g/m*3 -2.3 C 0 km/h
1808 27-12-2009 01:49:04 -2.3 C 3.8 g/m*3 -2.3 C 0 km/h
1809 27-12-2009 02:01:04 -2.3 C 3.8 g/m*3 -2.3 C 0 km/h
1810 27-12-2009 02:13:04 -2.2 C 3.87 g/m*3 -2.2 C 0 km/h
1811 27-12-2009 02:25:04 -2.1 C 3.89 g/m*3 -2.1 C 0 km/h
1812 27-12-2009 02:37:04 -2 C 3.92 g/m*3 -2 C 0 km/h
1813 27-12-2009 02:49:04 -1.9 C 3.95 g/m*3 -1.9 C 0 km/h
1814 27-12-2009 03:01:04 -2.1 C 3.89 g/m*3 -2.1 C 0 km/h
1815 27-12-2009 03:13:04 -2.2 C 3.87 g/m*3 -2.2 C 0 km/h
1816 27-12-2009 03:25:04 -2.1 C 3.89 g/m*3 -2.1 C 0 km/h
1817 27-12-2009 03:37:04 -2.3 C 3.84 g/m*3 -2.3 C 0 km/h
1818 27-12-2009 03:49:04 -2.5 C 3.78 g/m*3 -2.5 C 0 km/h
1819 27-12-2009 04:01:04 -2.6 C 3.76 g/m*3 -2.6 C 0 km/h
1820 27-12-2009 04:13:04 -2.7 C 3.73 g/m*3 -2.7 C 0 km/h
1821 27-12-2009 04:25:04 -2.7 C 3.73 g/m*3 -2.7 C 0 km/h
1822 27-12-2009 04:37:04 -2.8 C 3.71 g/m*3 -2.8 C 0 km/h
1823 27-12-2009 04:49:04 -2.8 C 3.71 g/m*3 -2.8 C 0 km/h
1824 27-12-2009 05:01:04 -2.7 C 3.73 g/m*3 -2.7 C 0 km/h
1825 27-12-2009 05:13:04 -2.6 C 3.8 g/m*3 -2.6 C 0 km/h
Sensor: Nr:Datum:Temp:Abs-Feuchte:Windchill:Wind:
Aussen-T/F 1826 27-12-2009 05:25:04 -2.8 C 3.75 g/m*3 -2.8 C 0 km/h
1827 27-12-2009 05:37:04 -2.9 C 3.72 g/m*3 -2.9 C 0 km/h
1828 27-12-2009 05:49:04 -2.8 C 3.75 g/m*3 -2.8 C 0 km/h
1829 27-12-2009 06:01:04 -2.8 C 3.75 g/m*3 -2.8 C 0 km/h
1830 27-12-2009 06:13:04 -2.9 C 3.72 g/m*3 -2.9 C 0 km/h
1831 27-12-2009 06:25:05 -2.9 C 3.72 g/m*3 -2.9 C 0 km/h
1832 27-12-2009 06:37:05 -3 C 3.69 g/m*3 -3 C 0 km/h
1833 27-12-2009 06:49:05 -3.1 C 3.67 g/m*3 -3.1 C 0 km/h
1834 27-12-2009 07:01:05 -3.1 C 3.67 g/m*3 -3.1 C 0 km/h
1835 27-12-2009 07:13:05 -3.2 C 3.64 g/m*3 -3.2 C 0 km/h
1836 27-12-2009 07:25:05 -3.1 C 3.67 g/m*3 -3.1 C 0 km/h
1837 27-12-2009 07:37:05 -3.2 C 3.64 g/m*3 -3.2 C 0 km/h
1838 27-12-2009 07:49:05 -3.2 C 3.64 g/m*3 -3.2 C 0 km/h
1839 27-12-2009 08:01:05 -3.2 C 3.64 g/m*3 -3.2 C 0 km/h
1840 27-12-2009 08:13:05 -2.9 C 3.72 g/m*3 -2.9 C 0 km/h
1841 27-12-2009 08:25:05 -2.7 C 3.77 g/m*3 -2.7 C 0 km/h
1842 27-12-2009 08:37:05 -2.5 C 3.83 g/m*3 -2.5 C 0 km/h
1843 27-12-2009 08:49:05 -2.4 C 3.89 g/m*3 -2.4 C 0 km/h
1844 27-12-2009 09:01:02 -2.3 C 3.92 g/m*3 -2.3 C 0 km/h
1845 27-12-2009 09:13:02 -2.2 C 3.95 g/m*3 -2.2 C 0 km/h
1846 27-12-2009 09:25:02 -1.4 C 4.18 g/m*3 -1.4 C 0 km/h
1847 27-12-2009 09:37:02 -1.1 C 4.26 g/m*3 -1.1 C 0 km/h
1848 27-12-2009 09:49:01 -0.6 C 4.42 g/m*3 -0.6 C 0 km/h
1849 27-12-2009 10:01:01 -0.4 C 4.48 g/m*3 -0.4 C 0 km/h
1850 27-12-2009 10:13:01 -0.1 C 4.57 g/m*3 -0.1 C 0 km/h
Sensor: Nr:Datum:Temp:Abs-Feuchte:Windchill:Wind:
Aussen-T/F 1851 27-12-2009 10:25:01 0.2 C 4.67 g/m*3 0.2 C 0 km/h
1852 27-12-2009 10:37:01 0.5 C 4.71 g/m*3 0.5 C 0 km/h
1853 27-12-2009 10:49:02 0.7 C 4.78 g/m*3 0.7 C 0 km/h
1854 27-12-2009 11:01:02 0.7 C 4.78 g/m*3 0.7 C 0 km/h
1855 27-12-2009 11:13:02 0.8 C 4.76 g/m*3 0.8 C 0 km/h
1856 27-12-2009 11:25:02 1.2 C 4.84 g/m*3 1.2 C 0 km/h
1857 27-12-2009 11:37:02 1.4 C 4.91 g/m*3 1.4 C 0 km/h
1858 27-12-2009 11:49:02 1.7 C 4.85 g/m*3 1.7 C 0 km/h
1859 27-12-2009 12:01:02 1.6 C 4.65 g/m*3 1.6 C 0 km/h
1860 27-12-2009 12:13:02 1.8 C 4.49 g/m*3 1.8 C 0 km/h
1861 27-12-2009 12:25:02 2 C 4.5 g/m*3 2 C 0 km/h
1862 27-12-2009 12:37:02 2.1 C 4.48 g/m*3 2.1 C 0 km/h
1863 27-12-2009 12:49:02 2.1 C 4.48 g/m*3 2.1 C 0 km/h
1864 27-12-2009 13:01:02 2.1 C 4.48 g/m*3 2.1 C 0 km/h
1865 27-12-2009 13:13:02 2.1 C 4.53 g/m*3 2.1 C 0 km/h
1866 27-12-2009 13:25:02 2.4 C 4.68 g/m*3 2.4 C 0 km/h
1867 27-12-2009 13:37:02 2.4 C 4.68 g/m*3 2.4 C 0 km/h
1868 27-12-2009 13:49:01 2.6 C 4.69 g/m*3 2.6 C 0 km/h
1869 27-12-2009 14:01:01 2.7 C 4.72 g/m*3 2.7 C 0 km/h
1870 27-12-2009 14:13:02 2.7 C 4.72 g/m*3 2.7 C 0 km/h
1871 27-12-2009 14:25:01 2.7 C 4.66 g/m*3 2.7 C 0 km/h
1872 27-12-2009 14:37:01 2.7 C 4.66 g/m*3 2.7 C 0 km/h
1873 27-12-2009 14:49:01 2.6 C 4.57 g/m*3 2.6 C 0 km/h
1874 27-12-2009 15:01:01 2.6 C 4.63 g/m*3 2.6 C 0 km/h
1875 27-12-2009 15:13:01 2.6 C 4.63 g/m*3 2.6 C 0 km/h
Sensor: Nr:Datum:Temp:Abs-Feuchte:Windchill:Wind:
Aussen-T/F 1876 27-12-2009 15:25:02 2.6 C 4.69 g/m*3 2.6 C 0 km/h
1877 27-12-2009 15:37:01 2.5 C 4.66 g/m*3 2.5 C 0 km/h
1878 27-12-2009 15:49:02 2.4 C 4.68 g/m*3 2.4 C 0 km/h
1879 27-12-2009 16:01:02 2.4 C 4.74 g/m*3 2.4 C 0 km/h
1880 27-12-2009 16:13:02 2.4 C 4.74 g/m*3 2.4 C 0 km/h
1881 27-12-2009 16:25:03 2.3 C 4.76 g/m*3 2.3 C 0 km/h
1882 27-12-2009 16:37:02 2.4 C 4.8 g/m*3 2.4 C 0 km/h
1883 27-12-2009 16:49:02 2.6 C 4.86 g/m*3 2.6 C 0 km/h
1884 27-12-2009 17:01:02 3.2 C 4.82 g/m*3 3.2 C 0 km/h
1885 27-12-2009 17:13:02 3.3 C 4.73 g/m*3 3.3 C 0 km/h
1886 27-12-2009 17:25:02 3.2 C 4.64 g/m*3 3.2 C 0 km/h
1887 27-12-2009 17:37:02 3.2 C 4.7 g/m*3 3.2 C 0 km/h
1888 27-12-2009 17:49:02 3.2 C 4.7 g/m*3 3.2 C 0 km/h
1889 27-12-2009 18:01:01 3.1 C 4.67 g/m*3 3.1 C 0 km/h
1890 27-12-2009 18:13:01 3.1 C 4.73 g/m*3 3.1 C 0 km/h
1891 27-12-2009 18:25:02 3.4 C 4.83 g/m*3 3.4 C 0 km/h
1892 27-12-2009 18:37:02 3.5 C 4.8 g/m*3 3.5 C 0 km/h
1893 27-12-2009 18:49:02 3.4 C 4.83 g/m*3 3.4 C 0 km/h
1894 27-12-2009 19:01:03 3.4 C 4.89 g/m*3 3.4 C 0 km/h
1895 27-12-2009 19:13:03 3.4 C 4.95 g/m*3 3.4 C 0 km/h
1896 27-12-2009 19:25:02 3.4 C 4.95 g/m*3 3.4 C 0 km/h
1897 27-12-2009 19:37:02 3.3 C 4.97 g/m*3 3.3 C 0 km/h
1898 27-12-2009 19:49:01 3.4 C 5.01 g/m*3 3.4 C 0 km/h
1899 27-12-2009 20:01:02 3.6 C 5.01 g/m*3 3.6 C 0 km/h
1900 27-12-2009 20:13:02 3.8 C 5.02 g/m*3 3.8 C 0 km/h
Sensor: Nr:Datum:Temp:Abs-Feuchte:Windchill:Wind:
Aussen-T/F 1901 27-12-2009 20:25:01 3.9 C 4.99 g/m*3 3.9 C 0 km/h
1902 27-12-2009 20:37:02 4 C 4.9 g/m*3 4 C 0 km/h
1903 27-12-2009 20:49:02 4.1 C 4.86 g/m*3 4.1 C 0 km/h
1904 27-12-2009 21:01:02 4 C 4.83 g/m*3 4 C 0 km/h
1905 27-12-2009 21:13:02 3.8 C 4.89 g/m*3 3.8 C 0 km/h
1906 27-12-2009 21:25:01 3.6 C 4.89 g/m*3 3.6 C 0 km/h
1907 27-12-2009 21:37:02 3.2 C 4.94 g/m*3 3.2 C 0 km/h
1908 27-12-2009 21:49:02 3 C 4.93 g/m*3 3 C 0 km/h
1909 27-12-2009 22:01:02 3 C 4.93 g/m*3 3 C 0 km/h
1910 27-12-2009 22:13:02 3.2 C 5 g/m*3 3.2 C 0 km/h
1911 27-12-2009 22:25:02 3.4 C 5.01 g/m*3 3.4 C 0 km/h
1912 27-12-2009 22:37:02 3.5 C 4.98 g/m*3 3.5 C 0 km/h
1913 27-12-2009 22:50:03 3.6 C 5.01 g/m*3 3.6 C 0 km/h
1914 27-12-2009 23:02:03 3.2 C 4.94 g/m*3 3.2 C 0 km/h
1915 27-12-2009 23:14:03 3.2 C 4.94 g/m*3 3.2 C 0 km/h
1916 27-12-2009 23:26:03 3.5 C 5.04 g/m*3 3.5 C 0 km/h
1917 27-12-2009 23:38:03 3.4 C 5.07 g/m*3 3.4 C 0 km/h
1918 27-12-2009 23:50:03 3.2 C 5.12 g/m*3 3.2 C 0 km/h
1919 28-12-2009 00:02:03 3.1 C 5.21 g/m*3 3.1 C 0 km/h
1920 28-12-2009 00:14:03 3 C 5.17 g/m*3 3 C 0 km/h
1921 28-12-2009 00:26:03 3.1 C 5.21 g/m*3 3.1 C 0 km/h
1922 28-12-2009 00:38:03 3.4 C 5.25 g/m*3 3.4 C 0 km/h
1923 28-12-2009 00:50:03 3.5 C 5.16 g/m*3 3.5 C 0 km/h
1924 28-12-2009 01:02:03 3.7 C 5.17 g/m*3 3.7 C 0 km/h
1925 28-12-2009 01:14:03 3.8 C 5.14 g/m*3 3.8 C 0 km/h
Sensor: Nr:Datum:Temp:Abs-Feuchte:Windchill:Wind:
Aussen-T/F 1926 28-12-2009 01:26:03 3.8 C 5.08 g/m*3 3.8 C 0 km/h
1927 28-12-2009 01:38:03 3.8 C 5.08 g/m*3 3.8 C 0 km/h
1928 28-12-2009 01:50:03 3.7 C 5.11 g/m*3 3.7 C 0 km/h
1929 28-12-2009 02:02:03 3.7 C 5.05 g/m*3 3.7 C 0 km/h
1930 28-12-2009 02:14:03 3.9 C 4.99 g/m*3 3.9 C 0 km/h
1931 28-12-2009 02:26:04 3.9 C 4.93 g/m*3 3.9 C 0 km/h
1932 28-12-2009 02:38:04 4 C 4.83 g/m*3 4 C 0 km/h
1933 28-12-2009 02:50:04 4 C 4.77 g/m*3 4 C 0 km/h
1934 28-12-2009 03:02:04 4 C 4.7 g/m*3 4 C 0 km/h
1935 28-12-2009 03:14:04 3.9 C 4.74 g/m*3 3.9 C 0 km/h
1936 28-12-2009 03:26:04 3.8 C 4.77 g/m*3 3.8 C 0 km/h
1937 28-12-2009 03:38:04 3.7 C 4.74 g/m*3 3.7 C 0 km/h
1938 28-12-2009 03:50:04 3.6 C 4.7 g/m*3 3.6 C 0 km/h
1939 28-12-2009 04:02:04 3.5 C 4.73 g/m*3 3.5 C 0 km/h
1940 28-12-2009 04:14:04 3.6 C 4.77 g/m*3 3.6 C 0 km/h
1941 28-12-2009 04:26:04 3.6 C 4.77 g/m*3 3.6 C 0 km/h
1942 28-12-2009 04:38:04 3.6 C 4.7 g/m*3 3.6 C 0 km/h
1943 28-12-2009 04:50:04 3.7 C 4.61 g/m*3 3.7 C 0 km/h
1944 28-12-2009 05:02:04 3.7 C 4.61 g/m*3 3.7 C 0 km/h
1945 28-12-2009 05:14:04 3.6 C 4.64 g/m*3 3.6 C 0 km/h
1946 28-12-2009 05:26:04 3.5 C 4.67 g/m*3 3.5 C 0 km/h
1947 28-12-2009 05:38:04 3.5 C 4.73 g/m*3 3.5 C 0 km/h
1948 28-12-2009 05:50:04 3.3 C 4.67 g/m*3 3.3 C 0 km/h
1949 28-12-2009 06:02:04 3.1 C 4.79 g/m*3 3.1 C 0 km/h
1950 28-12-2009 06:14:04 3.1 C 4.91 g/m*3 3.1 C 0 km/h
Sensor: Nr:Datum:Temp:Abs-Feuchte:Windchill:Wind:
Aussen-T/F 1951 28-12-2009 06:26:04 3.1 C 4.91 g/m*3 3.1 C 0 km/h
1952 28-12-2009 06:38:04 3.1 C 4.91 g/m*3 3.1 C 0 km/h
1953 28-12-2009 06:50:04 3.1 C 4.91 g/m*3 3.1 C 0 km/h
1954 28-12-2009 07:02:05 3.2 C 4.88 g/m*3 3.2 C 0 km/h
1955 28-12-2009 07:14:05 3.2 C 4.88 g/m*3 3.2 C 0 km/h
1956 28-12-2009 07:26:05 3.2 C 4.82 g/m*3 3.2 C 0 km/h
1957 28-12-2009 07:38:05 3.2 C 4.76 g/m*3 3.2 C 0 km/h
1958 28-12-2009 07:50:05 3.3 C 4.79 g/m*3 3.3 C 0 km/h
1959 28-12-2009 08:02:05 3.3 C 4.79 g/m*3 3.3 C 0 km/h
1960 28-12-2009 08:14:05 3.3 C 4.79 g/m*3 3.3 C 0 km/h
1961 28-12-2009 08:26:05 3.5 C 4.8 g/m*3 3.5 C 0 km/h
1962 28-12-2009 08:38:05 3.5 C 4.73 g/m*3 3.5 C 0 km/h
1963 28-12-2009 08:50:05 3.5 C 4.67 g/m*3 3.5 C 0 km/h
1964 28-12-2009 09:02:02 3.5 C 4.67 g/m*3 3.5 C 0 km/h
1965 28-12-2009 09:14:02 3.5 C 4.61 g/m*3 3.5 C 0 km/h
1966 28-12-2009 09:26:03 3.7 C 4.49 g/m*3 3.7 C 0 km/h
1967 28-12-2009 09:38:02 3.7 C 4.49 g/m*3 3.7 C 0 km/h
1968 28-12-2009 09:50:02 3.8 C 4.52 g/m*3 3.8 C 0 km/h
1969 28-12-2009 10:02:02 3.8 C 4.45 g/m*3 3.8 C 0 km/h
1970 28-12-2009 10:14:02 3.9 C 4.42 g/m*3 3.9 C 0 km/h
1971 28-12-2009 10:26:02 3.9 C 4.42 g/m*3 3.9 C 0 km/h
1972 28-12-2009 10:38:02 4 C 4.26 g/m*3 4 C 0 km/h
1973 28-12-2009 10:50:02 3.8 C 4.27 g/m*3 3.8 C 0 km/h
1974 28-12-2009 11:02:01 4 C 4.2 g/m*3 4 C 0 km/h
1975 28-12-2009 11:14:01 4.1 C 4.22 g/m*3 4.1 C 0 km/h
Sensor: Nr:Datum:Temp:Abs-Feuchte:Windchill:Wind:
Aussen-T/F 1976 28-12-2009 11:26:02 3.9 C 4.29 g/m*3 3.9 C 0 km/h
1977 28-12-2009 11:38:02 3.7 C 4.36 g/m*3 3.7 C 0 km/h
1978 28-12-2009 11:50:02 3.7 C 4.36 g/m*3 3.7 C 0 km/h
1979 28-12-2009 12:02:03 4.3 C 4.48 g/m*3 4.3 C 0 km/h
1980 28-12-2009 12:14:03 4.7 C 4.46 g/m*3 4.7 C 0 km/h
1981 28-12-2009 12:26:02 4.9 C 4.32 g/m*3 4.9 C 0 km/h
1982 28-12-2009 12:38:02 4.9 C 4.39 g/m*3 4.9 C 0 km/h
1983 28-12-2009 12:50:02 4.9 C 4.39 g/m*3 4.9 C 0 km/h
1984 28-12-2009 13:02:02 5 C 4.28 g/m*3 5 C 0 km/h
1985 28-12-2009 13:14:02 5 C 4.28 g/m*3 5 C 0 km/h
1986 28-12-2009 13:26:01 5 C 4.28 g/m*3 5 C 0 km/h
1987 28-12-2009 13:38:02 5.1 C 4.24 g/m*3 5.1 C 0 km/h
1988 28-12-2009 13:50:02 4.9 C 4.32 g/m*3 4.9 C 0 km/h
1989 28-12-2009 14:02:02 4.8 C 4.29 g/m*3 4.8 C 0 km/h
1990 28-12-2009 14:14:02 4.9 C 4.25 g/m*3 4.9 C 0 km/h
1991 28-12-2009 14:26:01 4.7 C 4.13 g/m*3 4.7 C 0 km/h
1992 28-12-2009 14:38:02 4.7 C 4.13 g/m*3 4.7 C 0 km/h
1993 28-12-2009 14:50:02 4.7 C 4.13 g/m*3 4.7 C 0 km/h
1994 28-12-2009 15:02:02 4.6 C 4.17 g/m*3 4.6 C 0 km/h
1995 28-12-2009 15:14:02 4.5 C 4.21 g/m*3 4.5 C 0 km/h
1996 28-12-2009 15:26:01 4.5 C 4.27 g/m*3 4.5 C 0 km/h
1997 28-12-2009 15:38:02 4.5 C 4.27 g/m*3 4.5 C 0 km/h
1998 28-12-2009 15:50:01 4.5 C 4.21 g/m*3 4.5 C 0 km/h
1999 28-12-2009 16:02:02 4.4 C 4.11 g/m*3 4.4 C 0 km/h
2000 28-12-2009 16:14:02 4.4 C 4.18 g/m*3 4.4 C 0 km/h
Sensor: Nr:Datum:Temp:Abs-Feuchte:Windchill:Wind:
Aussen-T/F 2001 28-12-2009 16:26:02 4.3 C 4.15 g/m*3 4.3 C 0 km/h
2002 28-12-2009 16:38:02 4.2 C 4.19 g/m*3 4.2 C 0 km/h
2003 28-12-2009 16:50:02 4 C 4.2 g/m*3 4 C 0 km/h
2004 28-12-2009 17:02:01 3.9 C 4.36 g/m*3 3.9 C 0 km/h
2005 28-12-2009 17:14:01 3.8 C 4.39 g/m*3 3.8 C 0 km/h
2006 28-12-2009 17:26:02 3.7 C 4.36 g/m*3 3.7 C 0 km/h
2007 28-12-2009 17:38:01 3.7 C 4.36 g/m*3 3.7 C 0 km/h
2008 28-12-2009 17:50:02 3.5 C 4.3 g/m*3 3.5 C 0 km/h
2009 28-12-2009 18:02:01 3.4 C 4.34 g/m*3 3.4 C 0 km/h
2010 28-12-2009 18:14:01 3.3 C 4.37 g/m*3 3.3 C 0 km/h
2011 28-12-2009 18:26:01 3.4 C 4.46 g/m*3 3.4 C 0 km/h
2012 28-12-2009 18:38:01 3.4 C 4.46 g/m*3 3.4 C 0 km/h
2013 28-12-2009 18:50:02 3.4 C 4.4 g/m*3 3.4 C 0 km/h
2014 28-12-2009 19:02:01 3.3 C 4.43 g/m*3 3.3 C 0 km/h
2015 28-12-2009 19:14:01 3.1 C 4.31 g/m*3 3.1 C 0 km/h
2016 28-12-2009 19:26:02 2.9 C 4.37 g/m*3 2.9 C 0 km/h
2017 28-12-2009 19:38:02 2.6 C 4.28 g/m*3 2.6 C 0 km/h
2018 28-12-2009 19:50:01 2.1 C 4.2 g/m*3 2.1 C 0 km/h
2019 28-12-2009 20:02:02 1.6 C 4.16 g/m*3 1.6 C 0 km/h
2020 28-12-2009 20:14:02 1.3 C 4.13 g/m*3 1.3 C 0 km/h
2021 28-12-2009 20:26:01 1 C 4.15 g/m*3 1 C 0 km/h
2022 28-12-2009 20:38:02 0.9 C 4.23 g/m*3 0.9 C 0 km/h
2023 28-12-2009 20:50:02 0.5 C 4.11 g/m*3 0.5 C 0 km/h
2024 28-12-2009 21:02:02 0.4 C 4.13 g/m*3 0.4 C 0 km/h
2025 28-12-2009 21:14:02 0.5 C 4.21 g/m*3 0.5 C 0 km/h
Sensor: Nr:Datum:Temp:Abs-Feuchte:Windchill:Wind:
Aussen-T/F 2026 28-12-2009 21:26:01 0.3 C 4.16 g/m*3 0.3 C 0 km/h
2027 28-12-2009 21:38:02 0.1 C 4.1 g/m*3 0.1 C 0 km/h
2028 28-12-2009 21:50:02 -0.3 C 3.99 g/m*3 -0.3 C 0 km/h
2029 28-12-2009 22:02:02 -0.4 C 3.96 g/m*3 -0.4 C 0 km/h
2030 28-12-2009 22:14:02 -0.5 C 3.93 g/m*3 -0.5 C 0 km/h
2031 28-12-2009 22:26:02 -0.7 C 3.92 g/m*3 -0.7 C 0 km/h
2032 28-12-2009 22:38:02 -0.9 C 3.87 g/m*3 -0.9 C 0 km/h
2033 28-12-2009 22:51:03 -1 C 3.84 g/m*3 -1 C 0 km/h
2034 28-12-2009 23:03:03 -1.2 C 3.79 g/m*3 -1.2 C 0 km/h
2035 28-12-2009 23:15:03 -1.2 C 3.83 g/m*3 -1.2 C 0 km/h
2036 28-12-2009 23:27:03 -1.3 C 3.85 g/m*3 -1.3 C 0 km/h
2037 28-12-2009 23:39:03 -1.3 C 3.85 g/m*3 -1.3 C 0 km/h
2038 28-12-2009 23:51:03 -1.3 C 3.85 g/m*3 -1.3 C 0 km/h
2039 29-12-2009 00:03:03 -1.8 C 3.72 g/m*3 -1.8 C 0 km/h
2040 29-12-2009 00:15:03 -1.7 C 3.75 g/m*3 -1.7 C 0 km/h
2041 29-12-2009 00:27:03 -2 C 3.67 g/m*3 -2 C 0 km/h
2042 29-12-2009 00:39:03 -2 C 3.71 g/m*3 -2 C 0 km/h
2043 29-12-2009 00:51:03 -2.2 C 3.66 g/m*3 -2.2 C 0 km/h
2044 29-12-2009 01:03:03 -2.1 C 3.68 g/m*3 -2.1 C 0 km/h
2045 29-12-2009 01:15:03 -2.1 C 3.68 g/m*3 -2.1 C 0 km/h
2046 29-12-2009 01:27:03 -2.1 C 3.73 g/m*3 -2.1 C 0 km/h
2047 29-12-2009 01:39:03 -2.2 C 3.66 g/m*3 -2.2 C 0 km/h
2048 29-12-2009 01:51:03 -2.1 C 3.73 g/m*3 -2.1 C 0 km/h
2049 29-12-2009 02:03:03 -2.2 C 3.7 g/m*3 -2.2 C 0 km/h
2050 29-12-2009 02:15:03 -2.3 C 3.67 g/m*3 -2.3 C 0 km/h
Sensor: Nr:Datum:Temp:Abs-Feuchte:Windchill:Wind:
Aussen-T/F 2051 29-12-2009 02:27:03 -2.3 C 3.67 g/m*3 -2.3 C 0 km/h
2052 29-12-2009 02:39:03 -2.3 C 3.67 g/m*3 -2.3 C 0 km/h
2053 29-12-2009 02:51:04 -2.1 C 3.77 g/m*3 -2.1 C 0 km/h
2054 29-12-2009 03:03:04 -2 C 3.79 g/m*3 -2 C 0 km/h
2055 29-12-2009 03:15:04 -2.1 C 3.77 g/m*3 -2.1 C 0 km/h
2056 29-12-2009 03:27:04 -2.2 C 3.74 g/m*3 -2.2 C 0 km/h
2057 29-12-2009 03:39:04 -2.3 C 3.71 g/m*3 -2.3 C 0 km/h
2058 29-12-2009 03:51:04 -2.2 C 3.78 g/m*3 -2.2 C 0 km/h
2059 29-12-2009 04:03:04 -2.5 C 3.66 g/m*3 -2.5 C 0 km/h
2060 29-12-2009 04:15:04 -2.5 C 3.66 g/m*3 -2.5 C 0 km/h
2061 29-12-2009 04:27:04 -2.6 C 3.68 g/m*3 -2.6 C 0 km/h
2062 29-12-2009 04:39:04 -2.6 C 3.68 g/m*3 -2.6 C 0 km/h
2063 29-12-2009 04:51:04 -2.6 C 3.68 g/m*3 -2.6 C 0 km/h
2064 29-12-2009 05:03:04 -2.8 C 3.63 g/m*3 -2.8 C 0 km/h
2065 29-12-2009 05:15:04 -2.7 C 3.65 g/m*3 -2.7 C 0 km/h
2066 29-12-2009 05:27:04 -2.7 C 3.69 g/m*3 -2.7 C 0 km/h
2067 29-12-2009 05:39:04 -2.8 C 3.67 g/m*3 -2.8 C 0 km/h
2068 29-12-2009 05:51:04 -2.9 C 3.64 g/m*3 -2.9 C 0 km/h
2069 29-12-2009 06:03:04 -2.9 C 3.64 g/m*3 -2.9 C 0 km/h
2070 29-12-2009 06:15:04 -2.9 C 3.64 g/m*3 -2.9 C 0 km/h
2071 29-12-2009 06:27:04 -2.6 C 3.72 g/m*3 -2.6 C 0 km/h
2072 29-12-2009 06:39:04 -2.3 C 3.84 g/m*3 -2.3 C 0 km/h
2073 29-12-2009 06:51:04 -1.9 C 3.95 g/m*3 -1.9 C 0 km/h
2074 29-12-2009 07:03:04 -1.7 C 4.05 g/m*3 -1.7 C 0 km/h
2075 29-12-2009 07:15:05 -1.6 C 4.07 g/m*3 -1.6 C 0 km/h
Sensor: Nr:Datum:Temp:Abs-Feuchte:Windchill:Wind:
Aussen-T/F 2076 29-12-2009 07:27:05 -1.3 C 4.16 g/m*3 -1.3 C 0 km/h
2077 29-12-2009 07:39:02 -1.2 C 4.19 g/m*3 -1.2 C 0 km/h
2078 29-12-2009 07:51:01 -1.1 C 4.22 g/m*3 -1.1 C 0 km/h
2079 29-12-2009 08:03:01 -1.2 C 4.19 g/m*3 -1.2 C 0 km/h
2080 29-12-2009 08:15:02 -1 C 4.25 g/m*3 -1 C 0 km/h
2081 29-12-2009 08:27:02 -0.9 C 4.28 g/m*3 -0.9 C 0 km/h
2082 29-12-2009 08:39:02 -0.7 C 4.34 g/m*3 -0.7 C 0 km/h
2083 29-12-2009 08:51:02 -0.5 C 4.45 g/m*3 -0.5 C 0 km/h
2084 29-12-2009 09:03:02 -0.3 C 4.51 g/m*3 -0.3 C 0 km/h
2085 29-12-2009 09:15:02 -0.1 C 4.57 g/m*3 -0.1 C 0 km/h
2086 29-12-2009 09:27:02 0.1 C 4.63 g/m*3 0.1 C 0 km/h
2087 29-12-2009 09:39:02 0.3 C 4.7 g/m*3 0.3 C 0 km/h
2088 29-12-2009 09:51:01 0.4 C 4.68 g/m*3 0.4 C 0 km/h
2089 29-12-2009 10:03:02 0.6 C 4.75 g/m*3 0.6 C 0 km/h
2090 29-12-2009 10:15:02 0.7 C 4.78 g/m*3 0.7 C 0 km/h
2091 29-12-2009 10:27:02 1 C 4.83 g/m*3 1 C 0 km/h
2092 29-12-2009 10:39:02 1.3 C 4.87 g/m*3 1.3 C 0 km/h
2093 29-12-2009 10:51:01 1.4 C 4.91 g/m*3 1.4 C 0 km/h
2094 29-12-2009 11:03:02 1.6 C 4.92 g/m*3 1.6 C 0 km/h
2095 29-12-2009 11:15:02 1.8 C 4.93 g/m*3 1.8 C 0 km/h
2096 29-12-2009 11:27:02 1.8 C 4.88 g/m*3 1.8 C 0 km/h
2097 29-12-2009 11:39:01 1.9 C 4.86 g/m*3 1.9 C 0 km/h
2098 29-12-2009 11:51:02 2.2 C 4.9 g/m*3 2.2 C 0 km/h
2099 29-12-2009 12:03:01 2.3 C 4.82 g/m*3 2.3 C 0 km/h
2100 29-12-2009 12:15:01 2.2 C 4.79 g/m*3 2.2 C 0 km/h
Sensor: Nr:Datum:Temp:Abs-Feuchte:Windchill:Wind:
Aussen-T/F 2101 29-12-2009 12:27:02 2.3 C 4.82 g/m*3 2.3 C 0 km/h
2102 29-12-2009 12:39:01 2.3 C 4.88 g/m*3 2.3 C 0 km/h
2103 29-12-2009 12:51:02 2.3 C 4.88 g/m*3 2.3 C 0 km/h
2104 29-12-2009 13:03:02 2.3 C 4.93 g/m*3 2.3 C 0 km/h
2105 29-12-2009 13:15:02 2.2 C 4.96 g/m*3 2.2 C 0 km/h
2106 29-12-2009 13:27:02 2.1 C 4.92 g/m*3 2.1 C 0 km/h
2107 29-12-2009 13:39:02 1.9 C 4.91 g/m*3 1.9 C 0 km/h
2108 29-12-2009 13:51:02 1.8 C 4.93 g/m*3 1.8 C 0 km/h
2109 29-12-2009 14:03:02 1.8 C 4.93 g/m*3 1.8 C 0 km/h
2110 29-12-2009 14:15:01 1.8 C 4.93 g/m*3 1.8 C 0 km/h
2111 29-12-2009 14:27:01 1.8 C 4.99 g/m*3 1.8 C 0 km/h
2112 29-12-2009 14:39:02 1.9 C 5.08 g/m*3 1.9 C 0 km/h
2113 29-12-2009 14:51:02 1.9 C 5.08 g/m*3 1.9 C 0 km/h
2114 29-12-2009 15:03:02 2 C 5.06 g/m*3 2 C 0 km/h
2115 29-12-2009 15:15:01 2 C 5.11 g/m*3 2 C 0 km/h
2116 29-12-2009 15:27:01 1.9 C 5.13 g/m*3 1.9 C 0 km/h
2117 29-12-2009 15:39:02 1.9 C 5.13 g/m*3 1.9 C 0 km/h
2118 29-12-2009 15:51:02 1.9 C 5.13 g/m*3 1.9 C 0 km/h
2119 29-12-2009 16:03:02 1.9 C 5.13 g/m*3 1.9 C 0 km/h
2120 29-12-2009 16:15:02 1.9 C 5.13 g/m*3 1.9 C 0 km/h
2121 29-12-2009 16:27:02 1.8 C 5.15 g/m*3 1.8 C 0 km/h
2122 29-12-2009 16:39:02 1.8 C 5.15 g/m*3 1.8 C 0 km/h
2123 29-12-2009 16:51:01 1.9 C 5.19 g/m*3 1.9 C 0 km/h
2124 29-12-2009 17:03:02 1.9 C 5.19 g/m*3 1.9 C 0 km/h
2125 29-12-2009 17:15:01 2 C 5.22 g/m*3 2 C 0 km/h
Sensor: Nr:Datum:Temp:Abs-Feuchte:Windchill:Wind:
Aussen-T/F 2126 29-12-2009 17:27:01 2 C 5.28 g/m*3 2 C 0 km/h
2127 29-12-2009 17:39:01 2.1 C 5.31 g/m*3 2.1 C 0 km/h
2128 29-12-2009 17:51:02 2.1 C 5.31 g/m*3 2.1 C 0 km/h
2129 29-12-2009 18:03:02 2.1 C 5.31 g/m*3 2.1 C 0 km/h
2130 29-12-2009 18:15:01 2.2 C 5.35 g/m*3 2.2 C 0 km/h
2131 29-12-2009 18:27:01 2.2 C 5.35 g/m*3 2.2 C 0 km/h
2132 29-12-2009 18:39:02 2.2 C 5.35 g/m*3 2.2 C 0 km/h
2133 29-12-2009 18:51:02 2.4 C 5.42 g/m*3 2.4 C 0 km/h
2134 29-12-2009 19:03:02 2.3 C 5.39 g/m*3 2.3 C 0 km/h
2135 29-12-2009 19:15:01 2.4 C 5.42 g/m*3 2.4 C 0 km/h
2136 29-12-2009 19:27:01 2.4 C 5.42 g/m*3 2.4 C 0 km/h
2137 29-12-2009 19:39:02 2.4 C 5.42 g/m*3 2.4 C 0 km/h
2138 29-12-2009 19:51:02 2.4 C 5.42 g/m*3 2.4 C 0 km/h
2139 29-12-2009 20:03:02 2.4 C 5.42 g/m*3 2.4 C 0 km/h
2140 29-12-2009 20:15:02 2.4 C 5.42 g/m*3 2.4 C 0 km/h
2141 29-12-2009 20:27:02 2.4 C 5.42 g/m*3 2.4 C 0 km/h
2142 29-12-2009 20:39:02 2.4 C 5.42 g/m*3 2.4 C 0 km/h
2143 29-12-2009 20:51:02 2.4 C 5.42 g/m*3 2.4 C 0 km/h
2144 29-12-2009 21:03:02 2.4 C 5.42 g/m*3 2.4 C 0 km/h
2145 29-12-2009 21:15:03 2.5 C 5.46 g/m*3 2.5 C 0 km/h
2146 29-12-2009 21:27:03 2.5 C 5.46 g/m*3 2.5 C 0 km/h
2147 29-12-2009 21:39:02 2.5 C 5.46 g/m*3 2.5 C 0 km/h
2148 29-12-2009 21:51:02 2.5 C 5.46 g/m*3 2.5 C 0 km/h
2149 29-12-2009 22:03:02 2.5 C 5.46 g/m*3 2.5 C 0 km/h
2150 29-12-2009 22:15:02 2.5 C 5.46 g/m*3 2.5 C 0 km/h
Sensor: Nr:Datum:Temp:Abs-Feuchte:Windchill:Wind:
Aussen-T/F 2151 29-12-2009 22:27:02 2.5 C 5.46 g/m*3 2.5 C 0 km/h
2152 29-12-2009 22:39:02 2.5 C 5.46 g/m*3 2.5 C 0 km/h
2153 29-12-2009 22:51:02 2.6 C 5.5 g/m*3 2.6 C 0 km/h
2154 29-12-2009 23:04:51 2.6 C 5.5 g/m*3 2.6 C 0 km/h
2155 29-12-2009 23:16:51 2.7 C 5.54 g/m*3 2.7 C 0 km/h
2156 29-12-2009 23:28:51 2.7 C 5.54 g/m*3 2.7 C 0 km/h
2157 29-12-2009 23:40:51 2.8 C 5.57 g/m*3 2.8 C 0 km/h
2158 29-12-2009 23:52:51 2.8 C 5.57 g/m*3 2.8 C 0 km/h
2159 30-12-2009 00:04:51 2.7 C 5.54 g/m*3 2.7 C 0 km/h
2160 30-12-2009 00:16:51 2.9 C 5.61 g/m*3 2.9 C 0 km/h
2161 30-12-2009 00:28:51 3.7 C 5.92 g/m*3 3.7 C 0 km/h
2162 30-12-2009 00:40:51 3.7 C 5.92 g/m*3 3.7 C 0 km/h
2163 30-12-2009 00:52:51 3.5 C 5.84 g/m*3 3.5 C 0 km/h
2164 30-12-2009 01:04:51 3.1 C 5.69 g/m*3 3.1 C 0 km/h
2165 30-12-2009 01:16:51 3.1 C 5.69 g/m*3 3.1 C 0 km/h
2166 30-12-2009 01:28:51 3.1 C 5.69 g/m*3 3.1 C 0 km/h
2167 30-12-2009 01:40:51 3.2 C 5.72 g/m*3 3.2 C 0 km/h
2168 30-12-2009 01:52:51 3.2 C 5.72 g/m*3 3.2 C 0 km/h
2169 30-12-2009 02:04:51 3.2 C 5.72 g/m*3 3.2 C 0 km/h
2170 30-12-2009 02:16:51 3.3 C 5.76 g/m*3 3.3 C 0 km/h
2171 30-12-2009 02:28:51 3.4 C 5.8 g/m*3 3.4 C 0 km/h
2172 30-12-2009 02:40:51 3.4 C 5.8 g/m*3 3.4 C 0 km/h
2173 30-12-2009 02:52:51 3.4 C 5.8 g/m*3 3.4 C 0 km/h
2174 30-12-2009 03:04:51 3.8 C 5.96 g/m*3 3.8 C 0 km/h
2175 30-12-2009 03:16:51 4 C 6.04 g/m*3 4 C 0 km/h
Sensor: Nr:Datum:Temp:Abs-Feuchte:Windchill:Wind:
Aussen-T/F 2176 30-12-2009 03:28:52 5.2 C 6.54 g/m*3 5.2 C 0 km/h
2177 30-12-2009 03:40:52 5.2 C 6.54 g/m*3 5.2 C 0 km/h
2178 30-12-2009 03:52:52 5.9 C 6.85 g/m*3 5.9 C 0 km/h
2179 30-12-2009 04:04:52 5.3 C 6.58 g/m*3 5.3 C 0 km/h
2180 30-12-2009 04:16:52 4.7 C 6.33 g/m*3 4.7 C 0 km/h
2181 30-12-2009 04:28:52 4.8 C 6.37 g/m*3 4.8 C 0 km/h
2182 30-12-2009 04:40:52 4.8 C 6.37 g/m*3 4.8 C 0 km/h
2183 30-12-2009 04:52:52 4.6 C 6.29 g/m*3 4.6 C 0 km/h
2184 30-12-2009 05:04:52 5.2 C 6.54 g/m*3 5.2 C 0 km/h
2185 30-12-2009 05:16:52 4.8 C 6.37 g/m*3 4.8 C 0 km/h
2186 30-12-2009 05:28:52 5.1 C 6.5 g/m*3 5.1 C 0 km/h
2187 30-12-2009 05:40:52 5.2 C 6.54 g/m*3 5.2 C 0 km/h
2188 30-12-2009 05:52:52 4.9 C 6.41 g/m*3 4.9 C 0 km/h
2189 30-12-2009 06:04:52 4.8 C 6.37 g/m*3 4.8 C 0 km/h
2190 30-12-2009 06:16:52 4.8 C 6.37 g/m*3 4.8 C 0 km/h
2191 30-12-2009 06:28:52 5.8 C 6.81 g/m*3 5.8 C 0 km/h
2192 30-12-2009 06:40:52 5.7 C 6.76 g/m*3 5.7 C 0 km/h
2193 30-12-2009 06:52:52 5.5 C 6.67 g/m*3 5.5 C 0 km/h
2194 30-12-2009 07:04:52 6.4 C 7.08 g/m*3 6.4 C 0 km/h
2195 30-12-2009 07:16:52 5.9 C 6.85 g/m*3 5.9 C 0 km/h
2196 30-12-2009 07:28:52 6 C 6.9 g/m*3 6 C 0 km/h
2197 30-12-2009 07:40:52 6.4 C 7.08 g/m*3 6.4 C 0 km/h
2198 30-12-2009 07:52:53 5.9 C 6.85 g/m*3 5.9 C 0 km/h
2199 30-12-2009 08:04:53 5.6 C 6.72 g/m*3 5.6 C 0 km/h
2200 30-12-2009 08:16:53 5.8 C 6.81 g/m*3 5.8 C 0 km/h
Sensor: Nr:Datum:Temp:Abs-Feuchte:Windchill:Wind:
Aussen-T/F 2201 30-12-2009 08:28:02 6.1 C 6.94 g/m*3 6.1 C 0 km/h
2202 30-12-2009 08:40:03 6.5 C 7.12 g/m*3 6.5 C 0 km/h
2203 30-12-2009 08:52:02 6.5 C 7.12 g/m*3 6.5 C 0 km/h
2204 30-12-2009 09:04:02 6.4 C 7.08 g/m*3 6.4 C 0 km/h
2205 30-12-2009 09:16:02 6.9 C 7.31 g/m*3 6.9 C 0 km/h
2206 30-12-2009 09:28:02 7.2 C 7.46 g/m*3 7.2 C 0 km/h
2207 30-12-2009 09:40:03 7.3 C 7.51 g/m*3 7.3 C 0 km/h
2208 30-12-2009 09:52:03 7.3 C 7.51 g/m*3 7.3 C 0 km/h
2209 30-12-2009 10:04:02 7.8 C 7.75 g/m*3 7.8 C 0 km/h
2210 30-12-2009 10:16:03 7.5 C 7.6 g/m*3 7.5 C 0 km/h
2211 30-12-2009 10:28:03 7.3 C 7.51 g/m*3 7.3 C 0 km/h
2212 30-12-2009 10:40:03 7.2 C 7.46 g/m*3 7.2 C 0 km/h
2213 30-12-2009 10:52:02 7.6 C 7.65 g/m*3 7.6 C 0 km/h
2214 30-12-2009 11:04:02 7.8 C 7.75 g/m*3 7.8 C 0 km/h
2215 30-12-2009 11:16:02 7.8 C 7.75 g/m*3 7.8 C 0 km/h
2216 30-12-2009 11:28:02 7.7 C 7.7 g/m*3 7.7 C 0 km/h
2217 30-12-2009 11:40:02 7.9 C 7.8 g/m*3 7.9 C 0 km/h
2218 30-12-2009 11:52:02 7.8 C 7.75 g/m*3 7.8 C 0 km/h
2219 30-12-2009 12:04:02 7.7 C 7.7 g/m*3 7.7 C 0 km/h
2220 30-12-2009 12:16:02 8 C 7.85 g/m*3 8 C 0 km/h
2221 30-12-2009 12:28:02 7.9 C 7.8 g/m*3 7.9 C 0 km/h
2222 30-12-2009 12:40:02 8.1 C 7.9 g/m*3 8.1 C 0 km/h
2223 30-12-2009 12:52:02 8.6 C 8.16 g/m*3 8.6 C 0 km/h
2224 30-12-2009 13:04:02 8.9 C 8.32 g/m*3 8.9 C 0 km/h
2225 30-12-2009 13:16:02 9.2 C 8.48 g/m*3 9.2 C 0 km/h
Sensor: Nr:Datum:Temp:Abs-Feuchte:Windchill:Wind:
Aussen-T/F 2226 30-12-2009 13:28:02 9.2 C 8.48 g/m*3 9.2 C 0 km/h
2227 30-12-2009 13:40:02 9.4 C 8.59 g/m*3 9.4 C 0 km/h
2228 30-12-2009 13:52:02 9.3 C 8.54 g/m*3 9.3 C 0 km/h
2229 30-12-2009 14:04:02 9.4 C 8.59 g/m*3 9.4 C 0 km/h
2230 30-12-2009 14:16:02 9.4 C 8.59 g/m*3 9.4 C 0 km/h
2231 30-12-2009 14:28:02 9.4 C 8.59 g/m*3 9.4 C 0 km/h
2232 30-12-2009 14:40:02 9.4 C 8.59 g/m*3 9.4 C 0 km/h
2233 30-12-2009 14:52:02 9.3 C 8.54 g/m*3 9.3 C 0 km/h
2234 30-12-2009 15:04:02 9.3 C 8.54 g/m*3 9.3 C 0 km/h
2235 30-12-2009 15:16:02 9.3 C 8.54 g/m*3 9.3 C 0 km/h
2236 30-12-2009 15:28:03 9.3 C 8.54 g/m*3 9.3 C 0 km/h
2237 30-12-2009 15:40:01 9.2 C 8.48 g/m*3 9.2 C 0 km/h
2238 30-12-2009 15:52:02 9.3 C 8.54 g/m*3 9.3 C 0 km/h
2239 30-12-2009 16:04:01 9.2 C 8.48 g/m*3 9.2 C 0 km/h
2240 30-12-2009 16:16:02 9.2 C 8.48 g/m*3 9.2 C 0 km/h
2241 30-12-2009 16:28:02 9.1 C 8.43 g/m*3 9.1 C 0 km/h
2242 30-12-2009 16:40:02 9 C 8.38 g/m*3 9 C 0 km/h
2243 30-12-2009 16:52:02 9 C 8.38 g/m*3 9 C 0 km/h
2244 30-12-2009 17:04:02 8.8 C 8.27 g/m*3 8.8 C 0 km/h
2245 30-12-2009 17:16:02 8.6 C 8.16 g/m*3 8.6 C 0 km/h
2246 30-12-2009 17:28:02 8.6 C 8.16 g/m*3 8.6 C 0 km/h
2247 30-12-2009 17:40:02 8.6 C 8.08 g/m*3 8.6 C 0 km/h
2248 30-12-2009 17:52:02 8.5 C 8.03 g/m*3 8.5 C 0 km/h
2249 30-12-2009 18:04:02 8.6 C 8.08 g/m*3 8.6 C 0 km/h
2250 30-12-2009 18:16:01 8.5 C 8.03 g/m*3 8.5 C 0 km/h
Sensor: Nr:Datum:Temp:Abs-Feuchte:Windchill:Wind:
Aussen-T/F 2251 30-12-2009 18:28:01 8.4 C 7.97 g/m*3 8.4 C 0 km/h
2252 30-12-2009 18:40:02 8.4 C 7.97 g/m*3 8.4 C 0 km/h
2253 30-12-2009 18:52:02 8.4 C 7.89 g/m*3 8.4 C 0 km/h
2254 30-12-2009 19:04:02 8.5 C 7.94 g/m*3 8.5 C 0 km/h
2255 30-12-2009 19:16:02 8.6 C 7.91 g/m*3 8.6 C 0 km/h
2256 30-12-2009 19:28:02 8.6 C 7.82 g/m*3 8.6 C 0 km/h
2257 30-12-2009 19:40:02 8.5 C 7.77 g/m*3 8.5 C 0 km/h
2258 30-12-2009 19:52:02 8.5 C 7.77 g/m*3 8.5 C 0 km/h
2259 30-12-2009 20:04:02 8.7 C 7.78 g/m*3 8.7 C 0 km/h
2260 30-12-2009 20:16:02 8.8 C 7.66 g/m*3 8.8 C 0 km/h
2261 30-12-2009 20:28:02 8.9 C 7.62 g/m*3 8.9 C 0 km/h
2262 30-12-2009 20:40:02 8.9 C 7.53 g/m*3 8.9 C 0 km/h
2263 30-12-2009 20:52:01 8.7 C 7.52 g/m*3 8.7 C 0 km/h
2264 30-12-2009 21:04:01 8.5 C 7.51 g/m*3 8.5 C 0 km/h
2265 30-12-2009 21:16:01 8.5 C 7.51 g/m*3 8.5 C 0 km/h
2266 30-12-2009 21:28:01 8.5 C 7.51 g/m*3 8.5 C 0 km/h
2267 30-12-2009 21:40:01 8.5 C 7.51 g/m*3 8.5 C 0 km/h
2268 30-12-2009 21:52:01 8.6 C 7.56 g/m*3 8.6 C 0 km/h
2269 30-12-2009 22:04:02 8.6 C 7.48 g/m*3 8.6 C 0 km/h
2270 30-12-2009 22:16:01 8.7 C 7.44 g/m*3 8.7 C 0 km/h
2271 30-12-2009 22:28:01 8.8 C 7.4 g/m*3 8.8 C 0 km/h
2272 30-12-2009 22:40:02 8.9 C 7.36 g/m*3 8.9 C 0 km/h
2273 30-12-2009 22:52:02 8.9 C 7.36 g/m*3 8.9 C 0 km/h
2274 30-12-2009 23:04:01 8.8 C 7.31 g/m*3 8.8 C 0 km/h
2275 30-12-2009 23:16:01 8.6 C 7.39 g/m*3 8.6 C 0 km/h
Sensor: Nr:Datum:Temp:Abs-Feuchte:Windchill:Wind:
Aussen-T/F 2276 30-12-2009 23:28:01 8.2 C 7.37 g/m*3 8.2 C 0 km/h
2277 30-12-2009 23:40:01 8 C 7.44 g/m*3 8 C 0 km/h
2278 30-12-2009 23:52:01 7.9 C 7.56 g/m*3 7.9 C 0 km/h
2279 31-12-2009 00:04:01 7.9 C 7.56 g/m*3 7.9 C 0 km/h
2280 31-12-2009 00:16:01 7.8 C 7.59 g/m*3 7.8 C 0 km/h
2281 31-12-2009 00:28:01 7.8 C 7.59 g/m*3 7.8 C 0 km/h
2282 31-12-2009 00:40:01 7.7 C 7.54 g/m*3 7.7 C 0 km/h
2283 31-12-2009 00:52:01 7.6 C 7.57 g/m*3 7.6 C 0 km/h
2284 31-12-2009 01:04:01 7.6 C 7.57 g/m*3 7.6 C 0 km/h
2285 31-12-2009 01:16:01 7.6 C 7.57 g/m*3 7.6 C 0 km/h
2286 31-12-2009 01:28:02 7.6 C 7.65 g/m*3 7.6 C 0 km/h
2287 31-12-2009 01:40:02 7.6 C 7.65 g/m*3 7.6 C 0 km/h
2288 31-12-2009 01:52:02 7.6 C 7.65 g/m*3 7.6 C 0 km/h
2289 31-12-2009 02:04:02 7.5 C 7.6 g/m*3 7.5 C 0 km/h
2290 31-12-2009 02:16:02 7.6 C 7.65 g/m*3 7.6 C 0 km/h
2291 31-12-2009 02:28:02 7.4 C 7.55 g/m*3 7.4 C 0 km/h
2292 31-12-2009 02:40:01 7.5 C 7.6 g/m*3 7.5 C 0 km/h
2293 31-12-2009 02:52:01 7.6 C 7.65 g/m*3 7.6 C 0 km/h
2294 31-12-2009 03:04:01 7.6 C 7.65 g/m*3 7.6 C 0 km/h
2295 31-12-2009 03:16:02 7.6 C 7.65 g/m*3 7.6 C 0 km/h
2296 31-12-2009 03:28:02 7.5 C 7.6 g/m*3 7.5 C 0 km/h
2297 31-12-2009 03:40:01 7.5 C 7.6 g/m*3 7.5 C 0 km/h
2298 31-12-2009 03:52:01 7.4 C 7.55 g/m*3 7.4 C 0 km/h
2299 31-12-2009 04:04:02 7.3 C 7.51 g/m*3 7.3 C 0 km/h
2300 31-12-2009 04:16:01 7.1 C 7.41 g/m*3 7.1 C 0 km/h
Sensor: Nr:Datum:Temp:Abs-Feuchte:Windchill:Wind:
Aussen-T/F 2301 31-12-2009 04:28:01 7 C 7.36 g/m*3 7 C 0 km/h
2302 31-12-2009 04:40:02 7 C 7.36 g/m*3 7 C 0 km/h
2303 31-12-2009 04:52:01 7 C 7.36 g/m*3 7 C 0 km/h
2304 31-12-2009 05:04:02 7.1 C 7.41 g/m*3 7.1 C 0 km/h
2305 31-12-2009 05:16:01 7.1 C 7.41 g/m*3 7.1 C 0 km/h
2306 31-12-2009 05:28:01 7 C 7.36 g/m*3 7 C 0 km/h
2307 31-12-2009 05:40:01 7 C 7.36 g/m*3 7 C 0 km/h
2308 31-12-2009 05:52:01 7 C 7.36 g/m*3 7 C 0 km/h
2309 31-12-2009 06:04:02 6.9 C 7.31 g/m*3 6.9 C 0 km/h
2310 31-12-2009 06:16:01 6.7 C 7.22 g/m*3 6.7 C 0 km/h
2311 31-12-2009 06:28:01 6.7 C 7.22 g/m*3 6.7 C 0 km/h
2312 31-12-2009 06:40:01 6.6 C 7.17 g/m*3 6.6 C 0 km/h
2313 31-12-2009 06:52:01 6.6 C 7.17 g/m*3 6.6 C 0 km/h
2314 31-12-2009 07:04:01 6.7 C 7.22 g/m*3 6.7 C 0 km/h
2315 31-12-2009 07:16:01 6.6 C 7.17 g/m*3 6.6 C 0 km/h
2316 31-12-2009 07:28:01 6.7 C 7.22 g/m*3 6.7 C 0 km/h
2317 31-12-2009 07:40:01 6.6 C 7.17 g/m*3 6.6 C 0 km/h
2318 31-12-2009 07:52:01 6.6 C 7.17 g/m*3 6.6 C 0 km/h
2319 31-12-2009 08:04:01 6.6 C 7.17 g/m*3 6.6 C 0 km/h
2320 31-12-2009 08:16:02 6.6 C 7.17 g/m*3 6.6 C 0 km/h
2321 31-12-2009 08:28:02 6.6 C 7.17 g/m*3 6.6 C 0 km/h
2322 31-12-2009 08:40:01 6.6 C 7.17 g/m*3 6.6 C 0 km/h
2323 31-12-2009 08:52:02 6.6 C 7.17 g/m*3 6.6 C 0 km/h
2324 31-12-2009 09:04:01 6.6 C 7.17 g/m*3 6.6 C 0 km/h
2325 31-12-2009 09:16:02 6.6 C 7.17 g/m*3 6.6 C 0 km/h
Sensor: Nr:Datum:Temp:Abs-Feuchte:Windchill:Wind:
Aussen-T/F 2326 31-12-2009 09:28:02 6.7 C 7.22 g/m*3 6.7 C 0 km/h
2327 31-12-2009 09:40:01 6.7 C 7.22 g/m*3 6.7 C 0 km/h
2328 31-12-2009 09:52:02 6.7 C 7.22 g/m*3 6.7 C 0 km/h
2329 31-12-2009 10:04:01 6.7 C 7.22 g/m*3 6.7 C 0 km/h
2330 31-12-2009 10:16:02 6.8 C 7.27 g/m*3 6.8 C 0 km/h
2331 31-12-2009 10:28:02 6.8 C 7.27 g/m*3 6.8 C 0 km/h
2332 31-12-2009 10:40:01 7 C 7.36 g/m*3 7 C 0 km/h
2333 31-12-2009 10:52:02 7.3 C 7.51 g/m*3 7.3 C 0 km/h
2334 31-12-2009 11:04:01 7.4 C 7.55 g/m*3 7.4 C 0 km/h
2335 31-12-2009 11:16:01 7.5 C 7.6 g/m*3 7.5 C 0 km/h
2336 31-12-2009 11:28:01 7.5 C 7.6 g/m*3 7.5 C 0 km/h
2337 31-12-2009 11:40:01 7.4 C 7.55 g/m*3 7.4 C 0 km/h
2338 31-12-2009 11:52:02 7.5 C 7.6 g/m*3 7.5 C 0 km/h
2339 31-12-2009 12:04:01 7.4 C 7.55 g/m*3 7.4 C 0 km/h
2340 31-12-2009 12:16:01 7.4 C 7.55 g/m*3 7.4 C 0 km/h
2341 31-12-2009 12:28:01 7.4 C 7.55 g/m*3 7.4 C 0 km/h
2342 31-12-2009 12:40:02 7.4 C 7.55 g/m*3 7.4 C 0 km/h
2343 31-12-2009 12:52:01 7.2 C 7.46 g/m*3 7.2 C 0 km/h
2344 31-12-2009 13:04:01 7.1 C 7.41 g/m*3 7.1 C 0 km/h
2345 31-12-2009 13:16:02 7 C 7.36 g/m*3 7 C 0 km/h
2346 31-12-2009 13:28:02 7.1 C 7.41 g/m*3 7.1 C 0 km/h
2347 31-12-2009 13:40:01 7.1 C 7.41 g/m*3 7.1 C 0 km/h
2348 31-12-2009 13:52:01 7.2 C 7.46 g/m*3 7.2 C 0 km/h
2349 31-12-2009 14:04:01 6.7 C 7.22 g/m*3 6.7 C 0 km/h
2350 31-12-2009 14:16:02 6.5 C 7.12 g/m*3 6.5 C 0 km/h
Sensor: Nr:Datum:Temp:Abs-Feuchte:Windchill:Wind:
Aussen-T/F 2351 31-12-2009 14:28:02 6.3 C 7.03 g/m*3 6.3 C 0 km/h
2352 31-12-2009 14:40:01 6.1 C 6.94 g/m*3 6.1 C 0 km/h
2353 31-12-2009 14:52:02 5.9 C 6.85 g/m*3 5.9 C 0 km/h
2354 31-12-2009 15:04:01 5.9 C 6.85 g/m*3 5.9 C 0 km/h
2355 31-12-2009 15:16:02 5.6 C 6.72 g/m*3 5.6 C 0 km/h
2356 31-12-2009 15:28:02 5 C 6.46 g/m*3 5 C 0 km/h
2357 31-12-2009 15:40:01 5.1 C 6.5 g/m*3 5.1 C 0 km/h
2358 31-12-2009 15:52:02 4.6 C 6.29 g/m*3 4.6 C 0 km/h
2359 31-12-2009 16:04:01 4.2 C 6.12 g/m*3 4.2 C 0 km/h
2360 31-12-2009 16:16:01 3.9 C 6 g/m*3 3.9 C 0 km/h
2361 31-12-2009 16:28:02 3.7 C 5.92 g/m*3 3.7 C 0 km/h
2362 31-12-2009 16:40:01 3.4 C 5.8 g/m*3 3.4 C 0 km/h
2363 31-12-2009 16:52:01 3.3 C 5.76 g/m*3 3.3 C 0 km/h
2364 31-12-2009 17:05:02 3.2 C 5.66 g/m*3 3.2 C 0 km/h
2365 31-12-2009 17:17:02 2.9 C 5.55 g/m*3 2.9 C 0 km/h
2366 31-12-2009 17:29:02 2.9 C 5.55 g/m*3 2.9 C 0 km/h
2367 31-12-2009 17:41:02 2.7 C 5.48 g/m*3 2.7 C 0 km/h
2368 31-12-2009 17:53:02 2.8 C 5.51 g/m*3 2.8 C 0 km/h
2369 31-12-2009 18:05:02 2.8 C 5.51 g/m*3 2.8 C 0 km/h
2370 31-12-2009 18:17:02 2.7 C 5.48 g/m*3 2.7 C 0 km/h
2371 31-12-2009 18:29:02 2.7 C 5.54 g/m*3 2.7 C 0 km/h
2372 31-12-2009 18:41:02 2.7 C 5.54 g/m*3 2.7 C 0 km/h
2373 31-12-2009 18:53:02 2.6 C 5.5 g/m*3 2.6 C 0 km/h
2374 31-12-2009 19:05:02 2.5 C 5.46 g/m*3 2.5 C 0 km/h
2375 31-12-2009 19:17:02 2.3 C 5.39 g/m*3 2.3 C 0 km/h
Sensor: Nr:Datum:Temp:Abs-Feuchte:Windchill:Wind:
Aussen-T/F 2376 31-12-2009 19:29:02 2.1 C 5.31 g/m*3 2.1 C 0 km/h
2377 31-12-2009 19:41:02 2 C 5.28 g/m*3 2 C 0 km/h
2378 31-12-2009 19:53:03 2.1 C 5.31 g/m*3 2.1 C 0 km/h
2379 31-12-2009 20:05:03 1.9 C 5.24 g/m*3 1.9 C 0 km/h
2380 31-12-2009 20:17:03 1.8 C 5.21 g/m*3 1.8 C 0 km/h
2381 31-12-2009 20:29:03 1.8 C 5.21 g/m*3 1.8 C 0 km/h
2382 31-12-2009 20:41:03 1.8 C 5.21 g/m*3 1.8 C 0 km/h
2383 31-12-2009 20:53:03 1.8 C 5.21 g/m*3 1.8 C 0 km/h
2384 31-12-2009 21:05:03 1.6 C 5.14 g/m*3 1.6 C 0 km/h
2385 31-12-2009 21:17:03 1.5 C 5.1 g/m*3 1.5 C 0 km/h
2386 31-12-2009 21:29:03 1.3 C 5.03 g/m*3 1.3 C 0 km/h
2387 31-12-2009 21:41:03 1.2 C 5 g/m*3 1.2 C 0 km/h
2388 31-12-2009 21:53:03 1.3 C 5.03 g/m*3 1.3 C 0 km/h
2389 31-12-2009 22:05:03 1.3 C 5.03 g/m*3 1.3 C 0 km/h
2390 31-12-2009 22:17:03 1.3 C 5.03 g/m*3 1.3 C 0 km/h
2391 31-12-2009 22:29:03 0.9 C 4.9 g/m*3 0.9 C 0 km/h
2392 31-12-2009 22:41:03 0.8 C 4.86 g/m*3 0.8 C 0 km/h
2393 31-12-2009 22:53:03 0.7 C 4.83 g/m*3 0.7 C 0 km/h
2394 31-12-2009 23:05:03 0.6 C 4.8 g/m*3 0.6 C 0 km/h
2395 31-12-2009 23:17:03 0.6 C 4.8 g/m*3 0.6 C 0 km/h
2396 31-12-2009 23:29:03 0.6 C 4.8 g/m*3 0.6 C 0 km/h
2397 31-12-2009 23:41:03 0.7 C 4.83 g/m*3 0.7 C 0 km/h
2398 31-12-2009 23:53:03 0.7 C 4.83 g/m*3 0.7 C 0 km/h
2399 01-01-2010 00:05:04 0.8 C 4.86 g/m*3 0.8 C 0 km/h
2400 01-01-2010 00:17:04 0.8 C 4.86 g/m*3 0.8 C 0 km/h
Sensor: Nr:Datum:Temp:Abs-Feuchte:Windchill:Wind:
Aussen-T/F 2401 01-01-2010 00:29:04 0.8 C 4.86 g/m*3 0.8 C 0 km/h
2402 01-01-2010 00:41:04 0.8 C 4.86 g/m*3 0.8 C 0 km/h
2403 01-01-2010 00:53:04 0.8 C 4.86 g/m*3 0.8 C 0 km/h
2404 01-01-2010 01:05:04 0.7 C 4.83 g/m*3 0.7 C 0 km/h
2405 01-01-2010 01:17:04 0.5 C 4.76 g/m*3 0.5 C 0 km/h
2406 01-01-2010 01:29:04 0.5 C 4.76 g/m*3 0.5 C 0 km/h
2407 01-01-2010 01:41:04 0.4 C 4.73 g/m*3 0.4 C 0 km/h
2408 01-01-2010 01:53:04 0.5 C 4.76 g/m*3 0.5 C 0 km/h
2409 01-01-2010 02:05:04 0.4 C 4.73 g/m*3 0.4 C 0 km/h
2410 01-01-2010 02:17:04 0.4 C 4.73 g/m*3 0.4 C 0 km/h
2411 01-01-2010 02:29:04 0.3 C 4.7 g/m*3 0.3 C 0 km/h
2412 01-01-2010 02:41:04 0.3 C 4.7 g/m*3 0.3 C 0 km/h
2413 01-01-2010 02:53:04 0.3 C 4.7 g/m*3 0.3 C 0 km/h
2414 01-01-2010 03:05:04 0.3 C 4.7 g/m*3 0.3 C 0 km/h
2415 01-01-2010 03:17:04 0.3 C 4.7 g/m*3 0.3 C 0 km/h
2416 01-01-2010 03:29:04 0.3 C 4.7 g/m*3 0.3 C 0 km/h
2417 01-01-2010 03:41:04 0.3 C 4.7 g/m*3 0.3 C 0 km/h
2418 01-01-2010 03:53:04 0.3 C 4.7 g/m*3 0.3 C 0 km/h
2419 01-01-2010 04:05:05 0.2 C 4.67 g/m*3 0.2 C 0 km/h
2420 01-01-2010 04:17:05 0.3 C 4.7 g/m*3 0.3 C 0 km/h
2421 01-01-2010 04:29:05 0.3 C 4.7 g/m*3 0.3 C 0 km/h
2422 01-01-2010 04:41:05 0.2 C 4.67 g/m*3 0.2 C 0 km/h
2423 01-01-2010 04:53:05 0.3 C 4.7 g/m*3 0.3 C 0 km/h
2424 01-01-2010 05:05:05 0.2 C 4.67 g/m*3 0.2 C 0 km/h
2425 01-01-2010 05:17:05 0.2 C 4.67 g/m*3 0.2 C 0 km/h
Sensor: Nr:Datum:Temp:Abs-Feuchte:Windchill:Wind:
Aussen-T/F 2426 01-01-2010 05:29:05 0.2 C 4.67 g/m*3 0.2 C 0 km/h
2427 01-01-2010 05:41:05 0.2 C 4.67 g/m*3 0.2 C 0 km/h
2428 01-01-2010 05:53:05 0.2 C 4.67 g/m*3 0.2 C 0 km/h
2429 01-01-2010 06:05:05 0.1 C 4.63 g/m*3 0.1 C 0 km/h
2430 01-01-2010 06:17:05 0.1 C 4.63 g/m*3 0.1 C 0 km/h
2431 01-01-2010 06:29:05 0.1 C 4.63 g/m*3 0.1 C 0 km/h
2432 01-01-2010 06:41:05 0.1 C 4.63 g/m*3 0.1 C 0 km/h
2433 01-01-2010 06:53:05 0.2 C 4.67 g/m*3 0.2 C 0 km/h
2434 01-01-2010 07:05:05 0.1 C 4.63 g/m*3 0.1 C 0 km/h
2435 01-01-2010 07:17:05 0.1 C 4.63 g/m*3 0.1 C 0 km/h
2436 01-01-2010 07:29:05 0.1 C 4.63 g/m*3 0.1 C 0 km/h
2437 01-01-2010 07:41:05 0.1 C 4.63 g/m*3 0.1 C 0 km/h
2438 01-01-2010 07:53:05 0.1 C 4.59 g/m*3 0.1 C 0 km/h
2439 01-01-2010 08:05:06 0.1 C 4.59 g/m*3 0.1 C 0 km/h
2440 01-01-2010 08:17:06 0.2 C 4.62 g/m*3 0.2 C 0 km/h
2441 01-01-2010 08:29:06 0.1 C 4.59 g/m*3 0.1 C 0 km/h
2442 01-01-2010 08:41:06 0.1 C 4.59 g/m*3 0.1 C 0 km/h
2443 01-01-2010 08:53:06 0.1 C 4.59 g/m*3 0.1 C 0 km/h
2444 01-01-2010 09:05:06 0.1 C 4.59 g/m*3 0.1 C 0 km/h
2445 01-01-2010 09:17:06 -0.1 C 4.52 g/m*3 -0.1 C 0 km/h
2446 01-01-2010 09:29:06 -0.1 C 4.52 g/m*3 -0.1 C 0 km/h
2447 01-01-2010 09:41:06 -0.1 C 4.52 g/m*3 -0.1 C 0 km/h
2448 01-01-2010 09:53:06 -0.1 C 4.52 g/m*3 -0.1 C 0 km/h
2449 01-01-2010 10:05:06 -0.1 C 4.52 g/m*3 -0.1 C 0 km/h
2450 01-01-2010 10:17:06 -0.1 C 4.52 g/m*3 -0.1 C 0 km/h
Sensor: Nr:Datum:Temp:Abs-Feuchte:Windchill:Wind:
Aussen-T/F 2451 01-01-2010 10:29:06 -0.1 C 4.52 g/m*3 -0.1 C 0 km/h
2452 01-01-2010 10:41:06 -0.2 C 4.49 g/m*3 -0.2 C 0 km/h
2453 01-01-2010 10:53:06 -0.2 C 4.44 g/m*3 -0.2 C 0 km/h
2454 01-01-2010 11:05:06 -0.1 C 4.47 g/m*3 -0.1 C 0 km/h
2455 01-01-2010 11:17:06 -0.2 C 4.4 g/m*3 -0.2 C 0 km/h
2456 01-01-2010 11:29:06 -0.1 C 4.43 g/m*3 -0.1 C 0 km/h
2457 01-01-2010 11:41:06 -0.2 C 4.4 g/m*3 -0.2 C 0 km/h
2458 01-01-2010 11:53:06 -0.2 C 4.4 g/m*3 -0.2 C 0 km/h
2459 01-01-2010 12:05:06 -0.1 C 4.43 g/m*3 -0.1 C 0 km/h
2460 01-01-2010 12:17:07 -0.2 C 4.35 g/m*3 -0.2 C 0 km/h
2461 01-01-2010 12:29:07 -0.2 C 4.35 g/m*3 -0.2 C 0 km/h
2462 01-01-2010 12:41:07 -0.2 C 4.3 g/m*3 -0.2 C 0 km/h
2463 01-01-2010 12:53:07 -0.2 C 4.3 g/m*3 -0.2 C 0 km/h
2464 01-01-2010 13:05:07 -0.2 C 4.3 g/m*3 -0.2 C 0 km/h
2465 01-01-2010 13:17:07 -0.3 C 4.27 g/m*3 -0.3 C 0 km/h
2466 01-01-2010 13:29:07 -0.3 C 4.27 g/m*3 -0.3 C 0 km/h
2467 01-01-2010 13:41:07 -0.3 C 4.27 g/m*3 -0.3 C 0 km/h
2468 01-01-2010 13:53:07 -0.3 C 4.27 g/m*3 -0.3 C 0 km/h
2469 01-01-2010 14:05:07 -0.3 C 4.27 g/m*3 -0.3 C 0 km/h
2470 01-01-2010 14:17:07 -0.3 C 4.22 g/m*3 -0.3 C 0 km/h
2471 01-01-2010 14:29:07 -0.2 C 4.3 g/m*3 -0.2 C 0 km/h
2472 01-01-2010 14:41:07 -0.2 C 4.3 g/m*3 -0.2 C 0 km/h
2473 01-01-2010 14:53:07 -0.2 C 4.3 g/m*3 -0.2 C 0 km/h
2474 01-01-2010 15:05:07 -0.2 C 4.3 g/m*3 -0.2 C 0 km/h
2475 01-01-2010 15:17:07 -0.2 C 4.25 g/m*3 -0.2 C 0 km/h
Sensor: Nr:Datum:Temp:Abs-Feuchte:Windchill:Wind:
Aussen-T/F 2476 01-01-2010 15:29:07 -0.2 C 4.25 g/m*3 -0.2 C 0 km/h
2477 01-01-2010 15:41:07 -0.2 C 4.25 g/m*3 -0.2 C 0 km/h
2478 01-01-2010 15:53:02 -0.2 C 4.25 g/m*3 -0.2 C 0 km/h
2479 01-01-2010 16:05:01 -0.2 C 4.3 g/m*3 -0.2 C 0 km/h
2480 01-01-2010 16:17:02 -0.3 C 4.27 g/m*3 -0.3 C 0 km/h
2481 01-01-2010 16:29:02 -0.3 C 4.27 g/m*3 -0.3 C 0 km/h
2482 01-01-2010 16:41:01 -0.3 C 4.32 g/m*3 -0.3 C 0 km/h
2483 01-01-2010 16:53:02 -0.3 C 4.32 g/m*3 -0.3 C 0 km/h
2484 01-01-2010 17:05:01 -0.4 C 4.29 g/m*3 -0.4 C 0 km/h
2485 01-01-2010 17:17:01 -0.4 C 4.29 g/m*3 -0.4 C 0 km/h
2486 01-01-2010 17:29:01 -0.5 C 4.26 g/m*3 -0.5 C 0 km/h
2487 01-01-2010 17:41:02 -0.5 C 4.26 g/m*3 -0.5 C 0 km/h
2488 01-01-2010 17:53:02 -0.5 C 4.26 g/m*3 -0.5 C 0 km/h
2489 01-01-2010 18:05:03 -0.5 C 4.26 g/m*3 -0.5 C 0 km/h
2490 01-01-2010 18:17:02 -0.6 C 4.23 g/m*3 -0.6 C 0 km/h
2491 01-01-2010 18:29:02 -0.6 C 4.23 g/m*3 -0.6 C 0 km/h
2492 01-01-2010 18:41:02 -0.7 C 4.2 g/m*3 -0.7 C 0 km/h
2493 01-01-2010 18:53:01 -0.8 C 4.22 g/m*3 -0.8 C 0 km/h
2494 01-01-2010 19:05:02 -0.8 C 4.17 g/m*3 -0.8 C 0 km/h
2495 01-01-2010 19:17:01 -0.9 C 4.14 g/m*3 -0.9 C 0 km/h
2496 01-01-2010 19:29:01 -0.8 C 4.17 g/m*3 -0.8 C 0 km/h
2497 01-01-2010 19:41:02 -0.8 C 4.13 g/m*3 -0.8 C 0 km/h
2498 01-01-2010 19:53:01 -0.8 C 4.08 g/m*3 -0.8 C 0 km/h
2499 01-01-2010 20:05:02 -0.7 C 4.06 g/m*3 -0.7 C 0 km/h
2500 01-01-2010 20:17:01 -0.7 C 4.02 g/m*3 -0.7 C 0 km/h
Sensor: Nr:Datum:Temp:Abs-Feuchte:Windchill:Wind:
Aussen-T/F 2501 01-01-2010 20:29:01 -0.8 C 3.94 g/m*3 -0.8 C 0 km/h
2502 01-01-2010 20:41:02 -0.8 C 3.94 g/m*3 -0.8 C 0 km/h
2503 01-01-2010 20:53:01 -0.8 C 3.9 g/m*3 -0.8 C 0 km/h
2504 01-01-2010 21:05:02 -0.8 C 3.9 g/m*3 -0.8 C 0 km/h
2505 01-01-2010 21:17:02 -0.8 C 3.9 g/m*3 -0.8 C 0 km/h
2506 01-01-2010 21:29:02 -0.8 C 3.9 g/m*3 -0.8 C 0 km/h
2507 01-01-2010 21:41:02 -0.8 C 3.9 g/m*3 -0.8 C 0 km/h
2508 01-01-2010 21:53:02 -0.8 C 3.85 g/m*3 -0.8 C 0 km/h
2509 01-01-2010 22:05:02 -0.8 C 3.85 g/m*3 -0.8 C 0 km/h
2510 01-01-2010 22:17:01 -0.9 C 3.82 g/m*3 -0.9 C 0 km/h
2511 01-01-2010 22:29:01 -0.9 C 3.82 g/m*3 -0.9 C 0 km/h
2512 01-01-2010 22:41:02 -0.9 C 3.82 g/m*3 -0.9 C 0 km/h
2513 01-01-2010 22:53:02 -0.9 C 3.82 g/m*3 -0.9 C 0 km/h
2514 01-01-2010 23:05:02 -1 C 3.84 g/m*3 -1 C 0 km/h
2515 01-01-2010 23:17:02 -1 C 3.84 g/m*3 -1 C 0 km/h
2516 01-01-2010 23:29:02 -1 C 3.84 g/m*3 -1 C 0 km/h
2517 01-01-2010 23:41:02 -1 C 3.84 g/m*3 -1 C 0 km/h
2518 01-01-2010 23:53:01 -1 C 3.84 g/m*3 -1 C 0 km/h
2519 02-01-2010 00:05:02 -1 C 3.8 g/m*3 -1 C 0 km/h
2520 02-01-2010 00:17:02 -1.1 C 3.73 g/m*3 -1.1 C 0 km/h
2521 02-01-2010 00:29:02 -1.1 C 3.73 g/m*3 -1.1 C 0 km/h
2522 02-01-2010 00:41:02 -1.2 C 3.7 g/m*3 -1.2 C 0 km/h
2523 02-01-2010 00:53:02 -1.2 C 3.7 g/m*3 -1.2 C 0 km/h
2524 02-01-2010 01:05:02 -1.3 C 3.67 g/m*3 -1.3 C 0 km/h
2525 02-01-2010 01:17:02 -1.3 C 3.67 g/m*3 -1.3 C 0 km/h
Sensor: Nr:Datum:Temp:Abs-Feuchte:Windchill:Wind:
Aussen-T/F 2526 02-01-2010 01:29:03 -1.4 C 3.6 g/m*3 -1.4 C 0 km/h
2527 02-01-2010 01:41:01 -1.4 C 3.56 g/m*3 -1.4 C 0 km/h
2528 02-01-2010 01:53:02 -1.5 C 3.54 g/m*3 -1.5 C 0 km/h
2529 02-01-2010 02:05:01 -1.6 C 3.47 g/m*3 -1.6 C 0 km/h
2530 02-01-2010 02:17:02 -1.5 C 3.49 g/m*3 -1.5 C 0 km/h
2531 02-01-2010 02:29:02 -1.4 C 3.56 g/m*3 -1.4 C 0 km/h
2532 02-01-2010 02:41:02 -1.4 C 3.56 g/m*3 -1.4 C 0 km/h
2533 02-01-2010 02:54:04 -1.5 C 3.49 g/m*3 -1.5 C 0 km/h
2534 02-01-2010 03:06:04 -1.6 C 3.42 g/m*3 -1.6 C 0 km/h
2535 02-01-2010 03:18:04 -1.7 C 3.36 g/m*3 -1.7 C 0 km/h
2536 02-01-2010 03:30:04 -1.8 C 3.33 g/m*3 -1.8 C 0 km/h
2537 02-01-2010 03:42:02 -1.9 C 3.27 g/m*3 -1.9 C 0 km/h
2538 02-01-2010 03:54:02 -1.9 C 3.27 g/m*3 -1.9 C 0 km/h
2539 02-01-2010 04:06:02 -1.9 C 3.27 g/m*3 -1.9 C 0 km/h
2540 02-01-2010 04:18:02 -2 C 3.25 g/m*3 -2 C 0 km/h
2541 02-01-2010 04:30:03 -2.1 C 3.18 g/m*3 -2.1 C 0 km/h
2542 02-01-2010 04:42:02 -2.2 C 3.16 g/m*3 -2.2 C 0 km/h
2543 02-01-2010 04:54:02 -2.1 C 3.22 g/m*3 -2.1 C 0 km/h
2544 02-01-2010 05:06:01 -2.2 C 3.2 g/m*3 -2.2 C 0 km/h
2545 02-01-2010 05:18:02 -2.2 C 3.28 g/m*3 -2.2 C 0 km/h
2546 02-01-2010 05:30:02 -2.2 C 3.33 g/m*3 -2.2 C 0 km/h
2547 02-01-2010 05:42:02 -2.2 C 3.37 g/m*3 -2.2 C 0 km/h
2548 02-01-2010 05:54:02 -2.2 C 3.33 g/m*3 -2.2 C 0 km/h
2549 02-01-2010 06:06:03 -2.3 C 3.18 g/m*3 -2.3 C 0 km/h
2550 02-01-2010 06:18:02 -2.2 C 3.16 g/m*3 -2.2 C 0 km/h
Sensor: Nr:Datum:Temp:Abs-Feuchte:Windchill:Wind:
Aussen-T/F 2551 02-01-2010 06:30:02 -2.4 C 3.07 g/m*3 -2.4 C 0 km/h
2552 02-01-2010 06:42:02 -2.5 C 3.01 g/m*3 -2.5 C 0 km/h
2553 02-01-2010 06:54:01 -2.5 C 2.89 g/m*3 -2.5 C 0 km/h
2554 02-01-2010 07:06:02 -2.5 C 2.77 g/m*3 -2.5 C 0 km/h
2555 02-01-2010 07:18:01 -2.5 C 2.73 g/m*3 -2.5 C 0 km/h
2556 02-01-2010 07:30:01 -2.6 C 2.71 g/m*3 -2.6 C 0 km/h
2557 02-01-2010 07:42:01 -2.7 C 2.77 g/m*3 -2.7 C 0 km/h
2558 02-01-2010 07:54:01 -2.8 C 2.79 g/m*3 -2.8 C 0 km/h
2559 02-01-2010 08:06:02 -2.8 C 2.79 g/m*3 -2.8 C 0 km/h
2560 02-01-2010 08:18:01 -3.1 C 2.73 g/m*3 -3.1 C 0 km/h
2561 02-01-2010 08:30:01 -3.4 C 2.71 g/m*3 -3.4 C 0 km/h
2562 02-01-2010 08:42:01 -3.6 C 2.75 g/m*3 -3.6 C 0 km/h
2563 02-01-2010 08:54:01 -3.7 C 2.84 g/m*3 -3.7 C 0 km/h
2564 02-01-2010 09:06:01 -3.8 C 2.86 g/m*3 -3.8 C 0 km/h
2565 02-01-2010 09:18:02 -3.9 C 2.87 g/m*3 -3.9 C 0 km/h
2566 02-01-2010 09:30:02 -3.7 C 2.95 g/m*3 -3.7 C 0 km/h
2567 02-01-2010 09:42:01 -3.6 C 2.94 g/m*3 -3.6 C 0 km/h
2568 02-01-2010 09:54:02 -3.7 C 2.88 g/m*3 -3.7 C 0 km/h
2569 02-01-2010 10:06:02 -3.6 C 2.94 g/m*3 -3.6 C 0 km/h
2570 02-01-2010 10:18:02 -3.4 C 2.98 g/m*3 -3.4 C 0 km/h
2571 02-01-2010 10:30:02 -3.4 C 2.98 g/m*3 -3.4 C 0 km/h
2572 02-01-2010 10:42:02 -3.3 C 3 g/m*3 -3.3 C 0 km/h
2573 02-01-2010 10:54:02 -3.3 C 3 g/m*3 -3.3 C 0 km/h
2574 02-01-2010 11:06:01 -3.2 C 3.02 g/m*3 -3.2 C 0 km/h
2575 02-01-2010 11:18:02 -3.1 C 3.04 g/m*3 -3.1 C 0 km/h
Sensor: Nr:Datum:Temp:Abs-Feuchte:Windchill:Wind:
Aussen-T/F 2576 02-01-2010 11:30:03 -2.9 C 3.05 g/m*3 -2.9 C 0 km/h
2577 02-01-2010 11:42:01 -2.8 C 3.07 g/m*3 -2.8 C 0 km/h
2578 02-01-2010 11:54:02 -2.6 C 3.11 g/m*3 -2.6 C 0 km/h
2579 02-01-2010 12:06:02 -2.3 C 3.18 g/m*3 -2.3 C 0 km/h
2580 02-01-2010 12:18:02 -2 C 3.25 g/m*3 -2 C 0 km/h
2581 02-01-2010 12:30:02 -1.9 C 3.23 g/m*3 -1.9 C 0 km/h
2582 02-01-2010 12:42:03 -1.9 C 3.23 g/m*3 -1.9 C 0 km/h
2583 02-01-2010 12:54:02 -1.8 C 3.25 g/m*3 -1.8 C 0 km/h
2584 02-01-2010 13:06:02 -1.8 C 3.25 g/m*3 -1.8 C 0 km/h
2585 02-01-2010 13:18:02 -1.7 C 3.31 g/m*3 -1.7 C 0 km/h
2586 02-01-2010 13:30:02 -1.6 C 3.34 g/m*3 -1.6 C 0 km/h
2587 02-01-2010 13:42:02 -1.6 C 3.38 g/m*3 -1.6 C 0 km/h
2588 02-01-2010 13:54:02 -1.2 C 3.43 g/m*3 -1.2 C 0 km/h
2589 02-01-2010 14:06:02 -0.8 C 3.39 g/m*3 -0.8 C 0 km/h
2590 02-01-2010 14:18:02 -0.8 C 3.35 g/m*3 -0.8 C 0 km/h
2591 02-01-2010 14:30:02 -0.7 C 3.32 g/m*3 -0.7 C 0 km/h
2592 02-01-2010 14:42:02 -0.9 C 3.32 g/m*3 -0.9 C 0 km/h
2593 02-01-2010 14:54:02 -0.9 C 3.32 g/m*3 -0.9 C 0 km/h
2594 02-01-2010 15:06:02 -1.1 C 3.32 g/m*3 -1.1 C 0 km/h
2595 02-01-2010 15:18:02 -1.3 C 3.32 g/m*3 -1.3 C 0 km/h
2596 02-01-2010 15:30:02 -1.3 C 3.41 g/m*3 -1.3 C 0 km/h
2597 02-01-2010 15:42:02 -1.3 C 3.45 g/m*3 -1.3 C 0 km/h
2598 02-01-2010 15:54:01 -1.1 C 3.55 g/m*3 -1.1 C 0 km/h
2599 02-01-2010 16:06:01 -0.7 C 3.55 g/m*3 -0.7 C 0 km/h
2600 02-01-2010 16:18:02 -0.6 C 3.53 g/m*3 -0.6 C 0 km/h
Sensor: Nr:Datum:Temp:Abs-Feuchte:Windchill:Wind:
Aussen-T/F 2601 02-01-2010 16:30:02 -0.5 C 3.51 g/m*3 -0.5 C 0 km/h
2602 02-01-2010 16:42:01 -0.5 C 3.46 g/m*3 -0.5 C 0 km/h
2603 02-01-2010 16:54:01 -0.5 C 3.46 g/m*3 -0.5 C 0 km/h
2604 02-01-2010 17:06:01 -0.5 C 3.46 g/m*3 -0.5 C 0 km/h
2605 02-01-2010 17:18:02 -0.5 C 3.51 g/m*3 -0.5 C 0 km/h
2606 02-01-2010 17:30:02 -0.4 C 3.53 g/m*3 -0.4 C 0 km/h
2607 02-01-2010 17:42:01 -0.4 C 3.53 g/m*3 -0.4 C 0 km/h
2608 02-01-2010 17:54:03 -0.5 C 3.51 g/m*3 -0.5 C 0 km/h
2609 02-01-2010 18:06:02 -0.5 C 3.51 g/m*3 -0.5 C 0 km/h
2610 02-01-2010 18:18:02 -0.4 C 3.53 g/m*3 -0.4 C 0 km/h
2611 02-01-2010 18:30:02 -0.4 C 3.53 g/m*3 -0.4 C 0 km/h
2612 02-01-2010 18:42:02 -0.3 C 3.56 g/m*3 -0.3 C 0 km/h
2613 02-01-2010 18:54:02 -0.2 C 3.58 g/m*3 -0.2 C 0 km/h
2614 02-01-2010 19:06:02 -0.1 C 3.61 g/m*3 -0.1 C 0 km/h
2615 02-01-2010 19:18:02 -0.3 C 3.56 g/m*3 -0.3 C 0 km/h
2616 02-01-2010 19:30:03 -0.1 C 3.61 g/m*3 -0.1 C 0 km/h
2617 02-01-2010 19:42:02 -0.2 C 3.63 g/m*3 -0.2 C 0 km/h
2618 02-01-2010 19:54:02 -0.3 C 3.61 g/m*3 -0.3 C 0 km/h
2619 02-01-2010 20:06:01 -0.2 C 3.63 g/m*3 -0.2 C 0 km/h
2620 02-01-2010 20:18:02 -0.1 C 3.71 g/m*3 -0.1 C 0 km/h
2621 02-01-2010 20:30:02 -0.1 C 3.71 g/m*3 -0.1 C 0 km/h
2622 02-01-2010 20:42:02 -0.1 C 3.66 g/m*3 -0.1 C 0 km/h
2623 02-01-2010 20:54:01 -0.1 C 3.71 g/m*3 -0.1 C 0 km/h
2624 02-01-2010 21:06:02 -0.1 C 3.71 g/m*3 -0.1 C 0 km/h
2625 02-01-2010 21:18:01 -0.1 C 3.71 g/m*3 -0.1 C 0 km/h
Sensor: Nr:Datum:Temp:Abs-Feuchte:Windchill:Wind:
Aussen-T/F 2626 02-01-2010 21:30:01 -0.1 C 3.66 g/m*3 -0.1 C 0 km/h
2627 02-01-2010 21:42:02 -0.1 C 3.66 g/m*3 -0.1 C 0 km/h
2628 02-01-2010 21:54:02 -0.1 C 3.66 g/m*3 -0.1 C 0 km/h
2629 02-01-2010 22:06:01 -0.1 C 3.66 g/m*3 -0.1 C 0 km/h
2630 02-01-2010 22:18:02 -0.1 C 3.66 g/m*3 -0.1 C 0 km/h
2631 02-01-2010 22:30:02 -0.1 C 3.66 g/m*3 -0.1 C 0 km/h
2632 02-01-2010 22:42:02 -0.1 C 3.66 g/m*3 -0.1 C 0 km/h
2633 02-01-2010 22:55:03 -0.3 C 3.61 g/m*3 -0.3 C 0 km/h
2634 02-01-2010 23:07:03 -0.3 C 3.61 g/m*3 -0.3 C 0 km/h
2635 02-01-2010 23:19:03 -0.3 C 3.65 g/m*3 -0.3 C 0 km/h
2636 02-01-2010 23:31:03 -0.3 C 3.65 g/m*3 -0.3 C 0 km/h
2637 02-01-2010 23:43:03 -0.3 C 3.7 g/m*3 -0.3 C 0 km/h
2638 02-01-2010 23:55:03 -0.4 C 3.68 g/m*3 -0.4 C 0 km/h
2639 03-01-2010 00:07:03 -0.5 C 3.65 g/m*3 -0.5 C 0 km/h
2640 03-01-2010 00:19:03 -0.4 C 3.68 g/m*3 -0.4 C 0 km/h
2641 03-01-2010 00:31:03 -0.4 C 3.68 g/m*3 -0.4 C 0 km/h
2642 03-01-2010 00:43:03 -0.4 C 3.68 g/m*3 -0.4 C 0 km/h
2643 03-01-2010 00:55:03 -0.4 C 3.72 g/m*3 -0.4 C 0 km/h
2644 03-01-2010 01:07:03 -0.3 C 3.75 g/m*3 -0.3 C 0 km/h
2645 03-01-2010 01:19:03 -0.3 C 3.75 g/m*3 -0.3 C 0 km/h
2646 03-01-2010 01:31:03 -0.1 C 3.75 g/m*3 -0.1 C 0 km/h
2647 03-01-2010 01:43:04 -0.1 C 3.75 g/m*3 -0.1 C 0 km/h
2648 03-01-2010 01:55:04 0 C 3.78 g/m*3 0 C 0 km/h
2649 03-01-2010 02:07:04 0.1 C 3.76 g/m*3 0.1 C 0 km/h
2650 03-01-2010 02:19:04 0.1 C 3.76 g/m*3 0.1 C 0 km/h
Sensor: Nr:Datum:Temp:Abs-Feuchte:Windchill:Wind:
Aussen-T/F 2651 03-01-2010 02:31:04 0.1 C 3.71 g/m*3 0.1 C 0 km/h
2652 03-01-2010 02:43:04 -0.2 C 3.63 g/m*3 -0.2 C 0 km/h
2653 03-01-2010 02:55:04 -0.4 C 3.58 g/m*3 -0.4 C 0 km/h
2654 03-01-2010 03:07:04 -0.4 C 3.58 g/m*3 -0.4 C 0 km/h
2655 03-01-2010 03:19:04 -0.4 C 3.58 g/m*3 -0.4 C 0 km/h
2656 03-01-2010 03:31:04 -0.7 C 3.51 g/m*3 -0.7 C 0 km/h
2657 03-01-2010 03:43:04 -0.7 C 3.55 g/m*3 -0.7 C 0 km/h
2658 03-01-2010 03:55:04 -0.3 C 3.65 g/m*3 -0.3 C 0 km/h
2659 03-01-2010 04:07:04 0 C 3.92 g/m*3 0 C 0 km/h
2660 03-01-2010 04:19:04 -0.4 C 3.96 g/m*3 -0.4 C 0 km/h
2661 03-01-2010 04:31:04 -0.4 C 4.01 g/m*3 -0.4 C 0 km/h
2662 03-01-2010 04:43:04 -0.3 C 4.03 g/m*3 -0.3 C 0 km/h
2663 03-01-2010 04:55:04 -0.1 C 4.09 g/m*3 -0.1 C 0 km/h
2664 03-01-2010 05:07:04 -0.1 C 4.04 g/m*3 -0.1 C 0 km/h
2665 03-01-2010 05:19:04 0.2 C 4.08 g/m*3 0.2 C 0 km/h
2666 03-01-2010 05:31:04 0.2 C 4.03 g/m*3 0.2 C 0 km/h
2667 03-01-2010 05:43:04 0.3 C 4.06 g/m*3 0.3 C 0 km/h
2668 03-01-2010 05:55:05 0.3 C 4.16 g/m*3 0.3 C 0 km/h
2669 03-01-2010 06:07:05 0.1 C 4.24 g/m*3 0.1 C 0 km/h
2670 03-01-2010 06:19:05 0 C 4.31 g/m*3 0 C 0 km/h
2671 03-01-2010 06:31:05 -0.1 C 4.33 g/m*3 -0.1 C 0 km/h
2672 03-01-2010 06:43:05 -0.1 C 4.38 g/m*3 -0.1 C 0 km/h
2673 03-01-2010 06:55:05 0 C 4.41 g/m*3 0 C 0 km/h
2674 03-01-2010 07:07:05 0.1 C 4.44 g/m*3 0.1 C 0 km/h
2675 03-01-2010 07:19:05 0.2 C 4.47 g/m*3 0.2 C 0 km/h
Sensor: Nr:Datum:Temp:Abs-Feuchte:Windchill:Wind:
Aussen-T/F 2676 03-01-2010 07:31:05 0.3 C 4.45 g/m*3 0.3 C 0 km/h
2677 03-01-2010 07:43:05 0.3 C 4.4 g/m*3 0.3 C 0 km/h
2678 03-01-2010 07:55:05 0.3 C 4.4 g/m*3 0.3 C 0 km/h
2679 03-01-2010 08:07:05 0.3 C 4.45 g/m*3 0.3 C 0 km/h
2680 03-01-2010 08:19:03 0.2 C 4.47 g/m*3 0.2 C 0 km/h
2681 03-01-2010 08:31:03 0.3 C 4.5 g/m*3 0.3 C 0 km/h
2682 03-01-2010 08:43:03 0.3 C 4.5 g/m*3 0.3 C 0 km/h
2683 03-01-2010 08:55:03 0.4 C 4.53 g/m*3 0.4 C 0 km/h
2684 03-01-2010 09:07:02 0.3 C 4.5 g/m*3 0.3 C 0 km/h
2685 03-01-2010 09:19:02 0.3 C 4.55 g/m*3 0.3 C 0 km/h
2686 03-01-2010 09:31:03 0.3 C 4.55 g/m*3 0.3 C 0 km/h
2687 03-01-2010 09:43:03 0.4 C 4.58 g/m*3 0.4 C 0 km/h
2688 03-01-2010 09:55:02 0.4 C 4.58 g/m*3 0.4 C 0 km/h
2689 03-01-2010 10:07:02 0.4 C 4.58 g/m*3 0.4 C 0 km/h
2690 03-01-2010 10:19:02 0.6 C 4.6 g/m*3 0.6 C 0 km/h
2691 03-01-2010 10:31:02 0.6 C 4.49 g/m*3 0.6 C 0 km/h
2692 03-01-2010 10:43:02 0.7 C 4.47 g/m*3 0.7 C 0 km/h
2693 03-01-2010 10:55:02 0.6 C 4.39 g/m*3 0.6 C 0 km/h
2694 03-01-2010 11:07:03 0.5 C 4.31 g/m*3 0.5 C 0 km/h
2695 03-01-2010 11:19:02 0.4 C 4.18 g/m*3 0.4 C 0 km/h
2696 03-01-2010 11:31:02 0 C 3.97 g/m*3 0 C 0 km/h
2697 03-01-2010 11:43:02 -0.1 C 3.99 g/m*3 -0.1 C 0 km/h
2698 03-01-2010 11:55:02 -0.5 C 3.84 g/m*3 -0.5 C 0 km/h
2699 03-01-2010 12:07:02 -0.8 C 3.76 g/m*3 -0.8 C 0 km/h
2700 03-01-2010 12:19:02 -0.9 C 3.73 g/m*3 -0.9 C 0 km/h
Sensor: Nr:Datum:Temp:Abs-Feuchte:Windchill:Wind:
Aussen-T/F 2701 03-01-2010 12:31:01 -1.6 C 3.55 g/m*3 -1.6 C 0 km/h
2702 03-01-2010 12:43:01 -1.6 C 3.55 g/m*3 -1.6 C 0 km/h
2703 03-01-2010 12:55:02 -1.7 C 3.49 g/m*3 -1.7 C 0 km/h
2704 03-01-2010 13:07:02 -2 C 3.41 g/m*3 -2 C 0 km/h
2705 03-01-2010 13:19:01 -2.2 C 3.41 g/m*3 -2.2 C 0 km/h
2706 03-01-2010 13:31:02 -2.2 C 3.41 g/m*3 -2.2 C 0 km/h
2707 03-01-2010 13:43:02 -2.2 C 3.37 g/m*3 -2.2 C 0 km/h
2708 03-01-2010 13:55:02 -2.1 C 3.39 g/m*3 -2.1 C 0 km/h
2709 03-01-2010 14:07:03 -2.2 C 3.33 g/m*3 -2.2 C 0 km/h
2710 03-01-2010 14:19:03 -2.3 C 3.26 g/m*3 -2.3 C 0 km/h
2711 03-01-2010 14:31:02 -2.4 C 3.2 g/m*3 -2.4 C 0 km/h
2712 03-01-2010 14:43:02 -2.5 C 3.17 g/m*3 -2.5 C 0 km/h
2713 03-01-2010 14:55:02 -2.5 C 3.09 g/m*3 -2.5 C 0 km/h
2714 03-01-2010 15:07:03 -2.4 C 3.11 g/m*3 -2.4 C 0 km/h
2715 03-01-2010 15:19:02 -2.7 C 2.97 g/m*3 -2.7 C 0 km/h
2716 03-01-2010 15:31:03 -2.9 C 2.89 g/m*3 -2.9 C 0 km/h
2717 03-01-2010 15:43:03 -2.8 C 2.91 g/m*3 -2.8 C 0 km/h
2718 03-01-2010 15:55:02 -3 C 2.87 g/m*3 -3 C 0 km/h
2719 03-01-2010 16:07:01 -3.3 C 2.77 g/m*3 -3.3 C 0 km/h
2720 03-01-2010 16:19:02 -3.7 C 2.69 g/m*3 -3.7 C 0 km/h
2721 03-01-2010 16:31:02 -3.9 C 2.69 g/m*3 -3.9 C 0 km/h
2722 03-01-2010 16:43:02 -4.1 C 2.65 g/m*3 -4.1 C 0 km/h
2723 03-01-2010 16:55:02 -4 C 2.67 g/m*3 -4 C 0 km/h
2724 03-01-2010 17:07:01 -4 C 2.71 g/m*3 -4 C 0 km/h
2725 03-01-2010 17:19:01 -4.5 C 2.61 g/m*3 -4.5 C 0 km/h
Sensor: Nr:Datum:Temp:Abs-Feuchte:Windchill:Wind:
Aussen-T/F 2726 03-01-2010 17:31:02 -4.6 C 2.63 g/m*3 -4.6 C 0 km/h
2727 03-01-2010 17:43:02 -4.8 C 2.59 g/m*3 -4.8 C 0 km/h
2728 03-01-2010 17:55:02 -4.8 C 2.63 g/m*3 -4.8 C 0 km/h
2729 03-01-2010 18:07:02 -4.6 C 2.7 g/m*3 -4.6 C 0 km/h
2730 03-01-2010 18:19:02 -4.5 C 2.72 g/m*3 -4.5 C 0 km/h
2731 03-01-2010 18:31:02 -4.5 C 2.68 g/m*3 -4.5 C 0 km/h
2732 03-01-2010 18:43:02 -4.5 C 2.68 g/m*3 -4.5 C 0 km/h
2733 03-01-2010 18:55:02 -4.5 C 2.68 g/m*3 -4.5 C 0 km/h
2734 03-01-2010 19:07:02 -4.5 C 2.68 g/m*3 -4.5 C 0 km/h
2735 03-01-2010 19:19:02 -4.4 C 2.74 g/m*3 -4.4 C 0 km/h
2736 03-01-2010 19:31:02 -4.4 C 2.74 g/m*3 -4.4 C 0 km/h
2737 03-01-2010 19:43:02 -4.4 C 2.77 g/m*3 -4.4 C 0 km/h
2738 03-01-2010 19:55:01 -4.4 C 2.77 g/m*3 -4.4 C 0 km/h
2739 03-01-2010 20:07:02 -4.3 C 2.79 g/m*3 -4.3 C 0 km/h
2740 03-01-2010 20:19:01 -4.3 C 2.79 g/m*3 -4.3 C 0 km/h
2741 03-01-2010 20:31:01 -4.3 C 2.79 g/m*3 -4.3 C 0 km/h
2742 03-01-2010 20:43:01 -4.3 C 2.79 g/m*3 -4.3 C 0 km/h
2743 03-01-2010 20:55:01 -4.3 C 2.79 g/m*3 -4.3 C 0 km/h
2744 03-01-2010 21:07:01 -4.2 C 2.85 g/m*3 -4.2 C 0 km/h
2745 03-01-2010 21:19:02 -4.2 C 2.81 g/m*3 -4.2 C 0 km/h
2746 03-01-2010 21:31:01 -4.3 C 2.76 g/m*3 -4.3 C 0 km/h
2747 03-01-2010 21:43:01 -4.3 C 2.76 g/m*3 -4.3 C 0 km/h
2748 03-01-2010 21:55:01 -4.3 C 2.76 g/m*3 -4.3 C 0 km/h
2749 03-01-2010 22:07:02 -4.4 C 2.74 g/m*3 -4.4 C 0 km/h
2750 03-01-2010 22:19:01 -4.4 C 2.74 g/m*3 -4.4 C 0 km/h
Sensor: Nr:Datum:Temp:Abs-Feuchte:Windchill:Wind:
Aussen-T/F 2751 03-01-2010 22:31:01 -4.5 C 2.72 g/m*3 -4.5 C 0 km/h
2752 03-01-2010 22:43:01 -4.5 C 2.75 g/m*3 -4.5 C 0 km/h
2753 03-01-2010 22:56:02 -4.4 C 2.77 g/m*3 -4.4 C 0 km/h
2754 03-01-2010 23:08:02 -4.5 C 2.75 g/m*3 -4.5 C 0 km/h
2755 03-01-2010 23:20:02 -4.5 C 2.75 g/m*3 -4.5 C 0 km/h
2756 03-01-2010 23:32:02 -4.5 C 2.75 g/m*3 -4.5 C 0 km/h
2757 03-01-2010 23:44:02 -4.6 C 2.73 g/m*3 -4.6 C 0 km/h
2758 03-01-2010 23:56:02 -4.6 C 2.73 g/m*3 -4.6 C 0 km/h
2759 04-01-2010 00:08:02 -4.5 C 2.75 g/m*3 -4.5 C 0 km/h
2760 04-01-2010 00:20:02 -4.5 C 2.75 g/m*3 -4.5 C 0 km/h
2761 04-01-2010 00:32:02 -4.3 C 2.83 g/m*3 -4.3 C 0 km/h
2762 04-01-2010 00:44:02 -4.4 C 2.81 g/m*3 -4.4 C 0 km/h
2763 04-01-2010 00:56:02 -4.2 C 2.85 g/m*3 -4.2 C 0 km/h
2764 04-01-2010 01:08:02 -4.4 C 2.77 g/m*3 -4.4 C 0 km/h
2765 04-01-2010 01:20:02 -4.3 C 2.79 g/m*3 -4.3 C 0 km/h
2766 04-01-2010 01:32:02 -4.3 C 2.79 g/m*3 -4.3 C 0 km/h
2767 04-01-2010 01:44:02 -4.4 C 2.77 g/m*3 -4.4 C 0 km/h
2768 04-01-2010 01:56:02 -4.4 C 2.74 g/m*3 -4.4 C 0 km/h
2769 04-01-2010 02:08:02 -4.3 C 2.76 g/m*3 -4.3 C 0 km/h
2770 04-01-2010 02:20:02 -4.3 C 2.72 g/m*3 -4.3 C 0 km/h
2771 04-01-2010 02:32:03 -4.3 C 2.72 g/m*3 -4.3 C 0 km/h
2772 04-01-2010 02:44:03 -4.3 C 2.72 g/m*3 -4.3 C 0 km/h
2773 04-01-2010 02:56:03 -4.3 C 2.65 g/m*3 -4.3 C 0 km/h
2774 04-01-2010 03:08:03 -4.3 C 2.61 g/m*3 -4.3 C 0 km/h
2775 04-01-2010 03:20:03 -4.3 C 2.58 g/m*3 -4.3 C 0 km/h
Sensor: Nr:Datum:Temp:Abs-Feuchte:Windchill:Wind:
Aussen-T/F 2776 04-01-2010 03:32:03 -4.3 C 2.54 g/m*3 -4.3 C 0 km/h
2777 04-01-2010 03:44:03 -4.4 C 2.52 g/m*3 -4.4 C 0 km/h
2778 04-01-2010 03:56:03 -4.4 C 2.52 g/m*3 -4.4 C 0 km/h
2779 04-01-2010 04:08:03 -4.3 C 2.58 g/m*3 -4.3 C 0 km/h
2780 04-01-2010 04:20:03 -4.3 C 2.58 g/m*3 -4.3 C 0 km/h
2781 04-01-2010 04:32:03 -4.3 C 2.58 g/m*3 -4.3 C 0 km/h
2782 04-01-2010 04:44:03 -4.3 C 2.58 g/m*3 -4.3 C 0 km/h
2783 04-01-2010 04:56:03 -4.3 C 2.58 g/m*3 -4.3 C 0 km/h
2784 04-01-2010 05:08:03 -4.2 C 2.63 g/m*3 -4.2 C 0 km/h
2785 04-01-2010 05:20:03 -4.2 C 2.63 g/m*3 -4.2 C 0 km/h
2786 04-01-2010 05:32:03 -4.2 C 2.63 g/m*3 -4.2 C 0 km/h
2787 04-01-2010 05:44:03 -4.4 C 2.56 g/m*3 -4.4 C 0 km/h
2788 04-01-2010 05:56:03 -4.4 C 2.56 g/m*3 -4.4 C 0 km/h
2789 04-01-2010 06:08:03 -4.4 C 2.63 g/m*3 -4.4 C 0 km/h
2790 04-01-2010 06:20:03 -4.4 C 2.67 g/m*3 -4.4 C 0 km/h
2791 04-01-2010 06:32:03 -4.4 C 2.67 g/m*3 -4.4 C 0 km/h
2792 04-01-2010 06:44:03 -4.3 C 2.72 g/m*3 -4.3 C 0 km/h
2793 04-01-2010 06:56:04 -4.3 C 2.72 g/m*3 -4.3 C 0 km/h
2794 04-01-2010 07:08:04 -4.3 C 2.72 g/m*3 -4.3 C 0 km/h
2795 04-01-2010 07:20:04 -4.4 C 2.67 g/m*3 -4.4 C 0 km/h
2796 04-01-2010 07:32:04 -4.4 C 2.63 g/m*3 -4.4 C 0 km/h
2797 04-01-2010 07:44:04 -4.4 C 2.6 g/m*3 -4.4 C 0 km/h
2798 04-01-2010 07:56:04 -4.4 C 2.6 g/m*3 -4.4 C 0 km/h
2799 04-01-2010 08:08:04 -4.4 C 2.6 g/m*3 -4.4 C 0 km/h
2800 04-01-2010 08:20:04 -4.4 C 2.56 g/m*3 -4.4 C 0 km/h
Sensor: Nr:Datum:Temp:Abs-Feuchte:Windchill:Wind:
Aussen-T/F 2801 04-01-2010 08:32:04 -4.4 C 2.56 g/m*3 -4.4 C 0 km/h
2802 04-01-2010 08:44:04 -4.4 C 2.56 g/m*3 -4.4 C 0 km/h
2803 04-01-2010 08:56:04 -4.4 C 2.56 g/m*3 -4.4 C 0 km/h
2804 04-01-2010 09:08:04 -4.3 C 2.58 g/m*3 -4.3 C 0 km/h
2805 04-01-2010 09:20:04 -4.3 C 2.58 g/m*3 -4.3 C 0 km/h
2806 04-01-2010 09:32:04 -4.3 C 2.58 g/m*3 -4.3 C 0 km/h
2807 04-01-2010 09:44:04 -4.2 C 2.56 g/m*3 -4.2 C 0 km/h
2808 04-01-2010 09:56:04 -4.1 C 2.54 g/m*3 -4.1 C 0 km/h
2809 04-01-2010 10:08:02 -4 C 2.56 g/m*3 -4 C 0 km/h
2810 04-01-2010 10:20:03 -4 C 2.56 g/m*3 -4 C 0 km/h
2811 04-01-2010 10:32:02 -3.7 C 2.62 g/m*3 -3.7 C 0 km/h
2812 04-01-2010 10:44:02 -3.6 C 2.56 g/m*3 -3.6 C 0 km/h
2813 04-01-2010 10:56:02 -3.4 C 2.63 g/m*3 -3.4 C 0 km/h
2814 04-01-2010 11:08:02 -3.1 C 2.65 g/m*3 -3.1 C 0 km/h
2815 04-01-2010 11:20:02 -3 C 2.63 g/m*3 -3 C 0 km/h
2816 04-01-2010 11:32:02 -3.1 C 2.54 g/m*3 -3.1 C 0 km/h
2817 04-01-2010 11:44:02 -3.1 C 2.46 g/m*3 -3.1 C 0 km/h
2818 04-01-2010 11:56:02 -3.1 C 2.46 g/m*3 -3.1 C 0 km/h
2819 04-01-2010 12:08:02 -3.2 C 2.4 g/m*3 -3.2 C 0 km/h
2820 04-01-2010 12:20:02 -3 C 2.4 g/m*3 -3 C 0 km/h
2821 04-01-2010 12:32:02 -3.5 C 2.24 g/m*3 -3.5 C 0 km/h
2822 04-01-2010 12:44:02 -3.7 C 2.21 g/m*3 -3.7 C 0 km/h
2823 04-01-2010 12:56:02 -3.9 C 2.25 g/m*3 -3.9 C 0 km/h
2824 04-01-2010 13:08:02 -4 C 2.27 g/m*3 -4 C 0 km/h
2825 04-01-2010 13:20:02 -4.1 C 2.29 g/m*3 -4.1 C 0 km/h
Sensor: Nr:Datum:Temp:Abs-Feuchte:Windchill:Wind:
Aussen-T/F 2826 04-01-2010 13:32:01 -4 C 2.34 g/m*3 -4 C 0 km/h
2827 04-01-2010 13:44:01 -3.8 C 2.41 g/m*3 -3.8 C 0 km/h
2828 04-01-2010 13:56:02 -3.6 C 2.41 g/m*3 -3.6 C 0 km/h
2829 04-01-2010 14:08:01 -3.4 C 2.41 g/m*3 -3.4 C 0 km/h
2830 04-01-2010 14:20:01 -3.2 C 2.4 g/m*3 -3.2 C 0 km/h
2831 04-01-2010 14:32:02 -3.2 C 2.28 g/m*3 -3.2 C 0 km/h
2832 04-01-2010 14:44:02 -3.4 C 2.21 g/m*3 -3.4 C 0 km/h
2833 04-01-2010 14:56:02 -3.7 C 2.21 g/m*3 -3.7 C 0 km/h
2834 04-01-2010 15:08:01 -4 C 2.23 g/m*3 -4 C 0 km/h
2835 04-01-2010 15:20:02 -4.2 C 2.24 g/m*3 -4.2 C 0 km/h
2836 04-01-2010 15:32:02 -4.2 C 2.24 g/m*3 -4.2 C 0 km/h
2837 04-01-2010 15:44:02 -4.3 C 2.18 g/m*3 -4.3 C 0 km/h
2838 04-01-2010 15:56:01 -4.6 C 2.17 g/m*3 -4.6 C 0 km/h
2839 04-01-2010 16:08:02 -4.9 C 2.19 g/m*3 -4.9 C 0 km/h
2840 04-01-2010 16:20:01 -5.2 C 2.18 g/m*3 -5.2 C 0 km/h
2841 04-01-2010 16:32:01 -5.5 C 2.17 g/m*3 -5.5 C 0 km/h
2842 04-01-2010 16:44:01 -5.7 C 2.2 g/m*3 -5.7 C 0 km/h
2843 04-01-2010 16:56:01 -5.9 C 2.17 g/m*3 -5.9 C 0 km/h
2844 04-01-2010 17:08:02 -6.2 C 2.15 g/m*3 -6.2 C 0 km/h
2845 04-01-2010 17:20:01 -6.3 C 2.17 g/m*3 -6.3 C 0 km/h
2846 04-01-2010 17:32:01 -6.4 C 2.18 g/m*3 -6.4 C 0 km/h
2847 04-01-2010 17:44:01 -6.5 C 2.2 g/m*3 -6.5 C 0 km/h
2848 04-01-2010 17:56:01 -6.5 C 2.2 g/m*3 -6.5 C 0 km/h
2849 04-01-2010 18:08:02 -6.7 C 2.2 g/m*3 -6.7 C 0 km/h
2850 04-01-2010 18:20:01 -6.8 C 2.21 g/m*3 -6.8 C 0 km/h
Sensor: Nr:Datum:Temp:Abs-Feuchte:Windchill:Wind:
Aussen-T/F 2851 04-01-2010 18:32:02 -6.9 C 2.19 g/m*3 -6.9 C 0 km/h
2852 04-01-2010 18:44:02 -7 C 2.18 g/m*3 -7 C 0 km/h
2853 04-01-2010 18:56:01 -7.1 C 2.19 g/m*3 -7.1 C 0 km/h
2854 04-01-2010 19:08:02 -7.2 C 2.18 g/m*3 -7.2 C 0 km/h
2855 04-01-2010 19:20:02 -7.3 C 2.19 g/m*3 -7.3 C 0 km/h
2856 04-01-2010 19:32:01 -7.3 C 2.22 g/m*3 -7.3 C 0 km/h
2857 04-01-2010 19:44:01 -7.6 C 2.14 g/m*3 -7.6 C 0 km/h
2858 04-01-2010 19:56:02 -7.7 C 2.15 g/m*3 -7.7 C 0 km/h
2859 04-01-2010 20:08:02 -7.7 C 2.18 g/m*3 -7.7 C 0 km/h
2860 04-01-2010 20:20:02 -7.8 C 2.16 g/m*3 -7.8 C 0 km/h
2861 04-01-2010 20:32:02 -7.9 C 2.15 g/m*3 -7.9 C 0 km/h
2862 04-01-2010 20:44:02 -7.9 C 2.18 g/m*3 -7.9 C 0 km/h
2863 04-01-2010 20:56:02 -8.1 C 2.14 g/m*3 -8.1 C 0 km/h
2864 04-01-2010 21:08:02 -8.4 C 2.1 g/m*3 -8.4 C 0 km/h
2865 04-01-2010 21:20:02 -8.5 C 2.08 g/m*3 -8.5 C 0 km/h
2866 04-01-2010 21:32:02 -8.5 C 2.08 g/m*3 -8.5 C 0 km/h
2867 04-01-2010 21:44:02 -8.6 C 2.09 g/m*3 -8.6 C 0 km/h
2868 04-01-2010 21:56:02 -8.7 C 2.08 g/m*3 -8.7 C 0 km/h
2869 04-01-2010 22:08:02 -8.7 C 2.08 g/m*3 -8.7 C 0 km/h
2870 04-01-2010 22:20:02 -8.7 C 2.1 g/m*3 -8.7 C 0 km/h
2871 04-01-2010 22:33:03 -8.8 C 2.09 g/m*3 -8.8 C 0 km/h
2872 04-01-2010 22:45:03 -9 C 2.06 g/m*3 -9 C 0 km/h
2873 04-01-2010 22:57:03 -9 C 2.06 g/m*3 -9 C 0 km/h
2874 04-01-2010 23:09:03 -9 C 2.06 g/m*3 -9 C 0 km/h
2875 04-01-2010 23:21:04 -9.2 C 2.03 g/m*3 -9.2 C 0 km/h
Sensor: Nr:Datum:Temp:Abs-Feuchte:Windchill:Wind:
Aussen-T/F 2876 04-01-2010 23:33:04 -9.2 C 2.03 g/m*3 -9.2 C 0 km/h
2877 04-01-2010 23:45:04 -9.3 C 2.01 g/m*3 -9.3 C 0 km/h
2878 04-01-2010 23:57:04 -9.4 C 2 g/m*3 -9.4 C 0 km/h
2879 05-01-2010 00:09:04 -9.6 C 1.97 g/m*3 -9.6 C 0 km/h
2880 05-01-2010 00:21:04 -9.5 C 1.98 g/m*3 -9.5 C 0 km/h
2881 05-01-2010 00:33:04 -9.5 C 1.98 g/m*3 -9.5 C 0 km/h
2882 05-01-2010 00:45:04 -9.5 C 2.01 g/m*3 -9.5 C 0 km/h
2883 05-01-2010 00:57:04 -9.7 C 1.98 g/m*3 -9.7 C 0 km/h
2884 05-01-2010 01:09:04 -9.7 C 1.98 g/m*3 -9.7 C 0 km/h
2885 05-01-2010 01:21:04 -9.8 C 1.96 g/m*3 -9.8 C 0 km/h
2886 05-01-2010 01:33:04 -9.8 C 1.96 g/m*3 -9.8 C 0 km/h
2887 05-01-2010 01:45:04 -9.8 C 1.96 g/m*3 -9.8 C 0 km/h
2888 05-01-2010 01:57:04 -9.9 C 1.95 g/m*3 -9.9 C 0 km/h
2889 05-01-2010 02:09:04 -10 C 1.93 g/m*3 -10 C 0 km/h
2890 05-01-2010 02:21:05 -10 C 1.93 g/m*3 -10 C 0 km/h
2891 05-01-2010 02:33:05 -10.1 C 1.92 g/m*3 -10.1 C 0 km/h
2892 05-01-2010 02:45:05 -10.2 C 1.9 g/m*3 -10.2 C 0 km/h
2893 05-01-2010 02:57:05 -10.2 C 1.9 g/m*3 -10.2 C 0 km/h
2894 05-01-2010 03:09:05 -10.1 C 1.92 g/m*3 -10.1 C 0 km/h
2895 05-01-2010 03:21:05 -10.2 C 1.9 g/m*3 -10.2 C 0 km/h
2896 05-01-2010 03:33:05 -10.3 C 1.89 g/m*3 -10.3 C 0 km/h
2897 05-01-2010 03:45:05 -10.2 C 1.9 g/m*3 -10.2 C 0 km/h
2898 05-01-2010 03:57:05 -10.2 C 1.9 g/m*3 -10.2 C 0 km/h
2899 05-01-2010 04:09:05 -10.2 C 1.9 g/m*3 -10.2 C 0 km/h
2900 05-01-2010 04:21:05 -10.3 C 1.89 g/m*3 -10.3 C 0 km/h
Sensor: Nr:Datum:Temp:Abs-Feuchte:Windchill:Wind:
Aussen-T/F 2901 05-01-2010 04:33:05 -10.2 C 1.9 g/m*3 -10.2 C 0 km/h
2902 05-01-2010 04:45:05 -10.1 C 1.92 g/m*3 -10.1 C 0 km/h
2903 05-01-2010 04:57:05 -9.6 C 2.01 g/m*3 -9.6 C 0 km/h
2904 05-01-2010 05:09:05 -9.1 C 2.12 g/m*3 -9.1 C 0 km/h
2905 05-01-2010 05:21:05 -8.7 C 2.18 g/m*3 -8.7 C 0 km/h
2906 05-01-2010 05:33:05 -8.5 C 2.21 g/m*3 -8.5 C 0 km/h
2907 05-01-2010 05:45:05 -8.4 C 2.2 g/m*3 -8.4 C 0 km/h
2908 05-01-2010 05:57:05 -8.2 C 2.24 g/m*3 -8.2 C 0 km/h
2909 05-01-2010 06:09:05 -8 C 2.27 g/m*3 -8 C 0 km/h
2910 05-01-2010 06:21:05 -7.9 C 2.29 g/m*3 -7.9 C 0 km/h
2911 05-01-2010 06:33:06 -7.9 C 2.26 g/m*3 -7.9 C 0 km/h
2912 05-01-2010 06:45:06 -8.2 C 2.18 g/m*3 -8.2 C 0 km/h
2913 05-01-2010 06:57:06 -8.6 C 2.12 g/m*3 -8.6 C 0 km/h
2914 05-01-2010 07:09:06 -8.8 C 2.06 g/m*3 -8.8 C 0 km/h
2915 05-01-2010 07:21:06 -8.9 C 2.05 g/m*3 -8.9 C 0 km/h
2916 05-01-2010 07:33:06 -8.9 C 2.07 g/m*3 -8.9 C 0 km/h
2917 05-01-2010 07:45:06 -8.9 C 2.07 g/m*3 -8.9 C 0 km/h
2918 05-01-2010 07:57:06 -8.9 C 2.07 g/m*3 -8.9 C 0 km/h
2919 05-01-2010 08:09:06 -8.9 C 2.07 g/m*3 -8.9 C 0 km/h
2920 05-01-2010 08:21:06 -9 C 2.06 g/m*3 -9 C 0 km/h
2921 05-01-2010 08:33:03 -9 C 2.06 g/m*3 -9 C 0 km/h
2922 05-01-2010 08:45:02 -9 C 2.06 g/m*3 -9 C 0 km/h
2923 05-01-2010 08:57:02 -9 C 2.06 g/m*3 -9 C 0 km/h
2924 05-01-2010 09:09:02 -9 C 2.06 g/m*3 -9 C 0 km/h
2925 05-01-2010 09:21:02 -9 C 2.06 g/m*3 -9 C 0 km/h
Sensor: Nr:Datum:Temp:Abs-Feuchte:Windchill:Wind:
Aussen-T/F 2926 05-01-2010 09:33:02 -9 C 2.06 g/m*3 -9 C 0 km/h
2927 05-01-2010 09:45:01 -8.9 C 2.07 g/m*3 -8.9 C 0 km/h
2928 05-01-2010 09:57:01 -8.9 C 2.07 g/m*3 -8.9 C 0 km/h
2929 05-01-2010 10:09:02 -8.6 C 2.14 g/m*3 -8.6 C 0 km/h
2930 05-01-2010 10:21:01 -8.4 C 2.18 g/m*3 -8.4 C 0 km/h
2931 05-01-2010 10:33:01 -8.4 C 2.15 g/m*3 -8.4 C 0 km/h
2932 05-01-2010 10:45:01 -8.3 C 2.17 g/m*3 -8.3 C 0 km/h
2933 05-01-2010 10:57:01 -8.3 C 2.17 g/m*3 -8.3 C 0 km/h
2934 05-01-2010 11:09:01 -8.2 C 2.18 g/m*3 -8.2 C 0 km/h
2935 05-01-2010 11:21:02 -8 C 2.22 g/m*3 -8 C 0 km/h
2936 05-01-2010 11:33:01 -7.9 C 2.23 g/m*3 -7.9 C 0 km/h
2937 05-01-2010 11:45:01 -7.8 C 2.25 g/m*3 -7.8 C 0 km/h
2938 05-01-2010 11:57:01 -7.7 C 2.26 g/m*3 -7.7 C 0 km/h
2939 05-01-2010 12:09:01 -7.5 C 2.3 g/m*3 -7.5 C 0 km/h
2940 05-01-2010 12:21:02 -7.3 C 2.33 g/m*3 -7.3 C 0 km/h
2941 05-01-2010 12:33:01 -7.2 C 2.35 g/m*3 -7.2 C 0 km/h
2942 05-01-2010 12:45:03 -7.1 C 2.37 g/m*3 -7.1 C 0 km/h
2943 05-01-2010 12:57:03 -6.8 C 2.42 g/m*3 -6.8 C 0 km/h
2944 05-01-2010 13:09:02 -6.6 C 2.46 g/m*3 -6.6 C 0 km/h
2945 05-01-2010 13:21:02 -6.6 C 2.43 g/m*3 -6.6 C 0 km/h
2946 05-01-2010 13:33:02 -6.5 C 2.44 g/m*3 -6.5 C 0 km/h
2947 05-01-2010 13:45:02 -6.4 C 2.46 g/m*3 -6.4 C 0 km/h
2948 05-01-2010 13:57:02 -6.4 C 2.46 g/m*3 -6.4 C 0 km/h
2949 05-01-2010 14:09:02 -6.1 C 2.52 g/m*3 -6.1 C 0 km/h
2950 05-01-2010 14:21:02 -6 C 2.53 g/m*3 -6 C 0 km/h
Sensor: Nr:Datum:Temp:Abs-Feuchte:Windchill:Wind:
Aussen-T/F 2951 05-01-2010 14:33:01 -5.9 C 2.52 g/m*3 -5.9 C 0 km/h
2952 05-01-2010 14:45:02 -5.7 C 2.56 g/m*3 -5.7 C 0 km/h
2953 05-01-2010 14:57:02 -5.7 C 2.52 g/m*3 -5.7 C 0 km/h
2954 05-01-2010 15:09:01 -5.6 C 2.54 g/m*3 -5.6 C 0 km/h
2955 05-01-2010 15:21:02 -5.6 C 2.54 g/m*3 -5.6 C 0 km/h
2956 05-01-2010 15:33:01 -5.6 C 2.51 g/m*3 -5.6 C 0 km/h
2957 05-01-2010 15:45:02 -5.6 C 2.51 g/m*3 -5.6 C 0 km/h
2958 05-01-2010 15:57:02 -5.6 C 2.54 g/m*3 -5.6 C 0 km/h
2959 05-01-2010 16:09:02 -5.7 C 2.52 g/m*3 -5.7 C 0 km/h
2960 05-01-2010 16:21:02 -5.7 C 2.52 g/m*3 -5.7 C 0 km/h
2961 05-01-2010 16:33:03 -5.8 C 2.54 g/m*3 -5.8 C 0 km/h
2962 05-01-2010 16:45:04 -6 C 2.5 g/m*3 -6 C 0 km/h
2963 05-01-2010 16:57:04 -6.2 C 2.47 g/m*3 -6.2 C 0 km/h
2964 05-01-2010 17:09:02 -6.3 C 2.45 g/m*3 -6.3 C 0 km/h
2965 05-01-2010 17:21:02 -6.5 C 2.44 g/m*3 -6.5 C 0 km/h
2966 05-01-2010 17:33:01 -6.6 C 2.43 g/m*3 -6.6 C 0 km/h
2967 05-01-2010 17:45:03 -6.8 C 2.39 g/m*3 -6.8 C 0 km/h
2968 05-01-2010 17:57:03 -6.9 C 2.37 g/m*3 -6.9 C 0 km/h
2969 05-01-2010 18:09:03 -7 C 2.38 g/m*3 -7 C 0 km/h
2970 05-01-2010 18:21:02 -7.1 C 2.37 g/m*3 -7.1 C 0 km/h
2971 05-01-2010 18:33:03 -7.3 C 2.33 g/m*3 -7.3 C 0 km/h
2972 05-01-2010 18:45:02 -7.3 C 2.33 g/m*3 -7.3 C 0 km/h
2973 05-01-2010 18:57:03 -7.4 C 2.34 g/m*3 -7.4 C 0 km/h
2974 05-01-2010 19:09:01 -7.3 C 2.36 g/m*3 -7.3 C 0 km/h
2975 05-01-2010 19:21:02 -7.2 C 2.38 g/m*3 -7.2 C 0 km/h
Sensor: Nr:Datum:Temp:Abs-Feuchte:Windchill:Wind:
Aussen-T/F 2976 05-01-2010 19:33:02 -7.2 C 2.38 g/m*3 -7.2 C 0 km/h
2977 05-01-2010 19:45:02 -7.3 C 2.36 g/m*3 -7.3 C 0 km/h
2978 05-01-2010 19:57:02 -7.4 C 2.34 g/m*3 -7.4 C 0 km/h
2979 05-01-2010 20:09:02 -7.5 C 2.33 g/m*3 -7.5 C 0 km/h
2980 05-01-2010 20:21:04 -7.4 C 2.37 g/m*3 -7.4 C 0 km/h
2981 05-01-2010 20:33:02 -7.4 C 2.37 g/m*3 -7.4 C 0 km/h
2982 05-01-2010 20:45:02 -7 C 2.44 g/m*3 -7 C 0 km/h
2983 05-01-2010 20:57:03 -6.9 C 2.46 g/m*3 -6.9 C 0 km/h
2984 05-01-2010 21:09:01 -6.9 C 2.46 g/m*3 -6.9 C 0 km/h
2985 05-01-2010 21:21:02 -6.9 C 2.46 g/m*3 -6.9 C 0 km/h
2986 05-01-2010 21:33:02 -7.1 C 2.43 g/m*3 -7.1 C 0 km/h
2987 05-01-2010 21:45:01 -7.3 C 2.39 g/m*3 -7.3 C 0 km/h
2988 05-01-2010 21:57:02 -7.3 C 2.39 g/m*3 -7.3 C 0 km/h
2989 05-01-2010 22:09:02 -7.5 C 2.33 g/m*3 -7.5 C 0 km/h
2990 05-01-2010 22:21:02 -7.7 C 2.29 g/m*3 -7.7 C 0 km/h
2991 05-01-2010 22:33:01 -7.8 C 2.28 g/m*3 -7.8 C 0 km/h
2992 05-01-2010 22:45:02 -7.9 C 2.26 g/m*3 -7.9 C 0 km/h
2993 05-01-2010 22:57:02 -7.9 C 2.26 g/m*3 -7.9 C 0 km/h
2994 05-01-2010 23:09:02 -8 C 2.27 g/m*3 -8 C 0 km/h
2995 05-01-2010 23:21:02 -8.2 C 2.21 g/m*3 -8.2 C 0 km/h
2996 05-01-2010 23:34:04 -8.2 C 2.24 g/m*3 -8.2 C 0 km/h
2997 05-01-2010 23:46:04 -8.2 C 2.24 g/m*3 -8.2 C 0 km/h
2998 05-01-2010 23:58:04 -8.3 C 2.22 g/m*3 -8.3 C 0 km/h
2999 06-01-2010 00:10:04 -8.4 C 2.2 g/m*3 -8.4 C 0 km/h
3000 06-01-2010 00:22:04 -8.5 C 2.16 g/m*3 -8.5 C 0 km/h
Sensor: Nr:Datum:Temp:Abs-Feuchte:Windchill:Wind:
Aussen-T/F 3001 06-01-2010 00:34:04 -8.6 C 2.17 g/m*3 -8.6 C 0 km/h
3002 06-01-2010 00:46:04 -8.6 C 2.17 g/m*3 -8.6 C 0 km/h
3003 06-01-2010 00:58:04 -8.7 C 2.15 g/m*3 -8.7 C 0 km/h
3004 06-01-2010 01:10:04 -8.9 C 2.12 g/m*3 -8.9 C 0 km/h
3005 06-01-2010 01:22:04 -8.9 C 2.12 g/m*3 -8.9 C 0 km/h
3006 06-01-2010 01:34:05 -9 C 2.11 g/m*3 -9 C 0 km/h
3007 06-01-2010 01:46:05 -9.1 C 2.09 g/m*3 -9.1 C 0 km/h
3008 06-01-2010 01:58:05 -9.2 C 2.08 g/m*3 -9.2 C 0 km/h
3009 06-01-2010 02:10:05 -9.2 C 2.08 g/m*3 -9.2 C 0 km/h
3010 06-01-2010 02:22:05 -9.3 C 2.06 g/m*3 -9.3 C 0 km/h
3011 06-01-2010 02:34:05 -9.4 C 2.05 g/m*3 -9.4 C 0 km/h
3012 06-01-2010 02:46:05 -9.4 C 2.05 g/m*3 -9.4 C 0 km/h
3013 06-01-2010 02:58:05 -9.4 C 2.05 g/m*3 -9.4 C 0 km/h
3014 06-01-2010 03:10:05 -9.4 C 2.05 g/m*3 -9.4 C 0 km/h
3015 06-01-2010 03:22:05 -9.4 C 2.05 g/m*3 -9.4 C 0 km/h
3016 06-01-2010 03:34:05 -9.5 C 2.03 g/m*3 -9.5 C 0 km/h
3017 06-01-2010 03:46:05 -9.6 C 1.99 g/m*3 -9.6 C 0 km/h
3018 06-01-2010 03:58:05 -9.6 C 1.99 g/m*3 -9.6 C 0 km/h
3019 06-01-2010 04:10:05 -9.7 C 1.98 g/m*3 -9.7 C 0 km/h
3020 06-01-2010 04:22:05 -9.8 C 1.96 g/m*3 -9.8 C 0 km/h
3021 06-01-2010 04:34:05 -9.7 C 1.98 g/m*3 -9.7 C 0 km/h
3022 06-01-2010 04:46:05 -9.8 C 1.96 g/m*3 -9.8 C 0 km/h
3023 06-01-2010 04:58:05 -9.8 C 1.96 g/m*3 -9.8 C 0 km/h
3024 06-01-2010 05:10:05 -9.8 C 1.96 g/m*3 -9.8 C 0 km/h
3025 06-01-2010 05:22:05 -9.8 C 1.96 g/m*3 -9.8 C 0 km/h
Sensor: Nr:Datum:Temp:Abs-Feuchte:Windchill:Wind:
Aussen-T/F 3026 06-01-2010 05:34:05 -9.9 C 1.95 g/m*3 -9.9 C 0 km/h
3027 06-01-2010 05:46:06 -10 C 1.93 g/m*3 -10 C 0 km/h
3028 06-01-2010 05:58:06 -10 C 1.93 g/m*3 -10 C 0 km/h
3029 06-01-2010 06:10:06 -10 C 1.93 g/m*3 -10 C 0 km/h
3030 06-01-2010 06:22:06 -10 C 1.93 g/m*3 -10 C 0 km/h
3031 06-01-2010 06:34:06 -10 C 1.93 g/m*3 -10 C 0 km/h
3032 06-01-2010 06:46:06 -10.2 C 1.9 g/m*3 -10.2 C 0 km/h
3033 06-01-2010 06:58:06 -10.2 C 1.88 g/m*3 -10.2 C 0 km/h
3034 06-01-2010 07:10:06 -10.3 C 1.87 g/m*3 -10.3 C 0 km/h
3035 06-01-2010 07:22:06 -10.3 C 1.87 g/m*3 -10.3 C 0 km/h
3036 06-01-2010 07:34:06 -10.4 C 1.85 g/m*3 -10.4 C 0 km/h
3037 06-01-2010 07:46:06 -10.4 C 1.85 g/m*3 -10.4 C 0 km/h
3038 06-01-2010 07:58:06 -10.1 C 1.89 g/m*3 -10.1 C 0 km/h
3039 06-01-2010 08:10:04 -9.7 C 1.98 g/m*3 -9.7 C 0 km/h
3040 06-01-2010 08:22:04 -9.5 C 1.98 g/m*3 -9.5 C 0 km/h
3041 06-01-2010 08:34:04 -9.4 C 2 g/m*3 -9.4 C 0 km/h
3042 06-01-2010 08:46:02 -9.3 C 1.99 g/m*3 -9.3 C 0 km/h
3043 06-01-2010 08:58:02 -9.3 C 1.96 g/m*3 -9.3 C 0 km/h
3044 06-01-2010 09:10:02 -9.2 C 1.98 g/m*3 -9.2 C 0 km/h
3045 06-01-2010 09:22:01 -9.1 C 1.97 g/m*3 -9.1 C 0 km/h
3046 06-01-2010 09:34:02 -8.9 C 2 g/m*3 -8.9 C 0 km/h
3047 06-01-2010 09:46:03 -8.7 C 2.03 g/m*3 -8.7 C 0 km/h
3048 06-01-2010 09:58:03 -8.6 C 2.01 g/m*3 -8.6 C 0 km/h
3049 06-01-2010 10:10:02 -8.3 C 2.06 g/m*3 -8.3 C 0 km/h
3050 06-01-2010 10:22:02 -8.2 C 2.05 g/m*3 -8.2 C 0 km/h
Sensor: Nr:Datum:Temp:Abs-Feuchte:Windchill:Wind:
Aussen-T/F 3051 06-01-2010 10:34:02 -8 C 2.08 g/m*3 -8 C 0 km/h
3052 06-01-2010 10:46:02 -7.6 C 2.11 g/m*3 -7.6 C 0 km/h
3053 06-01-2010 10:58:02 -7.3 C 2.13 g/m*3 -7.3 C 0 km/h
3054 06-01-2010 11:10:02 -7.1 C 2.13 g/m*3 -7.1 C 0 km/h
3055 06-01-2010 11:22:02 -6.8 C 2.18 g/m*3 -6.8 C 0 km/h
3056 06-01-2010 11:34:01 -6.8 C 2.18 g/m*3 -6.8 C 0 km/h
3057 06-01-2010 11:46:02 -6.6 C 2.21 g/m*3 -6.6 C 0 km/h
3058 06-01-2010 11:58:02 -6.5 C 2.23 g/m*3 -6.5 C 0 km/h
3059 06-01-2010 12:10:01 -6.3 C 2.26 g/m*3 -6.3 C 0 km/h
3060 06-01-2010 12:22:02 -6.4 C 2.21 g/m*3 -6.4 C 0 km/h
3061 06-01-2010 12:34:01 -6.3 C 2.26 g/m*3 -6.3 C 0 km/h
3062 06-01-2010 12:46:02 -6 C 2.31 g/m*3 -6 C 0 km/h
3063 06-01-2010 12:58:02 -5.8 C 2.35 g/m*3 -5.8 C 0 km/h
3064 06-01-2010 13:10:02 -5.6 C 2.35 g/m*3 -5.6 C 0 km/h
3065 06-01-2010 13:22:02 -5.4 C 2.38 g/m*3 -5.4 C 0 km/h
3066 06-01-2010 13:34:02 -5.3 C 2.4 g/m*3 -5.3 C 0 km/h
3067 06-01-2010 13:46:02 -4.9 C 2.43 g/m*3 -4.9 C 0 km/h
3068 06-01-2010 13:58:02 -4.8 C 2.45 g/m*3 -4.8 C 0 km/h
3069 06-01-2010 14:10:01 -4.5 C 2.54 g/m*3 -4.5 C 0 km/h
3070 06-01-2010 14:22:02 -4.5 C 2.51 g/m*3 -4.5 C 0 km/h
3071 06-01-2010 14:34:01 -4.4 C 2.49 g/m*3 -4.4 C 0 km/h
3072 06-01-2010 14:46:01 -4.2 C 2.52 g/m*3 -4.2 C 0 km/h
3073 06-01-2010 14:58:01 -4.1 C 2.51 g/m*3 -4.1 C 0 km/h
3074 06-01-2010 15:10:02 -3.9 C 2.54 g/m*3 -3.9 C 0 km/h
3075 06-01-2010 15:22:01 -4 C 2.52 g/m*3 -4 C 0 km/h
Sensor: Nr:Datum:Temp:Abs-Feuchte:Windchill:Wind:
Aussen-T/F 3076 06-01-2010 15:34:01 -4 C 2.52 g/m*3 -4 C 0 km/h
3077 06-01-2010 15:46:01 -4 C 2.56 g/m*3 -4 C 0 km/h
3078 06-01-2010 15:58:01 -4 C 2.6 g/m*3 -4 C 0 km/h
3079 06-01-2010 16:10:02 -4 C 2.6 g/m*3 -4 C 0 km/h
3080 06-01-2010 16:22:01 -4.1 C 2.58 g/m*3 -4.1 C 0 km/h
3081 06-01-2010 16:34:02 -4.1 C 2.62 g/m*3 -4.1 C 0 km/h
3082 06-01-2010 16:46:01 -4.2 C 2.6 g/m*3 -4.2 C 0 km/h
3083 06-01-2010 16:58:01 -4.2 C 2.63 g/m*3 -4.2 C 0 km/h
3084 06-01-2010 17:10:02 -4.2 C 2.63 g/m*3 -4.2 C 0 km/h
3085 06-01-2010 17:22:01 -4.3 C 2.61 g/m*3 -4.3 C 0 km/h
3086 06-01-2010 17:34:02 -4.3 C 2.65 g/m*3 -4.3 C 0 km/h
3087 06-01-2010 17:46:01 -4.3 C 2.65 g/m*3 -4.3 C 0 km/h
3088 06-01-2010 17:58:01 -4.3 C 2.69 g/m*3 -4.3 C 0 km/h
3089 06-01-2010 18:10:02 -4.3 C 2.69 g/m*3 -4.3 C 0 km/h
3090 06-01-2010 18:22:01 -4.3 C 2.69 g/m*3 -4.3 C 0 km/h
3091 06-01-2010 18:34:02 -4.4 C 2.67 g/m*3 -4.4 C 0 km/h
3092 06-01-2010 18:46:01 -4.4 C 2.67 g/m*3 -4.4 C 0 km/h
3093 06-01-2010 18:58:01 -4.4 C 2.67 g/m*3 -4.4 C 0 km/h
3094 06-01-2010 19:10:02 -4.4 C 2.67 g/m*3 -4.4 C 0 km/h
3095 06-01-2010 19:22:01 -4.4 C 2.7 g/m*3 -4.4 C 0 km/h
3096 06-01-2010 19:34:02 -4.4 C 2.7 g/m*3 -4.4 C 0 km/h
3097 06-01-2010 19:46:01 -4.4 C 2.7 g/m*3 -4.4 C 0 km/h
3098 06-01-2010 19:58:01 -4.5 C 2.68 g/m*3 -4.5 C 0 km/h
3099 06-01-2010 20:10:02 -4.4 C 2.74 g/m*3 -4.4 C 0 km/h
3100 06-01-2010 20:22:02 -4.4 C 2.7 g/m*3 -4.4 C 0 km/h
Sensor: Nr:Datum:Temp:Abs-Feuchte:Windchill:Wind:
Aussen-T/F 3101 06-01-2010 20:34:01 -4.2 C 2.67 g/m*3 -4.2 C 0 km/h
3102 06-01-2010 20:46:01 -4.2 C 2.63 g/m*3 -4.2 C 0 km/h
3103 06-01-2010 20:58:01 -4.2 C 2.6 g/m*3 -4.2 C 0 km/h
3104 06-01-2010 21:10:01 -4.2 C 2.52 g/m*3 -4.2 C 0 km/h
3105 06-01-2010 21:22:02 -4.3 C 2.47 g/m*3 -4.3 C 0 km/h
3106 06-01-2010 21:34:01 -4.5 C 2.36 g/m*3 -4.5 C 0 km/h
3107 06-01-2010 21:46:03 -4.7 C 2.3 g/m*3 -4.7 C 0 km/h
3108 06-01-2010 21:58:03 -4.8 C 2.28 g/m*3 -4.8 C 0 km/h
3109 06-01-2010 22:10:02 -4.8 C 2.25 g/m*3 -4.8 C 0 km/h
3110 06-01-2010 22:22:02 -4.9 C 2.23 g/m*3 -4.9 C 0 km/h
3111 06-01-2010 22:35:04 -5 C 2.21 g/m*3 -5 C 0 km/h
3112 06-01-2010 22:47:04 -5 C 2.21 g/m*3 -5 C 0 km/h
3113 06-01-2010 22:59:04 -5.2 C 2.22 g/m*3 -5.2 C 0 km/h
3114 06-01-2010 23:11:04 -5.3 C 2.23 g/m*3 -5.3 C 0 km/h
3115 06-01-2010 23:23:04 -5.3 C 2.27 g/m*3 -5.3 C 0 km/h
3116 06-01-2010 23:35:04 -5.3 C 2.3 g/m*3 -5.3 C 0 km/h
3117 06-01-2010 23:47:04 -5.3 C 2.3 g/m*3 -5.3 C 0 km/h
3118 06-01-2010 23:59:04 -5.2 C 2.35 g/m*3 -5.2 C 0 km/h
3119 07-01-2010 00:11:04 -5.2 C 2.35 g/m*3 -5.2 C 0 km/h
3120 07-01-2010 00:23:04 -5.3 C 2.37 g/m*3 -5.3 C 0 km/h
3121 07-01-2010 00:35:04 -5.3 C 2.37 g/m*3 -5.3 C 0 km/h
3122 07-01-2010 00:47:04 -5.3 C 2.37 g/m*3 -5.3 C 0 km/h
3123 07-01-2010 00:59:04 -5.2 C 2.38 g/m*3 -5.2 C 0 km/h
3124 07-01-2010 01:11:04 -5.1 C 2.4 g/m*3 -5.1 C 0 km/h
3125 07-01-2010 01:23:04 -5.2 C 2.42 g/m*3 -5.2 C 0 km/h
Sensor: Nr:Datum:Temp:Abs-Feuchte:Windchill:Wind:
Aussen-T/F 3126 07-01-2010 01:35:04 -5.2 C 2.38 g/m*3 -5.2 C 0 km/h
3127 07-01-2010 01:47:04 -5.1 C 2.4 g/m*3 -5.1 C 0 km/h
3128 07-01-2010 01:59:05 -5.4 C 2.32 g/m*3 -5.4 C 0 km/h
3129 07-01-2010 02:11:05 -5.9 C 2.23 g/m*3 -5.9 C 0 km/h
3130 07-01-2010 02:23:05 -5.8 C 2.31 g/m*3 -5.8 C 0 km/h
3131 07-01-2010 02:35:05 -5.7 C 2.33 g/m*3 -5.7 C 0 km/h
3132 07-01-2010 02:47:05 -5.7 C 2.36 g/m*3 -5.7 C 0 km/h
3133 07-01-2010 02:59:05 -5.9 C 2.3 g/m*3 -5.9 C 0 km/h
3134 07-01-2010 03:11:05 -6.1 C 2.3 g/m*3 -6.1 C 0 km/h
3135 07-01-2010 03:23:05 -6.1 C 2.3 g/m*3 -6.1 C 0 km/h
3136 07-01-2010 03:35:05 -6 C 2.34 g/m*3 -6 C 0 km/h
3137 07-01-2010 03:47:05 -5.8 C 2.41 g/m*3 -5.8 C 0 km/h
3138 07-01-2010 03:59:05 -5.6 C 2.45 g/m*3 -5.6 C 0 km/h
3139 07-01-2010 04:11:05 -5.6 C 2.45 g/m*3 -5.6 C 0 km/h
3140 07-01-2010 04:23:05 -5.6 C 2.45 g/m*3 -5.6 C 0 km/h
3141 07-01-2010 04:35:05 -5.4 C 2.48 g/m*3 -5.4 C 0 km/h
3142 07-01-2010 04:47:05 -5.3 C 2.53 g/m*3 -5.3 C 0 km/h
3143 07-01-2010 04:59:05 -5.2 C 2.55 g/m*3 -5.2 C 0 km/h
3144 07-01-2010 05:11:05 -5.2 C 2.55 g/m*3 -5.2 C 0 km/h
3145 07-01-2010 05:23:05 -5.2 C 2.55 g/m*3 -5.2 C 0 km/h
3146 07-01-2010 05:35:05 -5.1 C 2.57 g/m*3 -5.1 C 0 km/h
3147 07-01-2010 05:47:05 -5 C 2.59 g/m*3 -5 C 0 km/h
3148 07-01-2010 05:59:05 -5 C 2.59 g/m*3 -5 C 0 km/h
3149 07-01-2010 06:11:05 -5 C 2.59 g/m*3 -5 C 0 km/h
3150 07-01-2010 06:23:06 -4.9 C 2.61 g/m*3 -4.9 C 0 km/h
Sensor: Nr:Datum:Temp:Abs-Feuchte:Windchill:Wind:
Aussen-T/F 3151 07-01-2010 06:35:06 -5 C 2.59 g/m*3 -5 C 0 km/h
3152 07-01-2010 06:47:06 -4.9 C 2.61 g/m*3 -4.9 C 0 km/h
3153 07-01-2010 06:59:06 -5 C 2.59 g/m*3 -5 C 0 km/h
3154 07-01-2010 07:11:06 -4.9 C 2.64 g/m*3 -4.9 C 0 km/h
3155 07-01-2010 07:23:06 -5 C 2.62 g/m*3 -5 C 0 km/h
3156 07-01-2010 07:35:06 -5 C 2.62 g/m*3 -5 C 0 km/h
3157 07-01-2010 07:47:06 -5 C 2.62 g/m*3 -5 C 0 km/h
3158 07-01-2010 07:59:06 -4.9 C 2.64 g/m*3 -4.9 C 0 km/h
3159 07-01-2010 08:11:06 -4.8 C 2.69 g/m*3 -4.8 C 0 km/h
3160 07-01-2010 08:23:03 -4.8 C 2.69 g/m*3 -4.8 C 0 km/h
3161 07-01-2010 08:35:04 -4.8 C 2.69 g/m*3 -4.8 C 0 km/h
3162 07-01-2010 08:47:02 -4.7 C 2.71 g/m*3 -4.7 C 0 km/h
3163 07-01-2010 08:59:02 -4.8 C 2.69 g/m*3 -4.8 C 0 km/h
3164 07-01-2010 09:11:02 -4.8 C 2.69 g/m*3 -4.8 C 0 km/h
3165 07-01-2010 09:23:02 -4.6 C 2.77 g/m*3 -4.6 C 0 km/h
3166 07-01-2010 09:35:02 -4.5 C 2.75 g/m*3 -4.5 C 0 km/h
3167 07-01-2010 09:47:02 -4.3 C 2.79 g/m*3 -4.3 C 0 km/h
3168 07-01-2010 09:59:02 -4.1 C 2.83 g/m*3 -4.1 C 0 km/h
3169 07-01-2010 10:11:02 -3.9 C 2.87 g/m*3 -3.9 C 0 km/h
3170 07-01-2010 10:23:01 -3.7 C 2.92 g/m*3 -3.7 C 0 km/h
3171 07-01-2010 10:35:02 -3.4 C 2.94 g/m*3 -3.4 C 0 km/h
3172 07-01-2010 10:47:02 -3.3 C 2.92 g/m*3 -3.3 C 0 km/h
3173 07-01-2010 10:59:02 -3.2 C 2.87 g/m*3 -3.2 C 0 km/h
3174 07-01-2010 11:11:02 -2.9 C 2.93 g/m*3 -2.9 C 0 km/h
3175 07-01-2010 11:23:01 -2.8 C 2.91 g/m*3 -2.8 C 0 km/h
Sensor: Nr:Datum:Temp:Abs-Feuchte:Windchill:Wind:
Aussen-T/F 3176 07-01-2010 11:35:02 -3.1 C 2.81 g/m*3 -3.1 C 0 km/h
3177 07-01-2010 11:47:02 -2.9 C 2.85 g/m*3 -2.9 C 0 km/h
3178 07-01-2010 11:59:02 -2.6 C 2.91 g/m*3 -2.6 C 0 km/h
3179 07-01-2010 12:11:02 -2 C 3.03 g/m*3 -2 C 0 km/h
3180 07-01-2010 12:23:01 -1.6 C 3.08 g/m*3 -1.6 C 0 km/h
3181 07-01-2010 12:35:02 -1.9 C 2.97 g/m*3 -1.9 C 0 km/h
3182 07-01-2010 12:47:01 -2.3 C 2.89 g/m*3 -2.3 C 0 km/h
3183 07-01-2010 12:59:01 -2.1 C 2.97 g/m*3 -2.1 C 0 km/h
3184 07-01-2010 13:11:02 -1.6 C 3.08 g/m*3 -1.6 C 0 km/h
3185 07-01-2010 13:23:02 -1.4 C 3.08 g/m*3 -1.4 C 0 km/h
3186 07-01-2010 13:35:02 -1.2 C 3.12 g/m*3 -1.2 C 0 km/h
3187 07-01-2010 13:47:01 -1.1 C 3.1 g/m*3 -1.1 C 0 km/h
3188 07-01-2010 13:59:01 -1.1 C 3.1 g/m*3 -1.1 C 0 km/h
3189 07-01-2010 14:11:02 -1.1 C 3.05 g/m*3 -1.1 C 0 km/h
3190 07-01-2010 14:23:01 -1.3 C 3.01 g/m*3 -1.3 C 0 km/h
3191 07-01-2010 14:35:02 -1.3 C 3.01 g/m*3 -1.3 C 0 km/h
3192 07-01-2010 14:47:02 -1.4 C 3.03 g/m*3 -1.4 C 0 km/h
3193 07-01-2010 14:59:02 -1.4 C 3.03 g/m*3 -1.4 C 0 km/h
3194 07-01-2010 15:11:02 -1.4 C 3.03 g/m*3 -1.4 C 0 km/h
3195 07-01-2010 15:23:02 -1.6 C 3.03 g/m*3 -1.6 C 0 km/h
3196 07-01-2010 15:35:02 -1.8 C 2.95 g/m*3 -1.8 C 0 km/h
3197 07-01-2010 15:47:02 -1.8 C 3.04 g/m*3 -1.8 C 0 km/h
3198 07-01-2010 15:59:02 -1.9 C 3.06 g/m*3 -1.9 C 0 km/h
3199 07-01-2010 16:11:03 -2 C 3.03 g/m*3 -2 C 0 km/h
3200 07-01-2010 16:23:02 -2.1 C 3.06 g/m*3 -2.1 C 0 km/h
Sensor: Nr:Datum:Temp:Abs-Feuchte:Windchill:Wind:
Aussen-T/F 3201 07-01-2010 16:35:02 -2.2 C 3.08 g/m*3 -2.2 C 0 km/h
3202 07-01-2010 16:47:02 -2.2 C 3.12 g/m*3 -2.2 C 0 km/h
3203 07-01-2010 16:59:02 -2.3 C 3.1 g/m*3 -2.3 C 0 km/h
3204 07-01-2010 17:11:02 -2.4 C 3.11 g/m*3 -2.4 C 0 km/h
3205 07-01-2010 17:23:02 -2.5 C 3.13 g/m*3 -2.5 C 0 km/h
3206 07-01-2010 17:35:02 -2.6 C 3.11 g/m*3 -2.6 C 0 km/h
3207 07-01-2010 17:47:02 -2.7 C 3.13 g/m*3 -2.7 C 0 km/h
3208 07-01-2010 17:59:02 -2.8 C 3.11 g/m*3 -2.8 C 0 km/h
3209 07-01-2010 18:11:02 -3 C 3.06 g/m*3 -3 C 0 km/h
3210 07-01-2010 18:23:01 -3.1 C 3.08 g/m*3 -3.1 C 0 km/h
3211 07-01-2010 18:35:02 -3.1 C 3.08 g/m*3 -3.1 C 0 km/h
3212 07-01-2010 18:47:02 -3.1 C 3.08 g/m*3 -3.1 C 0 km/h
3213 07-01-2010 18:59:02 -3.1 C 3.04 g/m*3 -3.1 C 0 km/h
3214 07-01-2010 19:11:02 -3.1 C 3.04 g/m*3 -3.1 C 0 km/h
3215 07-01-2010 19:23:02 -3.2 C 3.02 g/m*3 -3.2 C 0 km/h
3216 07-01-2010 19:35:02 -3.3 C 3 g/m*3 -3.3 C 0 km/h
3217 07-01-2010 19:47:02 -3.3 C 3.04 g/m*3 -3.3 C 0 km/h
3218 07-01-2010 19:59:02 -3.3 C 3.04 g/m*3 -3.3 C 0 km/h
3219 07-01-2010 20:11:02 -3.5 C 2.99 g/m*3 -3.5 C 0 km/h
3220 07-01-2010 20:23:02 -3.7 C 2.99 g/m*3 -3.7 C 0 km/h
3221 07-01-2010 20:35:02 -3.5 C 3.03 g/m*3 -3.5 C 0 km/h
3222 07-01-2010 20:47:01 -3.5 C 3.03 g/m*3 -3.5 C 0 km/h
3223 07-01-2010 20:59:01 -3.4 C 3.05 g/m*3 -3.4 C 0 km/h
3224 07-01-2010 21:11:02 -3.3 C 3.08 g/m*3 -3.3 C 0 km/h
3225 07-01-2010 21:23:01 -3.3 C 3.08 g/m*3 -3.3 C 0 km/h
Sensor: Nr:Datum:Temp:Abs-Feuchte:Windchill:Wind:
Aussen-T/F 3226 07-01-2010 21:35:01 -3.3 C 3.08 g/m*3 -3.3 C 0 km/h
3227 07-01-2010 21:47:01 -3.3 C 3.04 g/m*3 -3.3 C 0 km/h
3228 07-01-2010 21:59:01 -3.4 C 3.02 g/m*3 -3.4 C 0 km/h
3229 07-01-2010 22:11:01 -3.4 C 3.02 g/m*3 -3.4 C 0 km/h
3230 07-01-2010 22:23:02 -3.4 C 2.98 g/m*3 -3.4 C 0 km/h
3231 07-01-2010 22:35:01 -3.6 C 2.94 g/m*3 -3.6 C 0 km/h
3232 07-01-2010 22:47:02 -3.8 C 2.89 g/m*3 -3.8 C 0 km/h
3233 07-01-2010 22:59:02 -4.1 C 2.83 g/m*3 -4.1 C 0 km/h
3234 07-01-2010 23:11:02 -4.2 C 2.81 g/m*3 -4.2 C 0 km/h
3235 07-01-2010 23:23:02 -4.2 C 2.85 g/m*3 -4.2 C 0 km/h
3236 07-01-2010 23:36:03 -4.3 C 2.83 g/m*3 -4.3 C 0 km/h
3237 07-01-2010 23:48:03 -4.4 C 2.81 g/m*3 -4.4 C 0 km/h
3238 08-01-2010 00:00:03 -4.4 C 2.81 g/m*3 -4.4 C 0 km/h
3239 08-01-2010 00:12:03 -4.2 C 2.89 g/m*3 -4.2 C 0 km/h
3240 08-01-2010 00:24:03 -4.1 C 2.91 g/m*3 -4.1 C 0 km/h
3241 08-01-2010 00:36:03 -4.2 C 2.89 g/m*3